Provisional Data: Little Pine Creek near Waterville, PA


Please select a monitoring station.
Please select start date.
Please select start date.

Toggle Unit: C/F Toggle Unit: C/F
Sample Time Temperature (C) Temperature (F) Specific Conductivity (mS/cm) pH   Turbidity (NTU+) DO (mg/L)
10/20/2020 12:00:00 AM 11.56 52.808 0.202 7.11 1.08 9.75
10/20/2020 12:15:00 AM 11.56 52.808 0.202 7.11 1.26 9.74
10/20/2020 12:30:00 AM 11.57 52.826 0.203 7.11 1.11 9.73
10/20/2020 12:45:00 AM 11.58 52.844 0.203 7.11 1.09 9.73
10/20/2020 1:00:00 AM 11.58 52.844 0.203 7.11 1.11 9.72
10/20/2020 1:15:00 AM 11.59 52.862 0.203 7.11 1.04 9.73
10/20/2020 1:30:00 AM 11.6 52.88 0.203 7.1 1.07 9.72
10/20/2020 1:45:00 AM 11.6 52.88 0.203 7.1 1.08 9.72
10/20/2020 2:00:00 AM 11.61 52.898 0.203 7.09 1.09 9.71
10/20/2020 2:15:00 AM 11.61 52.898 0.203 7.09 1.05 9.71
10/20/2020 2:30:00 AM 11.62 52.916 0.203 7.09 1.13 9.71
10/20/2020 2:45:00 AM 11.63 52.934 0.203 7.09 1.09 9.7
10/20/2020 3:00:00 AM 11.64 52.952 0.203 7.09 1.05 9.71
10/20/2020 3:15:00 AM 11.64 52.952 0.203 7.08 1.09 9.71
10/20/2020 3:30:00 AM 11.65 52.97 0.203 7.08 1.04 9.71
10/20/2020 3:45:00 AM 11.66 52.988 0.202 7.08 1.09 9.7
10/20/2020 4:00:00 AM 11.66 52.988 0.202 7.07 1.09 9.69
10/20/2020 4:15:00 AM 11.67 53.006 0.202 7.07 1.06 9.7
10/20/2020 4:30:00 AM 11.68 53.024 0.202 7.08 1.04 9.69
10/20/2020 4:45:00 AM 11.69 53.042 0.202 7.08 1.07 9.69
10/20/2020 5:00:00 AM 11.69 53.042 0.202 7.07 1.19 9.68
10/20/2020 5:15:00 AM 11.7 53.06 0.202 7.07 1.13 9.69
10/20/2020 5:30:00 AM 11.71 53.078 0.202 7.07 1.1 9.68
10/20/2020 5:45:00 AM 11.72 53.096 0.202 7.07 1.07 9.67
10/20/2020 6:00:00 AM 11.73 53.114 0.202 7.07 1.07 9.66
10/20/2020 6:15:00 AM 11.73 53.114 0.202 7.07 1.05 9.67
10/20/2020 6:30:00 AM 11.74 53.132 0.202 7.07 1.04 9.66
10/20/2020 6:45:00 AM 11.75 53.15 0.202 7.07 1.03 9.67
10/20/2020 7:00:00 AM 11.76 53.168 0.202 7.07 1.11 9.65
10/20/2020 7:15:00 AM 11.77 53.186 0.202 7.07 1.11 9.65
10/20/2020 7:30:00 AM 11.78 53.204 0.202 7.07 1.09 9.64
10/20/2020 7:45:00 AM 11.79 53.222 0.202 7.07 1.09 9.65
10/20/2020 8:00:00 AM 11.81 53.258 0.202 7.07 1.05 9.66
10/20/2020 8:15:00 AM 11.83 53.294 0.202 7.07 1.07 9.67
10/20/2020 8:30:00 AM 11.85 53.33 0.202 7.08 1.07 9.71
10/20/2020 8:45:00 AM 11.88 53.384 0.202 7.09 1.1 9.8
10/20/2020 9:00:00 AM 11.92 53.456 0.202 7.1 1.08 9.87
10/20/2020 9:15:00 AM 11.96 53.528 0.202 7.11 1.09 9.94
10/20/2020 9:30:00 AM 12.01 53.618 0.202 7.13 1.05 10.09
10/20/2020 9:45:00 AM 12.09 53.762 0.201 7.15 1.07 10.24
10/20/2020 10:00:00 AM 12.21 53.978 0.201 7.18 1.36 10.42
10/20/2020 10:15:00 AM 12.33 54.194 0.201 7.2 1.06 10.55
10/20/2020 10:30:00 AM 12.46 54.428 0.201 7.22 1.09 10.67
10/20/2020 10:45:00 AM 12.61 54.698 0.2 7.27 1.07 10.79
10/20/2020 11:00:00 AM 12.72 54.896 0.2 7.28 1.06 10.82
10/20/2020 11:15:00 AM 12.84 55.112 0.2 7.3 1.01 10.86
10/20/2020 11:30:00 AM 13 55.4 0.2 7.32 1.08 10.91
10/20/2020 11:45:00 AM 13.2 55.76 0.2 7.35 1.05 10.95
10/20/2020 12:00:00 PM 13.37 56.066 0.2 7.39 1.06 11.02
10/20/2020 12:15:00 PM 13.46 56.228 0.2 7.41 1.1 11.01
10/20/2020 12:30:00 PM 13.55 56.39 0.2 7.39 3.51 10.94
10/20/2020 12:45:00 PM 13.62 56.516 0.2 7.4 1.52 10.93
10/20/2020 1:00:00 PM 13.71 56.678 0.2 7.41 1.09 10.89
10/20/2020 1:15:00 PM 13.87 56.966 0.2 7.43 2.18 10.9
10/20/2020 1:30:00 PM 13.98 57.164 0.2 7.45 1.1 10.93
10/20/2020 1:45:00 PM 14.16 57.488 0.2 7.49 1.03 10.99
10/20/2020 2:00:00 PM 14.27 57.686 0.2 7.52 1.07 11.02
10/20/2020 2:15:00 PM 14.37 57.866 0.2 7.52 1.09 10.98
10/20/2020 2:30:00 PM 14.58 58.244 0.2 7.54 1.02 10.96
10/20/2020 2:45:00 PM 14.66 58.388 0.2 7.55 1.03 10.92
10/20/2020 3:00:00 PM 14.75 58.55 0.2 7.55 1.06 10.9
10/20/2020 3:15:00 PM 14.8 58.64 0.2 7.56 1.1 10.85
10/20/2020 3:30:00 PM 14.88 58.784 0.2 7.58 1.13 10.88
10/20/2020 3:45:00 PM 14.93 58.874 0.2 7.57 1.07 10.8
10/20/2020 4:00:00 PM 15 59 0.2 7.59 1.14 10.81
10/20/2020 4:15:00 PM 15.08 59.144 0.2 7.6 1.01 10.81
10/20/2020 4:30:00 PM 15.14 59.252 0.2 7.61 0.99 10.79
10/20/2020 4:45:00 PM 15.2 59.36 0.2 7.63 1 10.75
10/20/2020 5:00:00 PM 15.18 59.324 0.2 7.56 2.49 10.56
10/20/2020 5:15:00 PM 15.14 59.252 0.2 7.56 1.21 10.51
10/20/2020 5:30:00 PM 15.1 59.18 0.201 7.51 1.02 10.35
10/20/2020 5:45:00 PM 15.02 59.036 0.201 7.46 1 10.16
10/20/2020 6:00:00 PM 14.94 58.892 0.201 7.41 0.96 9.99
10/20/2020 6:15:00 PM 14.85 58.73 0.202 7.36 1.07 9.83
10/20/2020 6:30:00 PM 14.76 58.568 0.202 7.31 1.32 9.69
10/20/2020 6:45:00 PM 14.67 58.406 0.203 7.28 1.07 9.56
10/20/2020 7:00:00 PM 14.6 58.28 0.203 7.25 1.06 9.47
10/20/2020 7:15:00 PM 14.53 58.154 0.203 7.23 1.17 9.39
10/20/2020 7:30:00 PM 14.47 58.046 0.204 7.21 1.09 9.31
10/20/2020 7:45:00 PM 14.42 57.956 0.204 7.19 1.05 9.26
10/20/2020 8:00:00 PM 14.39 57.902 0.204 7.18 1.13 9.22
10/20/2020 8:15:00 PM 14.34 57.812 0.204 7.18 1 9.2
10/20/2020 8:30:00 PM 14.3 57.74 0.205 7.17 1.06 9.17
10/20/2020 8:45:00 PM 14.25 57.65 0.205 7.17 1.09 9.15
10/20/2020 9:00:00 PM 14.19 57.542 0.205 7.16 1.06 9.14
10/20/2020 9:15:00 PM 14.15 57.47 0.205 7.15 1 9.13
10/20/2020 9:30:00 PM 14.1 57.38 0.205 7.16 1.11 9.12
10/20/2020 9:45:00 PM 14.06 57.308 0.205 7.15 1.03 9.12
10/20/2020 10:00:00 PM 14.02 57.236 0.205 7.15 1.06 9.11
10/20/2020 10:15:00 PM 13.98 57.164 0.205 7.14 1.02 9.11
10/20/2020 10:30:00 PM 13.94 57.092 0.205 7.14 1.09 9.11
10/20/2020 10:45:00 PM 13.91 57.038 0.205 7.14 1.07 9.11
10/20/2020 11:00:00 PM 13.87 56.966 0.205 7.14 1.07 9.11
10/20/2020 11:15:00 PM 13.83 56.894 0.205 7.13 1.09 9.12
10/20/2020 11:30:00 PM 13.79 56.822 0.205 7.13 1.01 9.12
10/20/2020 11:45:00 PM 13.76 56.768 0.205 7.13 1.03 9.13
10/21/2020 12:00:00 AM 13.72 56.696 0.205 7.13 1.15 9.15
10/21/2020 12:15:00 AM 13.67 56.606 0.205 7.12 1.12 9.16
10/21/2020 12:30:00 AM 13.63 56.534 0.205 7.13 1.06 9.17
10/21/2020 12:45:00 AM 13.57 56.426 0.205 7.12 1.01 9.18
10/21/2020 1:00:00 AM 13.54 56.372 0.205 7.12 1.02 9.19
10/21/2020 1:15:00 AM 13.5 56.3 0.205 7.12 1.07 9.21
10/21/2020 1:30:00 AM 13.47 56.246 0.205 7.12 1.17 9.22
10/21/2020 1:45:00 AM 13.45 56.21 0.205 7.12 1.06 9.21
10/21/2020 2:00:00 AM 13.43 56.174 0.205 7.12 1.08 9.23
10/21/2020 2:15:00 AM 13.41 56.138 0.205 7.12 0.99 9.23
10/21/2020 2:30:00 AM 13.4 56.12 0.205 7.12 1.04 9.24
10/21/2020 2:45:00 AM 13.38 56.084 0.205 7.12 1.01 9.23
10/21/2020 3:00:00 AM 13.37 56.066 0.205 7.11 1.06 9.23
10/21/2020 3:15:00 AM 13.36 56.048 0.205 7.12 1.06 9.23
10/21/2020 3:30:00 AM 13.35 56.03 0.205 7.12 1.07 9.24
10/21/2020 3:45:00 AM 13.34 56.012 0.205 7.12 1.04 9.24
10/21/2020 4:00:00 AM 13.33 55.994 0.205 7.12 1.02 9.24
10/21/2020 4:15:00 AM 13.31 55.958 0.205 7.11 1.05 9.26
10/21/2020 4:30:00 AM 13.3 55.94 0.205 7.11 1.08 9.25
10/21/2020 4:45:00 AM 13.29 55.922 0.205 7.11 1.02 9.25
10/21/2020 5:00:00 AM 13.28 55.904 0.206 7.11 1.01 9.25
10/21/2020 5:15:00 AM 13.27 55.886 0.205 7.11 1.02 9.27
10/21/2020 5:30:00 AM 13.26 55.868 0.206 7.11 1 9.26
10/21/2020 5:45:00 AM 13.25 55.85 0.206 7.11 1.05 9.27
10/21/2020 6:00:00 AM 13.24 55.832 0.206 7.11 1.36 9.27
10/21/2020 6:15:00 AM 13.22 55.796 0.206 7.11 1.09 9.28
10/21/2020 6:30:00 AM 13.21 55.778 0.206 7.11 1.14 9.28
10/21/2020 6:45:00 AM 13.2 55.76 0.206 7.11 1.14 9.29
10/21/2020 7:00:00 AM 13.19 55.742 0.206 7.11 1.03 9.28
10/21/2020 7:15:00 AM 13.17 55.706 0.206 7.11 1.27 9.3
10/21/2020 7:30:00 AM 13.15 55.67 0.206 7.1 1.08 9.3
10/21/2020 7:45:00 AM 13.15 55.67 0.206 7.11 1.1 9.3
10/21/2020 8:00:00 AM 13.15 55.67 0.206 7.12 1.08 9.34
10/21/2020 8:15:00 AM 13.15 55.67 0.206 7.12 1.06 9.37
10/21/2020 8:30:00 AM 13.17 55.706 0.206 7.13 1.05 9.45
10/21/2020 8:45:00 AM 13.2 55.76 0.206 7.15 1.08 9.55
10/21/2020 9:00:00 AM 13.25 55.85 0.206 7.17 1.01 9.71
10/21/2020 9:15:00 AM 13.33 55.994 0.206 7.19 1.03 9.93
10/21/2020 9:30:00 AM 13.41 56.138 0.205 7.22 0.99 10.08
10/21/2020 9:45:00 AM 13.5 56.3 0.205 7.25 1.11 10.28
10/21/2020 10:00:00 AM 13.56 56.408 0.205 7.28 1.02 10.36
10/21/2020 10:15:00 AM 13.63 56.534 0.205 7.29 1.01 10.4
10/21/2020 10:30:00 AM 13.74 56.732 0.204 7.31 1.03 10.46
10/21/2020 10:45:00 AM 13.88 56.984 0.204 7.33 1.03 10.49
10/21/2020 11:00:00 AM 14.07 57.326 0.204 7.34 0.98 10.51
10/21/2020 11:15:00 AM 14.24 57.632 0.204 7.37 1 10.54
10/21/2020 11:30:00 AM 14.48 58.064 0.204 7.4 0.98 10.55
10/21/2020 11:45:00 AM 14.74 58.532 0.204 7.41 1.15 10.53
10/21/2020 12:00:00 PM 15.02 59.036 0.204 7.45 0.97 10.55
10/21/2020 12:15:00 PM 15.28 59.504 0.204 7.47 1.05 10.54
10/21/2020 12:30:00 PM 15.55 59.99 0.204 7.48 0.97 10.53
10/21/2020 12:45:00 PM 15.81 60.458 0.204 7.48 1.03 10.47
10/21/2020 1:00:00 PM 16.11 60.998 0.204 7.5 1 10.44
10/21/2020 1:15:00 PM 16.4 61.52 0.203 7.48 0.95 10.4
10/21/2020 1:30:00 PM 16.76 62.168 0.203 7.51 0.95 10.35
10/21/2020 1:45:00 PM 17.15 62.87 0.203 7.53 1.07 10.31
10/21/2020 2:00:00 PM 17.65 63.77 0.203 7.57 1 10.31
10/21/2020 2:15:00 PM 18.07 64.526 0.203 7.58 0.92 10.25
10/21/2020 2:30:00 PM 18.6 65.48 0.203 7.6 1.03 10.18
10/21/2020 2:45:00 PM 19.03 66.254 0.203 7.61 0.94 10.09
10/21/2020 3:00:00 PM 19.41 66.938 0.203 7.6 0.95 9.98
10/21/2020 3:15:00 PM 19.69 67.442 0.203 7.6 0.88 9.86
10/21/2020 3:30:00 PM 19.88 67.784 0.204 7.58 0.92 9.79
10/21/2020 3:45:00 PM 20 68 0.204 7.57 0.87 9.73
10/21/2020 4:00:00 PM 19.95 67.91 0.204 7.55 0.9 9.65
10/21/2020 4:15:00 PM 19.81 67.658 0.204 7.53 0.94 9.58
10/21/2020 4:30:00 PM 19.68 67.424 0.204 7.51 0.93 9.57
10/21/2020 4:45:00 PM 19.51 67.118 0.204 7.49 0.95 9.55
10/21/2020 5:00:00 PM 19.24 66.632 0.204 7.45 0.98 9.47
10/21/2020 5:15:00 PM 18.99 66.182 0.204 7.4 1.01 9.38
10/21/2020 5:30:00 PM 18.7 65.66 0.204 7.33 0.92 9.26
10/21/2020 5:45:00 PM 18.38 65.084 0.205 7.26 1.12 9.12
10/21/2020 6:00:00 PM 18.1 64.58 0.205 7.2 0.94 8.99
10/21/2020 6:15:00 PM 17.87 64.166 0.205 7.16 0.98 8.86
10/21/2020 6:30:00 PM 17.64 63.752 0.206 7.13 1.1 8.75
10/21/2020 6:45:00 PM 17.45 63.41 0.206 7.11 1.01 8.68
10/21/2020 7:00:00 PM 17.25 63.05 0.206 7.09 1.07 8.61
10/21/2020 7:15:00 PM 17.08 62.744 0.206 7.08 1.03 8.56
10/21/2020 7:30:00 PM 16.92 62.456 0.206 7.07 1.03 8.51
10/21/2020 7:45:00 PM 16.77 62.186 0.206 7.06 1.74 8.47
10/21/2020 8:00:00 PM 16.63 61.934 0.206 7.06 1.07 8.45
10/21/2020 8:15:00 PM 16.53 61.754 0.206 7.06 1.09 8.43
10/21/2020 8:30:00 PM 16.42 61.556 0.207 7.06 1.07 8.42
10/21/2020 8:45:00 PM 16.33 61.394 0.206 7.06 1.04 8.4
10/21/2020 9:00:00 PM 16.26 61.268 0.206 7.06 1.01 8.4
10/21/2020 9:15:00 PM 16.2 61.16 0.206 7.06 1.02 8.4
10/21/2020 9:30:00 PM 16.13 61.034 0.206 7.07 1.01 8.4
10/21/2020 9:45:00 PM 16.09 60.962 0.207 7.07 1.12 8.41
10/21/2020 10:00:00 PM 16.07 60.926 0.207 7.07 0.98 8.41
10/21/2020 10:15:00 PM 16.05 60.89 0.207 7.08 1.05 8.41
10/21/2020 10:30:00 PM 16.03 60.854 0.207 7.08 1.14 8.4
10/21/2020 10:45:00 PM 16 60.8 0.207 7.07 1.13 8.39
10/21/2020 11:00:00 PM 15.96 60.728 0.207 7.07 1 8.38
10/21/2020 11:15:00 PM 15.91 60.638 0.207 7.07 1.05 8.4
10/21/2020 11:30:00 PM 15.85 60.53 0.207 7.07 0.96 8.43
10/21/2020 11:45:00 PM 15.81 60.458 0.207 7.07 0.99 8.42
10/22/2020 12:00:00 AM 15.77 60.386 0.207 7.06 1.03 8.42
10/22/2020 12:15:00 AM 15.71 60.278 0.207 7.06 1.04 8.44
10/22/2020 12:30:00 AM 15.65 60.17 0.206 7.05 1.02 8.46
10/22/2020 12:45:00 AM 15.59 60.062 0.207 7.05 1.11 8.49
10/22/2020 1:00:00 AM 15.54 59.972 0.207 7.05 1.13 8.5
10/22/2020 1:15:00 AM 15.48 59.864 0.206 7.05 0.98 8.52
10/22/2020 1:30:00 AM 15.45 59.81 0.206 7.05 1.07 8.52
10/22/2020 1:45:00 AM 15.42 59.756 0.206 7.05 1.02 8.54
10/22/2020 2:00:00 AM 15.38 59.684 0.206 7.05 1.07 8.55
10/22/2020 2:15:00 AM 15.36 59.648 0.206 7.05 1.02 8.57
10/22/2020 2:30:00 AM 15.34 59.612 0.206 7.05 1 8.57
10/22/2020 2:45:00 AM 15.33 59.594 0.206 7.05 1.1 8.59
10/22/2020 3:00:00 AM 15.32 59.576 0.206 7.05 1.02 8.58
10/22/2020 3:15:00 AM 15.3 59.54 0.206 7.05 1 8.59
10/22/2020 3:30:00 AM 15.3 59.54 0.206 7.05 1.18 8.6
10/22/2020 3:45:00 AM 15.29 59.522 0.206 7.05 0.97 8.6
10/22/2020 4:00:00 AM 15.28 59.504 0.206 7.05 1.14 8.61
10/22/2020 4:15:00 AM 15.27 59.486 0.206 7.06 0.99 8.61
10/22/2020 4:30:00 AM 15.26 59.468 0.206 7.05 1.03 8.62
10/22/2020 4:45:00 AM 15.25 59.45 0.206 7.05 0.99 8.63
10/22/2020 5:00:00 AM 15.24 59.432 0.206 7.05 1.01 8.63
10/22/2020 5:15:00 AM 15.23 59.414 0.206 7.05 0.97 8.63
10/22/2020 5:30:00 AM 15.22 59.396 0.207 7.05 0.96 8.65
10/22/2020 5:45:00 AM 15.2 59.36 0.207 7.05 1.1 8.65
10/22/2020 6:00:00 AM 15.19 59.342 0.207 7.05 1.13 8.65
10/22/2020 6:15:00 AM 15.18 59.324 0.207 7.05 1.1 8.66
10/22/2020 6:30:00 AM 15.17 59.306 0.207 7.05 1.05 8.67
10/22/2020 6:45:00 AM 15.16 59.288 0.207 7.05 0.98 8.67
10/22/2020 7:00:00 AM 15.15 59.27 0.207 7.05 1.01 8.68
10/22/2020 7:15:00 AM 15.14 59.252 0.207 7.05 1.05 8.67
10/22/2020 7:30:00 AM 15.13 59.234 0.207 7.05 1.14 8.67
10/22/2020 7:45:00 AM 15.12 59.216 0.207 7.05 1.03 8.69
10/22/2020 8:00:00 AM 15.12 59.216 0.207 7.04 1.23 8.69
10/22/2020 8:15:00 AM 15.11 59.198 0.208 7.06 1.06 8.75
10/22/2020 8:30:00 AM 15.12 59.216 0.208 7.06 1 8.8
10/22/2020 8:45:00 AM 15.12 59.216 0.208 7.07 0.98 8.88
10/22/2020 9:00:00 AM 15.13 59.234 0.208 7.08 1.21 8.94
10/22/2020 9:15:00 AM 15.16 59.288 0.207 7.09 1.01 9.05
10/22/2020 9:30:00 AM 15.2 59.36 0.207 7.1 1.03 9.19
10/22/2020 9:45:00 AM 15.27 59.486 0.207 7.12 1.06 9.34
10/22/2020 10:00:00 AM 15.32 59.576 0.207 7.15 0.98 9.5
10/22/2020 10:15:00 AM 15.34 59.612 0.207 7.17 1.03 9.58
10/22/2020 10:30:00 AM 15.39 59.702 0.206 7.19 1.19 9.67
10/22/2020 10:45:00 AM 15.48 59.864 0.206 7.21 1.01 9.77
10/22/2020 11:00:00 AM 15.57 60.026 0.206 7.22 1 9.81
10/22/2020 11:15:00 AM 15.72 60.296 0.206 7.25 1 9.85
10/22/2020 11:30:00 AM 15.9 60.62 0.206 7.27 0.99 9.92
10/22/2020 11:45:00 AM 16.13 61.034 0.206 7.29 1.02 9.94
10/22/2020 12:00:00 PM 16.32 61.376 0.206 7.32 0.99 10.01
10/22/2020 12:15:00 PM 16.58 61.844 0.206 7.34 0.92 10.01
10/22/2020 12:30:00 PM 16.82 62.276 0.206 7.37 1 10.02
10/22/2020 12:45:00 PM 17.07 62.726 0.206 7.37 1.01 10
10/22/2020 1:00:00 PM 17.36 63.248 0.205 7.4 0.95 10
10/22/2020 1:15:00 PM 17.71 63.878 0.205 7.42 0.93 9.98
10/22/2020 1:30:00 PM 18.03 64.454 0.205 7.43 0.9 9.91
10/22/2020 1:45:00 PM 18.35 65.03 0.205 7.45 0.96 9.87
10/22/2020 2:00:00 PM 18.74 65.732 0.205 7.46 0.97 9.84
10/22/2020 2:15:00 PM 19.12 66.416 0.205 7.46 1 9.74
10/22/2020 2:30:00 PM 19.53 67.154 0.205 7.47 0.95 9.69
10/22/2020 2:45:00 PM 19.96 67.92799 0.205 7.46 0.93 9.62
10/22/2020 3:00:00 PM 20.24 68.432 0.205 7.48 0.9 9.55
10/22/2020 3:15:00 PM 20.48 68.864 0.205 7.47 0.87 9.47
10/22/2020 3:30:00 PM 20.61 69.098 0.205 7.47 1.06 9.4
10/22/2020 3:45:00 PM 20.68 69.224 0.206 7.45 0.94 9.33
10/22/2020 4:00:00 PM 20.7 69.26 0.206 7.44 0.88 9.28
10/22/2020 4:15:00 PM 20.64 69.152 0.206 7.41 0.87 9.22
10/22/2020 4:30:00 PM 20.56 69.008 0.206 7.4 1.01 9.2
10/22/2020 4:45:00 PM 20.34 68.612 0.206 7.39 0.93 9.16
10/22/2020 5:00:00 PM 20.04 68.07201 0.206 7.35 0.9 9.1
10/22/2020 5:15:00 PM 19.68 67.424 0.206 7.3 1.1 9.01
10/22/2020 5:30:00 PM 19.23 66.614 0.206 7.23 0.92 8.92
10/22/2020 5:45:00 PM 18.85 65.93 0.207 7.16 0.93 8.84
10/22/2020 6:00:00 PM 18.49 65.282 0.207 7.11 0.95 8.77
10/22/2020 6:15:00 PM 18.16 64.688 0.207 7.08 0.91 8.7
10/22/2020 6:30:00 PM 17.92 64.256 0.207 7.06 0.98 8.64
10/22/2020 6:45:00 PM 17.66 63.788 0.207 7.06 1.06 8.56
10/22/2020 7:00:00 PM 17.43 63.374 0.208 7.05 1.08 8.49
10/22/2020 7:15:00 PM 17.27 63.086 0.208 7.04 1 8.43
10/22/2020 7:30:00 PM 17.1 62.78 0.208 7.04 0.96 8.39
10/22/2020 7:45:00 PM 16.94 62.492 0.208 7.05 0.99 8.36
10/22/2020 8:00:00 PM 16.83 62.294 0.208 7.05 1.01 8.32
10/22/2020 8:15:00 PM 16.74 62.132 0.208 7.05 1.05 8.29
10/22/2020 8:30:00 PM 16.66 61.988 0.208 7.05 0.99 8.28
10/22/2020 8:45:00 PM 16.59 61.862 0.208 7.06 1.04 8.25
10/22/2020 9:00:00 PM 16.53 61.754 0.208 7.06 1.1 8.23
10/22/2020 9:15:00 PM 16.48 61.664 0.208 7.06 1.02 8.25
10/22/2020 9:30:00 PM 16.44 61.592 0.208 7.07 1.08 8.23
10/22/2020 9:45:00 PM 16.4 61.52 0.208 7.07 1 8.23
10/22/2020 10:00:00 PM 16.36 61.448 0.208 7.07 1.04 8.24
10/22/2020 10:15:00 PM 16.32 61.376 0.208 7.07 1.05 8.24
10/22/2020 10:30:00 PM 16.27 61.286 0.209 7.07 1.01 8.24
10/22/2020 10:45:00 PM 16.2 61.16 0.209 7.07 1 8.25
10/22/2020 11:00:00 PM 16.15 61.07 0.209 7.07 1.04 8.27
10/22/2020 11:15:00 PM 16.09 60.962 0.209 7.06 1.25 8.28
10/22/2020 11:30:00 PM 16.04 60.872 0.209 7.06 1.02 8.25
10/22/2020 11:45:00 PM 15.97 60.746 0.209 7.05 1.03 8.28
10/23/2020 12:00:00 AM 15.9 60.62 0.209 7.05 1.03 8.31
10/23/2020 12:15:00 AM 15.83 60.494 0.209 7.05 1.02 8.31
10/23/2020 12:30:00 AM 15.77 60.386 0.209 7.05 1.04 8.33
10/23/2020 12:45:00 AM 15.7 60.26 0.209 7.04 1.5 8.35
10/23/2020 1:00:00 AM 15.64 60.152 0.209 7.04 1.32 8.37
10/23/2020 1:15:00 AM 15.57 60.026 0.209 7.04 1.45 8.39
10/23/2020 1:30:00 AM 15.5 59.9 0.209 7.04 1.22 8.41
10/23/2020 1:45:00 AM 15.43 59.774 0.209 7.04 1.48 8.43
10/23/2020 2:00:00 AM 15.36 59.648 0.209 7.04 1.28 8.47
10/23/2020 2:15:00 AM 15.29 59.522 0.209 7.04 1.08 8.48
10/23/2020 2:30:00 AM 15.21 59.378 0.209 7.04 1.21 8.5
10/23/2020 2:45:00 AM 15.15 59.27 0.209 7.03 1.03 8.51
10/23/2020 3:00:00 AM 15.08 59.144 0.209 7.04 1.11 8.52
10/23/2020 3:15:00 AM 15.02 59.036 0.209 7.04 1.04 8.54
10/23/2020 3:30:00 AM 14.95 58.91 0.209 7.04 1.06 8.56
10/23/2020 3:45:00 AM 14.87 58.766 0.209 7.03 1.12 8.59
10/23/2020 4:00:00 AM 14.81 58.658 0.209 7.03 1.16 8.61
10/23/2020 4:15:00 AM 14.74 58.532 0.209 7.04 1.05 8.63
10/23/2020 4:30:00 AM 14.68 58.424 0.21 7.04 1.12 8.63
10/23/2020 4:45:00 AM 14.61 58.298 0.21 7.04 1.06 8.65
10/23/2020 5:00:00 AM 14.55 58.19 0.209 7.04 1.05 8.67
10/23/2020 5:15:00 AM 14.51 58.118 0.209 7.04 1.07 8.68
10/23/2020 5:30:00 AM 14.47 58.046 0.209 7.04 1.03 8.71
10/23/2020 5:45:00 AM 14.45 58.01 0.21 7.04 1.01 8.73
10/23/2020 6:00:00 AM 14.44 57.992 0.21 7.05 1.01 8.75
10/23/2020 6:15:00 AM 14.44 57.992 0.21 7.06 1.16 8.76
10/23/2020 6:30:00 AM 14.45 58.01 0.21 7.06 1.02 8.75
10/23/2020 6:45:00 AM 14.46 58.028 0.21 7.07 1.08 8.76
10/23/2020 7:00:00 AM 14.48 58.064 0.21 7.07 1.02 8.77
10/23/2020 7:15:00 AM 14.48 58.064 0.21 7.07 1.03 8.77
10/23/2020 7:30:00 AM 14.5 58.1 0.21 7.07 1.12 8.75
10/23/2020 7:45:00 AM 14.51 58.118 0.21 7.08 1 8.78
10/23/2020 8:00:00 AM 14.53 58.154 0.21 7.08 0.96 8.79
10/23/2020 8:15:00 AM 14.54 58.172 0.21 7.09 0.96 8.84
10/23/2020 8:30:00 AM 14.58 58.244 0.21 7.09 0.98 8.9
10/23/2020 8:45:00 AM 14.61 58.298 0.21 7.1 1.1 8.98
10/23/2020 9:00:00 AM 14.66 58.388 0.209 7.12 1.24 9.09
10/23/2020 9:15:00 AM 14.73 58.514 0.209 7.14 0.96 9.25
10/23/2020 9:30:00 AM 14.8 58.64 0.209 7.15 0.93 9.37
10/23/2020 9:45:00 AM 14.84 58.712 0.209 7.16 1.24 9.44
10/23/2020 10:00:00 AM 14.92 58.856 0.208 7.17 1.06 9.54
10/23/2020 10:15:00 AM 15.03 59.054 0.208 7.2 0.98 9.67
10/23/2020 10:30:00 AM 15.16 59.288 0.208 7.23 0.94 9.83
10/23/2020 10:45:00 AM 15.28 59.504 0.207 7.25 0.98 9.94
10/23/2020 11:00:00 AM 15.38 59.684 0.207 7.27 1 10.04
10/23/2020 11:15:00 AM 15.5 59.9 0.207 7.29 0.98 10.09
10/23/2020 11:30:00 AM 15.64 60.152 0.207 7.3 0.99 10.13
10/23/2020 11:45:00 AM 15.85 60.53 0.206 7.33 0.93 10.15
10/23/2020 12:00:00 PM 16.1 60.98 0.206 7.36 1.01 10.16
10/23/2020 12:15:00 PM 16.36 61.448 0.206 7.37 1.09 10.16
10/23/2020 12:30:00 PM 16.63 61.934 0.206 7.41 0.89 10.16
10/23/2020 12:45:00 PM 16.93 62.474 0.206 7.42 1.19 10.15
10/23/2020 1:00:00 PM 17.22 62.996 0.206 7.44 1.03 10.15
10/23/2020 1:15:00 PM 17.56 63.608 0.206 7.46 1.05 10.08
10/23/2020 1:30:00 PM 17.85 64.13 0.206 7.46 1.03 10.03
10/23/2020 1:45:00 PM 18.16 64.688 0.206 7.46 0.91 9.92
10/23/2020 2:00:00 PM 18.44 65.192 0.206 7.44 0.96 9.85
10/23/2020 2:15:00 PM 18.71 65.67799 0.206 7.48 0.98 9.84
10/23/2020 2:30:00 PM 19 66.2 0.206 7.49 1.01 9.82
10/23/2020 2:45:00 PM 19.34 66.812 0.206 7.49 1.03 9.77
10/23/2020 3:00:00 PM 19.6 67.28 0.206 7.48 0.89 9.7
10/23/2020 3:15:00 PM 19.83 67.694 0.206 7.48 0.85 9.65
10/23/2020 3:30:00 PM 20.08 68.144 0.206 7.48 0.88 9.6
10/23/2020 3:45:00 PM 20.19 68.342 0.206 7.47 0.91 9.56
10/23/2020 4:00:00 PM 20.23 68.414 0.206 7.47 0.84 9.45
10/23/2020 4:15:00 PM 20.24 68.432 0.206 7.45 0.82 9.4
10/23/2020 4:30:00 PM 20.21 68.378 0.206 7.44 0.87 9.32
10/23/2020 4:45:00 PM 20.05 68.09 0.206 7.41 0.87 9.21
10/23/2020 5:00:00 PM 19.82 67.676 0.206 7.39 0.86 9.17
10/23/2020 5:15:00 PM 19.51 67.118 0.206 7.34 0.93 9.04
10/23/2020 5:30:00 PM 19.15 66.47 0.207 7.28 0.86 8.91
10/23/2020 5:45:00 PM 18.79 65.82201 0.207 7.2 0.91 8.78
10/23/2020 6:00:00 PM 18.48 65.264 0.208 7.15 0.88 8.7
10/23/2020 6:15:00 PM 18.21 64.778 0.208 7.12 0.93 8.62
10/23/2020 6:30:00 PM 17.99 64.382 0.208 7.11 1.03 8.51
10/23/2020 6:45:00 PM 17.76 63.968 0.208 7.09 0.99 8.44
10/23/2020 7:00:00 PM 17.53 63.554 0.209 7.07 1.01 8.35
10/23/2020 7:15:00 PM 17.38 63.284 0.209 7.07 1.02 8.29
10/23/2020 7:30:00 PM 17.21 62.978 0.209 7.06 1 8.22
10/23/2020 7:45:00 PM 17.08 62.744 0.209 7.07 0.91 8.19
10/23/2020 8:00:00 PM 16.95 62.51 0.209 7.07 0.97 8.17
10/23/2020 8:15:00 PM 16.84 62.312 0.209 7.06 0.95 8.14
10/23/2020 8:30:00 PM 16.75 62.15 0.209 7.06 1.05 8.11
10/23/2020 8:45:00 PM 16.68 62.024 0.209 7.07 0.92 8.09
10/23/2020 9:00:00 PM 16.59 61.862 0.21 7.07 1.08 8.06
10/23/2020 9:15:00 PM 16.53 61.754 0.21 7.07 1.02 8.06
10/23/2020 9:30:00 PM 16.46 61.628 0.21 7.07 0.95 8.05
10/23/2020 9:45:00 PM 16.41 61.538 0.21 7.07 0.98 8.03
10/23/2020 10:00:00 PM 16.34 61.412 0.21 7.07 1.08 8.06
10/23/2020 10:15:00 PM 16.29 61.322 0.21 7.06 1.03 8.05
10/23/2020 10:30:00 PM 16.23 61.214 0.21 7.06 1.03 8.05
10/23/2020 10:45:00 PM 16.19 61.142 0.21 7.05 0.98 8.04
10/23/2020 11:00:00 PM 16.13 61.034 0.21 7.05 0.98 8.07
10/23/2020 11:15:00 PM 16.08 60.944 0.21 7.06 1 8.09
10/23/2020 11:30:00 PM 16.02 60.836 0.21 7.05 1.05 8.09
10/23/2020 11:45:00 PM 15.97 60.746 0.21 7.05 0.94 8.12
10/24/2020 12:00:00 AM 15.91 60.638 0.21 7.05 1.04 8.12
10/24/2020 12:15:00 AM 15.85 60.53 0.21 7.05 0.98 8.13
10/24/2020 12:30:00 AM 15.79 60.422 0.21 7.04 0.95 8.14
10/24/2020 12:45:00 AM 15.73 60.314 0.21 7.05 0.95 8.17
10/24/2020 1:00:00 AM 15.69 60.242 0.21 7.04 1 8.19
10/24/2020 1:15:00 AM 15.63 60.134 0.21 7.04 0.93 8.21
10/24/2020 1:30:00 AM 15.57 60.026 0.21 7.04 0.98 8.24
10/24/2020 1:45:00 AM 15.53 59.954 0.21 7.04 1 8.22
10/24/2020 2:00:00 AM 15.49 59.882 0.21 7.04 1.03 8.22
10/24/2020 2:15:00 AM 15.46 59.828 0.21 7.04 0.95 8.26
10/24/2020 2:30:00 AM 15.44 59.792 0.21 7.05 1 8.24
10/24/2020 2:45:00 AM 15.43 59.774 0.21 7.04 1 8.24
10/24/2020 3:00:00 AM 15.42 59.756 0.21 7.05 1 8.25
10/24/2020 3:15:00 AM 15.42 59.756 0.21 7.05 1.01 8.26
10/24/2020 3:30:00 AM 15.4 59.72 0.21 7.05 1.09 8.29
10/24/2020 3:45:00 AM 15.38 59.684 0.21 7.05 0.96 8.28
10/24/2020 4:00:00 AM 15.37 59.666 0.21 7.05 1.08 8.29
10/24/2020 4:15:00 AM 15.36 59.648 0.21 7.06 1 8.29
10/24/2020 4:30:00 AM 15.34 59.612 0.21 7.05 0.97 8.31
10/24/2020 4:45:00 AM 15.33 59.594 0.21 7.05 1.05 8.3
10/24/2020 5:00:00 AM 15.31 59.558 0.209 7.06 0.96 8.33
10/24/2020 5:15:00 AM 15.31 59.558 0.209 7.05 1.03 8.32
10/24/2020 5:30:00 AM 15.3 59.54 0.209 7.04 0.98 8.29
10/24/2020 5:45:00 AM 15.29 59.522 0.209 7.04 1.19 8.25
10/24/2020 6:00:00 AM 15.29 59.522 0.209 7.04 1.17 8.21
10/24/2020 6:15:00 AM 15.3 59.54 0.209 7.03 1.24 8.18
10/24/2020 6:30:00 AM 15.3 59.54 0.208 7.03 1.05 8.16
10/24/2020 6:45:00 AM 15.31 59.558 0.209 7.03 1.01 8.15
10/24/2020 7:00:00 AM 15.32 59.576 0.209 7.03 1 8.14
10/24/2020 7:15:00 AM 15.33 59.594 0.209 7.02 0.96 8.12
10/24/2020 7:30:00 AM 15.34 59.612 0.209 7.03 0.98 8.12
10/24/2020 7:45:00 AM 15.34 59.612 0.209 7.03 1.02 8.16
10/24/2020 8:00:00 AM 15.33 59.594 0.21 7.03 1.02 8.12
10/24/2020 8:15:00 AM 15.31 59.558 0.21 7.03 0.98 8.14
10/24/2020 8:30:00 AM 15.29 59.522 0.21 7.03 1.17 8.16
10/24/2020 8:45:00 AM 15.27 59.486 0.21 7.03 1 8.15
10/24/2020 9:00:00 AM 15.24 59.432 0.21 7.04 0.95 8.22
10/24/2020 9:15:00 AM 15.23 59.414 0.21 7.05 1 8.32
10/24/2020 9:30:00 AM 15.21 59.378 0.21 7.05 1.35 8.4
10/24/2020 9:45:00 AM 15.18 59.324 0.21 7.05 1.82 8.49
10/24/2020 10:00:00 AM 15.17 59.306 0.209 7.08 1.09 8.62
10/24/2020 10:15:00 AM 15.12 59.216 0.209 7.09 0.98 8.77
10/24/2020 10:30:00 AM 15.09 59.162 0.209 7.1 1.04 8.89
10/24/2020 10:45:00 AM 15.12 59.216 0.209 7.12 1 9.04
10/24/2020 11:00:00 AM 15.17 59.306 0.208 7.14 1.02 9.19
10/24/2020 11:15:00 AM 15.19 59.342 0.208 7.16 0.94 9.36
10/24/2020 11:30:00 AM 15.18 59.324 0.208 7.19 1.02 9.53
10/24/2020 11:45:00 AM 15.2 59.36 0.207 7.2 1.17 9.64
10/24/2020 12:00:00 PM 15.17 59.306 0.207 7.21 1.06 9.72
10/24/2020 12:15:00 PM 15.17 59.306 0.207 7.21 1.08 9.76
10/24/2020 12:30:00 PM 15.23 59.414 0.207 7.26 1.03 9.9
10/24/2020 12:45:00 PM 15.26 59.468 0.207 7.29 1.06 10.03
10/24/2020 1:00:00 PM 15.31 59.558 0.206 7.31 1 10.12
10/24/2020 1:15:00 PM 15.35 59.63 0.206 7.33 1 10.2
10/24/2020 1:30:00 PM 15.36 59.648 0.206 7.34 1.03 10.24
10/24/2020 1:45:00 PM 15.54 59.972 0.206 7.36 1.28 10.2
10/24/2020 2:00:00 PM 15.74 60.332 0.206 7.41 1.09 10.27
10/24/2020 2:15:00 PM 15.99 60.782 0.206 7.4 1.14 10.23
10/24/2020 2:30:00 PM 16.21 61.178 0.206 7.45 1.1 10.27
10/24/2020 2:45:00 PM 16.48 61.664 0.206 7.46 0.97 10.23
10/24/2020 3:00:00 PM 16.78 62.204 0.206 7.47 0.97 10.16
10/24/2020 3:15:00 PM 17.01 62.618 0.206 7.47 0.99 10.14
10/24/2020 3:30:00 PM 17.2 62.96 0.206 7.49 0.93 10.08
10/24/2020 3:45:00 PM 17.15 62.87 0.206 7.47 1 10.01
10/24/2020 4:00:00 PM 17.19 62.942 0.206 7.46 3.38 9.93
10/24/2020 4:15:00 PM 17.11 62.798 0.206 7.44 0.97 9.86
10/24/2020 4:30:00 PM 17.03 62.654 0.206 7.43 1.02 9.81
10/24/2020 4:45:00 PM 16.86 62.348 0.206 7.42 0.93 9.77
10/24/2020 5:00:00 PM 16.53 61.754 0.206 7.38 1.02 9.71
10/24/2020 5:15:00 PM 16.12 61.016 0.205 7.32 0.93 9.6
10/24/2020 5:30:00 PM 15.88 60.584 0.206 7.26 0.98 9.55
10/24/2020 5:45:00 PM 15.59 60.062 0.206 7.2 1.07 9.39
10/24/2020 6:00:00 PM 15.23 59.414 0.206 7.18 1.06 9.36
10/24/2020 6:15:00 PM 14.92 58.856 0.206 7.14 1.12 9.27
10/24/2020 6:30:00 PM 14.59 58.262 0.207 7.11 1.1 9.22
10/24/2020 6:45:00 PM 14.19 57.542 0.207 7.09 1.12 9.19
10/24/2020 7:00:00 PM 14 57.2 0.207 7.09 1.06 9.16
10/24/2020 7:15:00 PM 13.81 56.858 0.208 7.1 1.02 9.11
10/24/2020 7:30:00 PM 13.64 56.552 0.208 7.1 1.06 9.09
10/24/2020 7:45:00 PM 13.48 56.264 0.208 7.1 1.09 9.04
10/24/2020 8:00:00 PM 13.32 55.976 0.208 7.11 1.08 9.03
10/24/2020 8:15:00 PM 13.19 55.742 0.208 7.11 1.28 9.01
10/24/2020 8:30:00 PM 13.07 55.526 0.208 7.11 2.24 9.02
10/24/2020 8:45:00 PM 12.94 55.292 0.208 7.1 1.09 9.01
10/24/2020 9:00:00 PM 12.86 55.148 0.209 7.1 1.12 9
10/24/2020 9:15:00 PM 12.81 55.058 0.209 7.12 1.13 8.98
10/24/2020 9:30:00 PM 12.72 54.896 0.209 7.12 1.05 9
10/24/2020 9:45:00 PM 12.67 54.806 0.209 7.12 1.05 9.01
10/24/2020 10:00:00 PM 12.64 54.752 0.209 7.12 1.05 8.96
10/24/2020 10:15:00 PM 12.59 54.662 0.209 7.12 1.17 8.96
10/24/2020 10:30:00 PM 12.56 54.608 0.209 7.13 1.05 8.97
10/24/2020 10:45:00 PM 12.51 54.518 0.209 7.13 0.99 8.99
10/24/2020 11:00:00 PM 12.5 54.5 0.209 7.12 1.03 9
10/24/2020 11:15:00 PM 12.45 54.41 0.209 7.12 1.05 9.03
10/24/2020 11:30:00 PM 12.37 54.266 0.209 7.12 1.04 9.03
10/24/2020 11:45:00 PM 12.33 54.194 0.209 7.12 1.07 9.04
10/25/2020 12:00:00 AM 12.26 54.068 0.209 7.11 1.1 9.07
10/25/2020 12:15:00 AM 12.16 53.888 0.209 7.1 1.05 9.1
10/25/2020 12:30:00 AM 12.09 53.762 0.209 7.1 1.09 9.09
10/25/2020 12:45:00 AM 11.94 53.492 0.209 7.09 1.01 9.12
10/25/2020 1:00:00 AM 11.89 53.402 0.209 7.08 0.99 9.13
10/25/2020 1:15:00 AM 11.83 53.294 0.209 7.07 1.05 9.13
10/25/2020 1:30:00 AM 11.75 53.15 0.209 7.09 1.05 9.14
10/25/2020 1:45:00 AM 11.67 53.006 0.209 7.09 1.02 9.19
10/25/2020 2:00:00 AM 11.58 52.844 0.209 7.08 1.11 9.19
10/25/2020 2:15:00 AM 11.49 52.682 0.209 7.08 1.1 9.24
10/25/2020 2:30:00 AM 11.35 52.43 0.209 7.07 1.08 9.29
10/25/2020 2:45:00 AM 11.26 52.268 0.209 7.07 1.06 9.33
10/25/2020 3:00:00 AM 11.16 52.088 0.209 7.07 1.06 9.37
10/25/2020 3:15:00 AM 11.12 52.016 0.209 7.07 1.15 9.33
10/25/2020 3:30:00 AM 11.03 51.854 0.209 7.08 1.08 9.39
10/25/2020 3:45:00 AM 10.9 51.62 0.209 7.08 1.09 9.46
10/25/2020 4:00:00 AM 10.81 51.458 0.209 7.07 1.09 9.49
10/25/2020 4:30:00 AM 10.6 51.08 0.209 7.08 1.07 9.56
10/25/2020 4:45:00 AM 10.53 50.954 0.209 7.08 1.11 9.58
10/25/2020 5:00:00 AM 10.44 50.792 0.209 7.08 1.11 9.61
10/25/2020 5:15:00 AM 10.37 50.666 0.209 7.08 1.08 9.64
10/25/2020 5:30:00 AM 10.27 50.486 0.209 7.08 1.08 9.66
10/25/2020 5:45:00 AM 10.18 50.324 0.209 7.07 1.02 9.71
10/25/2020 6:00:00 AM 10.08 50.144 0.209 7.08 1.08 9.74
10/25/2020 6:15:00 AM 9.98 49.964 0.209 7.08 1.02 9.77
10/25/2020 6:30:00 AM 9.87 49.766 0.209 7.08 1.07 9.8
10/25/2020 6:45:00 AM 9.81 49.658 0.209 7.08 1.12 9.83
10/25/2020 7:00:00 AM 9.74 49.532 0.209 7.09 1.26 9.85
10/25/2020 7:15:00 AM 9.61 49.298 0.209 7.07 1.07 9.89
10/25/2020 7:30:00 AM 9.55 49.19 0.209 7.07 1.05 9.89
10/25/2020 7:45:00 AM 9.44 48.992 0.21 7.07 1.07 9.93
10/25/2020 8:00:00 AM 9.41 48.938 0.21 7.07 1.05 9.93
10/25/2020 8:15:00 AM 9.38 48.884 0.21 7.09 4.44 9.95
10/25/2020 8:30:00 AM 9.35 48.83 0.21 7.09 1.15 10.02
10/25/2020 8:45:00 AM 9.3 48.74 0.21 7.1 1.05 10.16
10/25/2020 9:00:00 AM 9.27 48.686 0.21 7.12 1.12 10.25
10/25/2020 9:15:00 AM 9.25 48.65 0.209 7.12 1.05 10.28
10/25/2020 9:30:00 AM 9.26 48.668 0.209 7.15 1.14 10.51
10/25/2020 9:45:00 AM 9.27 48.686 0.209 7.18 1.18 10.64
10/25/2020 10:00:00 AM 9.3 48.74 0.209 7.2 1.03 10.81
10/25/2020 10:15:00 AM 9.3 48.74 0.209 7.22 1.07 10.96
10/25/2020 10:30:00 AM 9.35 48.83 0.208 7.22 1.28 11.06
10/25/2020 10:45:00 AM 9.46 49.028 0.208 7.26 1.25 11.16
10/25/2020 11:00:00 AM 9.53 49.154 0.208 7.29 1.06 11.29
10/25/2020 11:15:00 AM 9.7 49.46 0.208 7.32 1.02 11.35
10/25/2020 11:30:00 AM 9.85 49.73 0.207 7.35 1.06 11.39
10/25/2020 11:45:00 AM 9.99 49.982 0.207 7.36 1.01 11.43
10/25/2020 12:00:00 PM 10.17 50.306 0.207 7.38 1.02 11.5
10/25/2020 12:15:00 PM 10.33 50.594 0.207 7.4 1.07 11.53
10/25/2020 12:30:00 PM 10.58 51.044 0.207 7.42 0.97 11.55
10/25/2020 12:45:00 PM 10.86 51.548 0.207 7.45 1.08 11.57
10/25/2020 1:00:00 PM 11.13 52.034 0.206 7.46 1.01 11.54
10/25/2020 1:15:00 PM 11.49 52.682 0.206 7.46 1.22 11.51
10/25/2020 1:30:00 PM 11.8 53.24 0.206 7.5 1.01 11.49
10/25/2020 1:45:00 PM 12.1 53.78 0.206 7.51 0.97 11.42
10/25/2020 2:00:00 PM 12.31 54.158 0.206 7.51 0.99 11.36
10/25/2020 2:15:00 PM 12.56 54.608 0.206 7.52 0.96 11.25
10/25/2020 2:30:00 PM 12.75 54.95 0.206 7.53 0.95 11.19
10/25/2020 2:45:00 PM 12.89 55.202 0.206 7.53 1 11.18
10/25/2020 3:00:00 PM 12.96 55.328 0.206 7.54 0.99 11.19
10/25/2020 3:15:00 PM 13.09 55.562 0.206 7.54 0.91 11.18
10/25/2020 3:30:00 PM 13.13 55.634 0.206 7.54 0.98 11.14
10/25/2020 3:45:00 PM 13.13 55.634 0.206 7.53 1.06 11.11
10/25/2020 4:00:00 PM 13.14 55.652 0.206 7.53 0.96 11.06
10/25/2020 4:15:00 PM 13.14 55.652 0.206 7.53 0.99 11.05
10/25/2020 4:30:00 PM 13.15 55.67 0.206 7.51 1.05 11.04
10/25/2020 4:45:00 PM 13.08 55.544 0.206 7.51 0.97 11
10/25/2020 5:00:00 PM 13.07 55.526 0.206 7.5 1.07 10.98
10/25/2020 5:15:00 PM 12.9 55.22 0.206 7.48 1.03 10.9
10/25/2020 5:30:00 PM 12.78 55.004 0.206 7.46 1.05 10.85
10/25/2020 5:45:00 PM 12.61 54.698 0.206 7.44 1.14 10.77
10/25/2020 6:00:00 PM 12.42 54.356 0.206 7.4 1.01 10.7
10/25/2020 6:15:00 PM 12.23 54.014 0.206 7.37 1.09 10.61
10/25/2020 6:30:00 PM 12.12 53.816 0.207 7.33 1.06 10.5
10/25/2020 6:45:00 PM 12.03 53.654 0.207 7.32 1.06 10.41
10/25/2020 7:00:00 PM 11.99 53.582 0.207 7.3 1.03 10.3
10/25/2020 7:15:00 PM 11.86 53.348 0.207 7.28 1.1 10.15
10/25/2020 7:30:00 PM 11.75 53.15 0.208 7.26 1.04 10.08
10/25/2020 7:45:00 PM 11.63 52.934 0.208 7.24 1.08 10
10/25/2020 8:00:00 PM 11.55 52.79 0.208 7.23 1.09 9.95
10/25/2020 8:15:00 PM 11.47 52.646 0.208 7.22 1.06 9.9
10/25/2020 8:30:00 PM 11.4 52.52 0.208 7.22 1.08 9.86
10/25/2020 8:45:00 PM 11.32 52.376 0.209 7.2 1.13 9.82
10/25/2020 9:00:00 PM 11.15 52.07 0.209 7.19 1.07 9.85
10/25/2020 9:15:00 PM 11.08 51.944 0.209 7.18 1.17 9.85
10/25/2020 9:30:00 PM 11.05 51.89 0.209 7.18 1.08 9.82
10/25/2020 9:45:00 PM 11 51.8 0.209 7.17 1.06 9.8
10/25/2020 10:00:00 PM 10.94 51.692 0.209 7.17 1.06 9.78
10/25/2020 10:15:00 PM 10.96 51.728 0.209 7.17 1.14 9.72
10/25/2020 10:30:00 PM 10.91 51.638 0.209 7.17 1.08 9.7
10/25/2020 10:45:00 PM 10.88 51.584 0.209 7.17 1.29 9.69
10/25/2020 11:00:00 PM 10.79 51.422 0.209 7.16 1.04 9.71
10/25/2020 11:15:00 PM 10.71 51.278 0.209 7.16 1.16 9.76
10/25/2020 11:30:00 PM 10.69 51.242 0.209 7.16 1.04 9.74
10/25/2020 11:45:00 PM 10.63 51.134 0.209 7.15 1.09 9.74
10/26/2020 12:00:00 AM 10.59 51.062 0.209 7.15 1.04 9.74
10/26/2020 12:15:00 AM 10.58 51.044 0.209 7.15 1.09 9.72
10/26/2020 12:30:00 AM 10.56 51.008 0.209 7.15 1.21 9.74
10/26/2020 12:45:00 AM 10.54 50.972 0.209 7.14 1.02 9.72
10/26/2020 1:00:00 AM 10.49 50.882 0.209 7.15 1.12 9.73
10/26/2020 1:15:00 AM 10.45 50.81 0.209 7.14 1.09 9.75
10/26/2020 1:30:00 AM 10.48 50.864 0.209 7.14 1.07 9.72
10/26/2020 1:45:00 AM 10.46 50.828 0.209 7.13 1.01 9.7
10/26/2020 2:00:00 AM 10.45 50.81 0.209 7.13 1.07 9.7
10/26/2020 2:15:00 AM 10.39 50.702 0.209 7.14 1.06 9.72
10/26/2020 2:30:00 AM 10.38 50.684 0.209 7.13 1.09 9.76
10/26/2020 2:45:00 AM 10.39 50.702 0.209 7.13 1.05 9.74
10/26/2020 3:00:00 AM 10.38 50.684 0.209 7.13 1.07 9.72
10/26/2020 3:15:00 AM 10.36 50.648 0.209 7.13 1.06 9.72
10/26/2020 3:30:00 AM 10.36 50.648 0.209 7.12 1.04 9.72
10/26/2020 3:45:00 AM 10.34 50.612 0.209 7.13 1.11 9.74
10/26/2020 4:00:00 AM 10.32 50.576 0.209 7.13 1.05 9.76
10/26/2020 4:15:00 AM 10.31 50.558 0.209 7.12 1.07 9.75
10/26/2020 4:30:00 AM 10.3 50.54 0.209 7.12 1.03 9.74
10/26/2020 4:45:00 AM 10.32 50.576 0.209 7.12 1.08 9.74
10/26/2020 5:00:00 AM 10.33 50.594 0.209 7.12 1.04 9.74
10/26/2020 5:15:00 AM 10.32 50.576 0.209 7.13 1.06 9.75
10/26/2020 5:30:00 AM 10.29 50.522 0.209 7.12 1.01 9.76
10/26/2020 5:45:00 AM 10.27 50.486 0.209 7.12 1 9.76
10/26/2020 6:00:00 AM 10.29 50.522 0.209 7.12 1.08 9.78
10/26/2020 6:15:00 AM 10.29 50.522 0.208 7.12 1 9.78
10/26/2020 6:30:00 AM 10.25 50.45 0.208 7.12 1.04 9.79
10/26/2020 6:45:00 AM 10.26 50.468 0.208 7.11 1.03 9.79
10/26/2020 7:00:00 AM 10.26 50.468 0.208 7.11 1.05 9.78
10/26/2020 7:15:00 AM 10.25 50.45 0.208 7.12 1.01 9.79
10/26/2020 7:30:00 AM 10.25 50.45 0.208 7.11 1.04 9.79
10/26/2020 7:45:00 AM 10.23 50.414 0.208 7.11 1.03 9.78
10/26/2020 8:00:00 AM 10.21 50.378 0.208 7.1 1.05 9.77
10/26/2020 8:15:00 AM 10.22 50.396 0.208 7.11 1.16 9.8
10/26/2020 8:30:00 AM 10.21 50.378 0.207 7.11 1.08 9.82
10/26/2020 8:45:00 AM 10.23 50.414 0.207 7.1 1.16 9.82
10/26/2020 9:00:00 AM 10.24 50.432 0.207 7.11 1.15 9.82
10/26/2020 9:15:00 AM 10.26 50.468 0.207 7.11 1.25 9.86
10/26/2020 9:30:00 AM 10.28 50.504 0.207 7.12 1.12 9.93
10/26/2020 9:45:00 AM 10.3 50.54 0.207 7.14 1.09 9.97
10/26/2020 10:00:00 AM 10.32 50.576 0.207 7.14 1.09 10.04
10/26/2020 10:15:00 AM 10.36 50.648 0.207 7.15 1.05 10.08
10/26/2020 10:30:00 AM 10.41 50.738 0.207 7.16 1.05 10.13
10/26/2020 10:45:00 AM 10.48 50.864 0.207 7.17 1.19 10.3
10/26/2020 11:00:00 AM 10.54 50.972 0.207 7.19 0.99 10.42
10/26/2020 11:15:00 AM 10.58 51.044 0.207 7.2 3.18 10.52
10/26/2020 11:30:00 AM 10.66 51.188 0.207 7.22 1.06 10.63
10/26/2020 11:45:00 AM 10.75 51.35 0.207 7.24 1.01 10.73
10/26/2020 12:00:00 PM 10.81 51.458 0.206 7.25 1.02 10.81
10/26/2020 12:15:00 PM 10.89 51.602 0.206 7.27 0.98 10.92
10/26/2020 12:30:00 PM 10.97 51.746 0.206 7.3 1 11
10/26/2020 12:45:00 PM 11.06 51.908 0.206 7.29 0.97 11.06
10/26/2020 1:00:00 PM 11.15 52.07 0.206 7.33 0.99 11.11
10/26/2020 1:15:00 PM 11.25 52.25 0.205 7.35 1.02 11.17
10/26/2020 1:30:00 PM 11.33 52.394 0.205 7.37 1.01 11.23
10/26/2020 1:45:00 PM 11.39 52.502 0.205 7.4 1.07 11.26
10/26/2020 2:00:00 PM 11.42 52.556 0.205 7.39 1.03 11.25
10/26/2020 2:15:00 PM 11.43 52.574 0.205 7.38 0.97 11.2
10/26/2020 2:30:00 PM 11.47 52.646 0.205 7.39 0.97 11.18
10/26/2020 2:45:00 PM 11.52 52.736 0.205 7.39 0.98 11.14
10/26/2020 3:00:00 PM 11.54 52.772 0.205 7.39 0.95 11.12
10/26/2020 3:15:00 PM 11.56 52.808 0.205 7.39 0.95 11.08
10/26/2020 3:30:00 PM 11.57 52.826 0.205 7.39 1 11.05
10/26/2020 3:45:00 PM 11.57 52.826 0.205 7.4 1.02 11.01
10/26/2020 4:00:00 PM 11.57 52.826 0.205 7.38 1.01 10.96
10/26/2020 4:15:00 PM 11.57 52.826 0.205 7.38 1.33 10.92
10/26/2020 4:30:00 PM 11.59 52.862 0.205 7.34 1.1 10.83
10/26/2020 4:45:00 PM 11.61 52.898 0.205 7.35 1.07 10.81
10/26/2020 5:00:00 PM 11.61 52.898 0.205 7.35 1.09 10.78
10/26/2020 5:15:00 PM 11.61 52.898 0.205 7.35 0.98 10.76
10/26/2020 5:30:00 PM 11.61 52.898 0.205 7.36 0.97 10.75
10/26/2020 5:45:00 PM 11.59 52.862 0.206 7.35 1.03 10.69
10/26/2020 6:00:00 PM 11.58 52.844 0.206 7.34 0.98 10.6
10/26/2020 6:15:00 PM 11.57 52.826 0.206 7.32 1.03 10.51
10/26/2020 6:30:00 PM 11.55 52.79 0.206 7.31 1.04 10.4
10/26/2020 6:45:00 PM 11.54 52.772 0.206 7.29 1.04 10.32
10/26/2020 7:00:00 PM 11.52 52.736 0.206 7.28 1 10.19
10/26/2020 7:15:00 PM 11.5 52.7 0.207 7.26 1 10.1
10/26/2020 7:30:00 PM 11.48 52.664 0.207 7.24 1.04 10
10/26/2020 7:45:00 PM 11.47 52.646 0.207 7.23 1.03 9.93
10/26/2020 8:00:00 PM 11.47 52.646 0.207 7.22 1.15 9.87
10/26/2020 8:15:00 PM 11.45 52.61 0.207 7.21 1.05 9.8
10/26/2020 8:30:00 PM 11.45 52.61 0.208 7.2 1.04 9.75
10/26/2020 8:45:00 PM 11.44 52.592 0.208 7.19 1.03 9.71
10/26/2020 9:00:00 PM 11.44 52.592 0.208 7.19 0.99 9.67
10/26/2020 9:15:00 PM 11.43 52.574 0.208 7.18 1.11 9.63
10/26/2020 9:30:00 PM 11.43 52.574 0.208 7.17 1.09 9.61
10/26/2020 9:45:00 PM 11.43 52.574 0.208 7.17 1.08 9.58
10/26/2020 10:00:00 PM 11.43 52.574 0.208 7.16 1.05 9.54
10/26/2020 10:15:00 PM 11.43 52.574 0.208 7.16 1 9.53
10/26/2020 10:30:00 PM 11.43 52.574 0.208 7.16 1.05 9.52
10/26/2020 10:45:00 PM 11.44 52.592 0.208 7.15 1.02 9.51
10/26/2020 11:00:00 PM 11.44 52.592 0.208 7.15 1.03 9.51
10/26/2020 11:15:00 PM 11.44 52.592 0.208 7.14 1.03 9.49
10/26/2020 11:30:00 PM 11.44 52.592 0.208 7.14 1.03 9.5
10/26/2020 11:45:00 PM 11.43 52.574 0.208 7.13 1.04 9.5
10/27/2020 12:00:00 AM 11.43 52.574 0.208 7.13 1.02 9.5
10/27/2020 12:15:00 AM 11.43 52.574 0.208 7.13 1.07 9.48
10/27/2020 12:30:00 AM 11.43 52.574 0.208 7.13 1.03 9.45
10/27/2020 12:45:00 AM 11.43 52.574 0.208 7.13 1.03 9.46
10/27/2020 1:00:00 AM 11.43 52.574 0.208 7.13 0.99 9.48
10/27/2020 1:15:00 AM 11.43 52.574 0.208 7.13 1 9.49
10/27/2020 1:30:00 AM 11.39 52.502 0.208 7.12 1.03 9.5
10/27/2020 1:45:00 AM 11.36 52.448 0.208 7.12 1 9.51
10/27/2020 2:00:00 AM 11.32 52.376 0.208 7.12 1.04 9.52
10/27/2020 2:15:00 AM 11.31 52.358 0.208 7.11 1.03 9.52
10/27/2020 2:30:00 AM 11.25 52.25 0.208 7.11 1.04 9.53
10/27/2020 2:45:00 AM 11.19 52.142 0.208 7.1 1.03 9.53
10/27/2020 3:00:00 AM 11.12 52.016 0.208 7.1 1.02 9.55
10/27/2020 3:15:00 AM 11.07 51.926 0.208 7.1 1 9.56
10/27/2020 3:30:00 AM 11.05 51.89 0.208 7.09 1.03 9.53
10/27/2020 3:45:00 AM 11.03 51.854 0.208 7.09 1.04 9.53
10/27/2020 4:00:00 AM 10.98 51.764 0.208 7.1 1.01 9.55
10/27/2020 4:15:00 AM 10.93 51.674 0.208 7.1 1.02 9.57
10/27/2020 4:30:00 AM 10.87 51.566 0.208 7.09 1 9.56
10/27/2020 4:45:00 AM 10.88 51.584 0.208 7.09 0.99 9.58
10/27/2020 5:00:00 AM 10.86 51.548 0.208 7.09 1.02 9.58
10/27/2020 5:15:00 AM 10.84 51.512 0.208 7.1 1 9.59
10/27/2020 5:30:00 AM 10.8 51.44 0.208 7.1 1 9.61
10/27/2020 5:45:00 AM 10.77 51.386 0.208 7.1 1 9.6
10/27/2020 6:00:00 AM 10.77 51.386 0.208 7.09 1.1 9.63
10/27/2020 6:15:00 AM 10.76 51.368 0.208 7.1 1.01 9.63
10/27/2020 6:30:00 AM 10.74 51.332 0.208 7.1 1.03 9.65
10/27/2020 6:45:00 AM 10.73 51.314 0.208 7.1 1.05 9.66
10/27/2020 7:00:00 AM 10.72 51.296 0.208 7.1 1.21 9.68
10/27/2020 7:15:00 AM 10.73 51.314 0.208 7.1 1.09 9.67
10/27/2020 7:30:00 AM 10.65 51.17 0.208 7.1 1 9.68
10/27/2020 7:45:00 AM 10.63 51.134 0.208 7.08 2.36 9.64
10/27/2020 8:00:00 AM 10.62 51.116 0.208 7.09 1.02 9.65
10/27/2020 8:15:00 AM 10.61 51.098 0.208 7.1 1.02 9.69
10/27/2020 8:30:00 AM 10.61 51.098 0.208 7.11 1.06 9.75
10/27/2020 8:45:00 AM 10.62 51.116 0.208 7.1 1.12 9.81
10/27/2020 9:00:00 AM 10.62 51.116 0.208 7.13 1.03 9.93
10/27/2020 9:15:00 AM 10.63 51.134 0.208 7.13 1.08 10.02
10/27/2020 9:30:00 AM 10.64 51.152 0.208 7.15 1.14 10.22
10/27/2020 9:45:00 AM 10.72 51.296 0.208 7.18 1.04 10.35
10/27/2020 10:00:00 AM 10.77 51.386 0.208 7.21 1.06 10.51
10/27/2020 10:15:00 AM 10.87 51.566 0.207 7.24 1.01 10.62
10/27/2020 10:30:00 AM 10.96 51.728 0.207 7.27 1 10.76
10/27/2020 10:45:00 AM 11.09 51.962 0.207 7.27 1 10.88
10/27/2020 11:00:00 AM 11.21 52.178 0.206 7.31 1 10.99
10/27/2020 11:15:00 AM 11.31 52.358 0.206 7.33 1.09 11.06
10/27/2020 11:30:00 AM 11.43 52.574 0.206 7.35 1 11.11
10/27/2020 11:45:00 AM 11.55 52.79 0.206 7.38 1 11.18
10/27/2020 12:00:00 PM 11.74 53.132 0.206 7.41 1.01 11.26
10/27/2020 12:15:00 PM 11.89 53.402 0.205 7.42 0.99 11.28
10/27/2020 12:30:00 PM 11.98 53.564 0.205 7.44 0.97 11.29
10/27/2020 12:45:00 PM 12.11 53.798 0.205 7.44 0.96 11.29
10/27/2020 1:00:00 PM 12.24 54.032 0.205 7.47 0.96 11.3
10/27/2020 1:15:00 PM 12.31 54.158 0.205 7.49 1.13 11.33
10/27/2020 1:30:00 PM 12.37 54.266 0.205 7.49 0.97 11.33
10/27/2020 1:45:00 PM 12.41 54.338 0.205 7.5 1 11.31
10/27/2020 2:00:00 PM 12.42 54.356 0.205 7.5 1.15 11.29
10/27/2020 2:15:00 PM 12.47 54.446 0.205 7.51 0.98 11.25
10/27/2020 2:30:00 PM 12.47 54.446 0.205 7.5 0.96 11.23
10/27/2020 2:45:00 PM 12.44 54.392 0.205 7.5 1.08 11.15
10/27/2020 3:00:00 PM 12.45 54.41 0.205 7.51 0.96 11.14
10/27/2020 3:15:00 PM 12.46 54.428 0.205 7.46 1.13 11.03
10/27/2020 3:30:00 PM 12.46 54.428 0.205 7.5 1.08 11.1
10/27/2020 3:45:00 PM 12.42 54.356 0.205 7.5 1.02 11.07
10/27/2020 4:00:00 PM 12.41 54.338 0.205 7.49 0.98 11.04
10/27/2020 4:15:00 PM 12.36 54.248 0.205 7.48 0.98 10.99
10/27/2020 4:30:00 PM 12.34 54.212 0.205 7.47 1 10.94
10/27/2020 4:45:00 PM 12.31 54.158 0.205 7.43 1.05 10.86
10/27/2020 5:00:00 PM 12.3 54.14 0.205 7.44 1.04 10.85
10/27/2020 5:15:00 PM 12.28 54.104 0.205 7.43 0.98 10.78
10/27/2020 5:30:00 PM 12.24 54.032 0.205 7.42 1.05 10.69
10/27/2020 5:45:00 PM 12.18 53.924 0.205 7.39 1.04 10.59
10/27/2020 6:00:00 PM 12.16 53.888 0.206 7.38 1.01 10.51
10/27/2020 6:15:00 PM 12.12 53.816 0.206 7.36 1.04 10.43
10/27/2020 6:30:00 PM 12.07 53.726 0.206 7.34 1.01 10.32
10/27/2020 6:45:00 PM 12.03 53.654 0.206 7.32 1.1 10.19
10/27/2020 7:00:00 PM 12 53.6 0.206 7.3 1.08 10.12
10/27/2020 7:15:00 PM 11.96 53.528 0.207 7.28 1.06 10.02
10/27/2020 7:30:00 PM 11.91 53.438 0.207 7.26 1.07 9.91
10/27/2020 7:45:00 PM 11.87 53.366 0.207 7.24 1.02 9.82
10/27/2020 8:00:00 PM 11.83 53.294 0.208 7.23 1.03 9.77
10/27/2020 8:15:00 PM 11.73 53.114 0.208 7.22 1.06 9.73
10/27/2020 8:30:00 PM 11.7 53.06 0.208 7.2 1.11 9.71
10/27/2020 8:45:00 PM 11.66 52.988 0.208 7.2 1.12 9.66
10/27/2020 9:00:00 PM 11.62 52.916 0.209 7.18 1.14 9.62
10/27/2020 9:15:00 PM 11.6 52.88 0.209 7.19 1.09 9.59
10/27/2020 9:30:00 PM 11.56 52.808 0.209 7.18 1.09 9.55
10/27/2020 9:45:00 PM 11.52 52.736 0.209 7.17 1.09 9.54
10/27/2020 10:00:00 PM 11.49 52.682 0.209 7.17 1.06 9.53
10/27/2020 10:15:00 PM 11.47 52.646 0.209 7.16 1.1 9.53
10/27/2020 10:30:00 PM 11.42 52.556 0.209 7.16 1.06 9.55
10/27/2020 10:45:00 PM 11.4 52.52 0.209 7.16 1.05 9.52
10/27/2020 11:00:00 PM 11.36 52.448 0.209 7.15 1.05 9.49
10/27/2020 11:15:00 PM 11.33 52.394 0.209 7.15 1.03 9.49
10/27/2020 11:30:00 PM 11.29 52.322 0.209 7.15 1.09 9.51
10/27/2020 11:45:00 PM 11.24 52.232 0.209 7.14 1.04 9.53
10/28/2020 12:00:00 AM 11.22 52.196 0.209 7.15 1.05 9.55
10/28/2020 12:15:00 AM 11.2 52.16 0.209 7.14 0.98 9.55
10/28/2020 12:30:00 AM 11.17 52.106 0.209 7.14 0.98 9.55
10/28/2020 12:45:00 AM 11.12 52.016 0.209 7.14 1.18 9.58
10/28/2020 1:00:00 AM 11.12 52.016 0.209 7.14 1.03 9.56
10/28/2020 1:15:00 AM 11.12 52.016 0.209 7.14 1.05 9.57
10/28/2020 1:30:00 AM 11.11 51.998 0.209 7.13 1.12 9.57
10/28/2020 1:45:00 AM 11.09 51.962 0.209 7.14 1.1 9.59
10/28/2020 2:00:00 AM 11.09 51.962 0.209 7.13 1.06 9.57
10/28/2020 2:15:00 AM 11.1 51.98 0.209 7.13 1.12 9.56
10/28/2020 2:30:00 AM 11.1 51.98 0.208 7.13 1.11 9.59
10/28/2020 2:45:00 AM 11.09 51.962 0.208 7.13 1.09 9.6
10/28/2020 3:00:00 AM 11.08 51.944 0.208 7.13 1.04 9.59
10/28/2020 3:15:00 AM 11.06 51.908 0.207 7.12 1.18 9.59
10/28/2020 3:30:00 AM 11.05 51.89 0.207 7.12 1.12 9.59
10/28/2020 3:45:00 AM 11.02 51.836 0.206 7.12 1.13 9.6
10/28/2020 4:00:00 AM 11.03 51.854 0.206 7.11 1.09 9.58
10/28/2020 4:15:00 AM 11.02 51.836 0.206 7.12 1.07 9.58
10/28/2020 4:30:00 AM 11.01 51.818 0.206 7.11 1.15 9.56
10/28/2020 4:45:00 AM 11.01 51.818 0.206 7.1 1.07 9.57
10/28/2020 5:00:00 AM 11 51.8 0.206 7.11 1.08 9.57
10/28/2020 5:15:00 AM 11 51.8 0.206 7.1 1.05 9.55
10/28/2020 5:30:00 AM 11 51.8 0.206 7.1 1.07 9.55
10/28/2020 5:45:00 AM 10.97 51.746 0.206 7.1 1.04 9.54
10/28/2020 6:00:00 AM 10.97 51.746 0.206 7.1 1.03 9.53
10/28/2020 6:15:00 AM 10.97 51.746 0.205 7.09 1.07 9.54
10/28/2020 6:30:00 AM 10.96 51.728 0.205 7.09 1.05 9.54
10/28/2020 6:45:00 AM 10.96 51.728 0.205 7.09 1.08 9.54
10/28/2020 7:00:00 AM 10.96 51.728 0.206 7.09 1.05 9.54
10/28/2020 7:15:00 AM 10.95 51.71 0.205 7.09 1.03 9.53
10/28/2020 7:30:00 AM 10.95 51.71 0.206 7.09 1.08 9.53
10/28/2020 7:45:00 AM 10.96 51.728 0.206 7.08 1.05 9.51
10/28/2020 8:00:00 AM 10.96 51.728 0.206 7.09 1.02 9.52
10/28/2020 8:15:00 AM 10.97 51.746 0.206 7.09 1.04 9.54
10/28/2020 8:30:00 AM 10.98 51.764 0.206 7.1 1.09 9.57
10/28/2020 8:45:00 AM 10.98 51.764 0.206 7.1 1.03 9.61
10/28/2020 9:00:00 AM 10.99 51.782 0.206 7.11 1.04 9.65
10/28/2020 9:15:00 AM 11.01 51.818 0.206 7.11 1.18 9.69
10/28/2020 9:30:00 AM 11.03 51.854 0.206 7.12 1.08 9.75
10/28/2020 9:45:00 AM 11.06 51.908 0.206 7.12 1.11 9.84
10/28/2020 10:00:00 AM 11.1 51.98 0.206 7.14 1.11 9.96
10/28/2020 10:15:00 AM 11.16 52.088 0.206 7.16 2.28 10.03
10/28/2020 10:30:00 AM 11.22 52.196 0.205 7.17 1.05 10.21
10/28/2020 10:45:00 AM 11.29 52.322 0.205 7.19 1.06 10.35
10/28/2020 11:00:00 AM 11.33 52.394 0.205 7.2 1.1 10.41
10/28/2020 11:15:00 AM 11.41 52.538 0.205 7.23 1.11 10.6
10/28/2020 11:30:00 AM 11.48 52.664 0.205 7.25 1.01 10.64
10/28/2020 11:45:00 AM 11.55 52.79 0.205 7.27 1.1 10.78
10/28/2020 12:00:00 PM 11.62 52.916 0.205 7.3 1.06 10.85
10/28/2020 12:15:00 PM 11.69 53.042 0.204 7.3 1.03 10.91
10/28/2020 12:30:00 PM 11.75 53.15 0.204 7.32 0.99 10.95
10/28/2020 12:45:00 PM 11.83 53.294 0.204 7.33 1.04 10.97
10/28/2020 1:00:00 PM 11.87 53.366 0.204 7.35 1.01 11.01
10/28/2020 1:15:00 PM 11.88 53.384 0.204 7.36 1 10.99
10/28/2020 1:30:00 PM 11.91 53.438 0.204 7.36 0.98 10.99
10/28/2020 1:45:00 PM 11.94 53.492 0.204 7.37 1.04 10.95
10/28/2020 2:00:00 PM 11.97 53.546 0.204 7.38 1.01 10.94
10/28/2020 2:15:00 PM 12.02 53.636 0.204 7.38 0.99 10.97
10/28/2020 2:30:00 PM 12.06 53.708 0.204 7.39 0.99 10.98
10/28/2020 2:45:00 PM 12.1 53.78 0.204 7.4 1.01 10.99
10/28/2020 3:00:00 PM 12.14 53.852 0.204 7.41 0.95 11.01
10/28/2020 3:15:00 PM 12.17 53.906 0.204 7.41 1.15 11
10/28/2020 3:30:00 PM 12.18 53.924 0.204 7.38 0.97 10.87
10/28/2020 3:45:00 PM 12.2 53.96 0.204 7.36 1.09 10.87
10/28/2020 4:00:00 PM 12.21 53.978 0.204 7.36 1.01 10.82
10/28/2020 4:15:00 PM 12.21 53.978 0.204 7.34 0.95 10.69
10/28/2020 4:30:00 PM 12.2 53.96 0.204 7.33 1 10.73
10/28/2020 4:45:00 PM 12.2 53.96 0.204 7.33 1 10.34
10/28/2020 5:00:00 PM 12.21 53.978 0.204 7.32 0.99 10.56
10/28/2020 5:15:00 PM 12.19 53.942 0.204 7.32 1.02 10.53
10/28/2020 5:30:00 PM 12.17 53.906 0.204 7.32 1.02 10.52
10/28/2020 5:45:00 PM 12.13 53.834 0.204 7.33 1 10.47
10/28/2020 6:00:00 PM 12.08 53.744 0.204 7.35 0.99 10.55
10/28/2020 6:15:00 PM 11.97 53.546 0.204 7.34 1.01 10.49
10/28/2020 6:30:00 PM 11.92 53.456 0.204 7.32 1.01 10.39
10/28/2020 6:45:00 PM 11.88 53.384 0.204 7.3 1.02 10.3
10/28/2020 7:00:00 PM 11.78 53.204 0.205 7.28 1.06 10.2
10/28/2020 7:15:00 PM 11.7 53.06 0.205 7.27 1.06 10.11
10/28/2020 7:30:00 PM 11.6 52.88 0.205 7.24 0.98 10.02
10/28/2020 7:45:00 PM 11.52 52.736 0.205 7.23 1.13 9.95
10/28/2020 8:00:00 PM 11.46 52.628 0.206 7.2 1.1 9.86
10/28/2020 8:15:00 PM 11.38 52.484 0.206 7.2 1.04 9.84
10/28/2020 8:30:00 PM 11.28 52.304 0.206 7.18 1.08 9.81
10/28/2020 8:45:00 PM 11.2 52.16 0.206 7.18 1.05 9.78
10/28/2020 9:00:00 PM 11.1 51.98 0.206 7.17 1.07 9.78
10/28/2020 9:15:00 PM 11.05 51.89 0.206 7.16 1.01 9.77
10/28/2020 9:30:00 PM 10.97 51.746 0.206 7.15 1.06 9.77
10/28/2020 9:45:00 PM 10.91 51.638 0.207 7.14 1.05 9.76
10/28/2020 10:00:00 PM 10.87 51.566 0.207 7.14 1.09 9.74
10/28/2020 10:15:00 PM 10.83 51.494 0.207 7.14 1.08 9.75
10/28/2020 10:30:00 PM 10.79 51.422 0.207 7.15 1.08 9.75
10/28/2020 10:45:00 PM 10.77 51.386 0.207 7.15 1.08 9.75
10/28/2020 11:00:00 PM 10.7 51.26 0.207 7.15 1.03 9.79
10/28/2020 11:15:00 PM 10.69 51.242 0.207 7.14 1.06 9.75
10/28/2020 11:30:00 PM 10.62 51.116 0.207 7.14 1.04 9.78
10/28/2020 11:45:00 PM 10.58 51.044 0.207 7.14 1.09 9.79
10/29/2020 12:00:00 AM 10.57 51.026 0.207 7.15 1.06 9.82
10/29/2020 12:15:00 AM 10.58 51.044 0.207 7.15 1.04 9.78
10/29/2020 12:30:00 AM 10.57 51.026 0.207 7.15 1.02 9.76
10/29/2020 12:45:00 AM 10.55 50.99 0.207 7.15 1.04 9.76
10/29/2020 1:00:00 AM 10.54 50.972 0.207 7.15 1.03 9.77
10/29/2020 1:15:00 AM 10.53 50.954 0.207 7.14 1.06 9.79
10/29/2020 1:30:00 AM 10.52 50.936 0.207 7.14 1.08 9.76
10/29/2020 1:45:00 AM 10.51 50.918 0.207 7.14 1.12 9.77
10/29/2020 2:00:00 AM 10.51 50.918 0.207 7.14 1.04 9.79
10/29/2020 2:15:00 AM 10.5 50.9 0.207 7.14 1.04 9.79
10/29/2020 2:30:00 AM 10.49 50.882 0.207 7.14 1.03 9.8
10/29/2020 2:45:00 AM 10.45 50.81 0.207 7.14 1.06 9.82
10/29/2020 3:00:00 AM 10.46 50.828 0.207 7.13 1.06 9.81
10/29/2020 3:15:00 AM 10.44 50.792 0.207 7.13 1.04 9.81
10/29/2020 3:30:00 AM 10.42 50.756 0.207 7.14 1.03 9.84
10/29/2020 3:45:00 AM 10.41 50.738 0.207 7.13 1.11 9.83
10/29/2020 4:00:00 AM 10.42 50.756 0.207 7.13 1.07 9.82
10/29/2020 4:15:00 AM 10.4 50.72 0.207 7.13 1.04 9.82
10/29/2020 4:30:00 AM 10.39 50.702 0.207 7.13 1.04 9.82
10/29/2020 4:45:00 AM 10.38 50.684 0.206 7.13 1.03 9.84
10/29/2020 5:00:00 AM 10.37 50.666 0.206 7.13 1.09 9.85
10/29/2020 5:15:00 AM 10.37 50.666 0.206 7.12 1.14 9.84
10/29/2020 5:30:00 AM 10.36 50.648 0.206 7.13 1.16 9.84
10/29/2020 5:45:00 AM 10.34 50.612 0.205 7.12 1.11 9.84
10/29/2020 6:00:00 AM 10.35 50.63 0.205 7.12 1.23 9.85
10/29/2020 6:15:00 AM 10.33 50.594 0.204 7.12 1.11 9.86
10/29/2020 6:30:00 AM 10.33 50.594 0.204 7.12 1.08 9.86
10/29/2020 6:45:00 AM 10.31 50.558 0.203 7.12 1.17 9.87
10/29/2020 7:00:00 AM 10.28 50.504 0.202 7.12 1.17 9.88
10/29/2020 7:15:00 AM 10.28 50.504 0.202 7.12 1.19 9.89
10/29/2020 7:30:00 AM 10.27 50.486 0.201 7.12 1.24 9.91
10/29/2020 7:45:00 AM 10.24 50.432 0.2 7.12 1.22 9.92
10/29/2020 8:00:00 AM 10.23 50.414 0.199 7.12 1.31 9.94
10/29/2020 8:15:00 AM 10.22 50.396 0.198 7.12 1.54 9.94
10/29/2020 8:30:00 AM 10.22 50.396 0.195 7.14 2.44 9.97
10/29/2020 8:45:00 AM 10.22 50.396 0.192 7.16 3.37 9.99
10/29/2020 9:00:00 AM 10.22 50.396 0.19 7.18 3.51 10.02
10/29/2020 9:15:00 AM 10.2 50.36 0.189 7.19 3.31 10.05
10/29/2020 9:30:00 AM 10.2 50.36 0.19 7.2 3.04 10.1
10/29/2020 9:45:00 AM 10.21 50.378 0.19 7.2 2.84 10.14
10/29/2020 10:00:00 AM 10.22 50.396 0.19 7.21 2.94 10.22
10/29/2020 10:15:00 AM 10.21 50.378 0.19 7.22 2.49 10.27
10/29/2020 10:30:00 AM 10.21 50.378 0.19 7.23 2.53 10.35
10/29/2020 10:45:00 AM 10.22 50.396 0.188 7.24 2.72 10.4
10/29/2020 11:00:00 AM 10.22 50.396 0.186 7.24 3.16 10.42
10/29/2020 11:15:00 AM 10.23 50.414 0.184 7.28 3.66 10.38
10/29/2020 11:30:00 AM 10.24 50.432 0.184 7.32 3.61 10.53
10/29/2020 11:45:00 AM 10.24 50.432 0.184 7.3 3.45 10.54
10/29/2020 12:00:00 PM 10.25 50.45 0.184 7.31 3.12 10.6
10/29/2020 12:15:00 PM 10.26 50.468 0.184 7.29 2.89 10.5
10/29/2020 12:30:00 PM 10.31 50.558 0.185 7.32 2.71 10.76
10/29/2020 12:45:00 PM 10.35 50.63 0.185 7.34 2.24 10.83
10/29/2020 1:00:00 PM 10.39 50.702 0.185 7.34 2.13 10.89
10/29/2020 1:15:00 PM 10.41 50.738 0.186 7.34 2.1 10.89
10/29/2020 1:30:00 PM 10.44 50.792 0.187 7.34 1.81 10.92
10/29/2020 1:45:00 PM 10.48 50.864 0.186 7.35 1.98 10.95
10/29/2020 2:00:00 PM 10.52 50.936 0.186 7.36 1.77 10.97
10/29/2020 2:15:00 PM 10.57 51.026 0.186 7.38 1.84 11.02
10/29/2020 2:30:00 PM 10.62 51.116 0.184 7.39 1.96 11.04
10/29/2020 2:45:00 PM 10.66 51.188 0.184 7.4 1.9 11.05
10/29/2020 3:00:00 PM 10.69 51.242 0.184 7.41 1.74 11.04
10/29/2020 3:15:00 PM 10.71 51.278 0.185 7.39 1.72 11.02
10/29/2020 3:30:00 PM 10.72 51.296 0.186 7.39 1.68 11
10/29/2020 3:45:00 PM 10.71 51.278 0.186 7.37 1.46 10.99
10/29/2020 4:00:00 PM 10.67 51.206 0.186 7.34 1.38 10.91
10/29/2020 4:15:00 PM 10.64 51.152 0.185 7.34 1.69 10.87
10/29/2020 4:30:00 PM 10.62 51.116 0.183 7.33 1.84 10.8
10/29/2020 4:45:00 PM 10.6 51.08 0.177 7.4 3.82 10.72
10/29/2020 5:00:00 PM 10.58 51.044 0.175 7.4 3.46 10.65
10/29/2020 5:15:00 PM 10.55 50.99 0.176 7.37 2.86 10.62
10/29/2020 5:30:00 PM 10.54 50.972 0.177 7.34 2.64 10.57
10/29/2020 5:45:00 PM 10.54 50.972 0.176 7.36 2.97 10.55
10/29/2020 6:00:00 PM 10.54 50.972 0.176 7.36 3.36 10.51
10/29/2020 6:15:00 PM 10.53 50.954 0.179 7.34 2.34 10.48
10/29/2020 6:30:00 PM 10.52 50.936 0.183 7.29 1.71 10.41
10/29/2020 6:45:00 PM 10.51 50.918 0.185 7.25 1.45 10.35
10/29/2020 7:00:00 PM 10.5 50.9 0.185 7.23 1.28 10.3
10/29/2020 7:15:00 PM 10.48 50.864 0.186 7.22 1.34 10.27
10/29/2020 7:30:00 PM 10.47 50.846 0.186 7.21 1.31 10.23
10/29/2020 7:45:00 PM 10.45 50.81 0.186 7.2 1.48 10.22
10/29/2020 8:00:00 PM 10.44 50.792 0.186 7.19 1.29 10.2
10/29/2020 8:15:00 PM 10.44 50.792 0.186 7.18 1.23 10.18
10/29/2020 8:30:00 PM 10.44 50.792 0.185 7.18 1.39 10.17
10/29/2020 8:45:00 PM 10.44 50.792 0.185 7.17 1.31 10.17
10/29/2020 9:00:00 PM 10.43 50.774 0.185 7.17 1.31 10.16
10/29/2020 9:15:00 PM 10.41 50.738 0.185 7.17 1.34 10.17
10/29/2020 9:30:00 PM 10.39 50.702 0.185 7.16 1.35 10.17
10/29/2020 9:45:00 PM 10.39 50.702 0.185 7.16 1.37 10.16
10/29/2020 10:00:00 PM 10.39 50.702 0.185 7.15 1.31 10.15
10/29/2020 10:15:00 PM 10.38 50.684 0.185 7.15 1.34 10.15
10/29/2020 10:30:00 PM 10.37 50.666 0.185 7.15 1.31 10.15
10/29/2020 10:45:00 PM 10.36 50.648 0.185 7.15 1.43 10.12
10/29/2020 11:00:00 PM 10.36 50.648 0.186 7.15 1.5 10.15
10/29/2020 11:15:00 PM 10.36 50.648 0.185 7.15 1.29 10.15
10/29/2020 11:30:00 PM 10.35 50.63 0.185 7.15 1.38 10.15
10/29/2020 11:45:00 PM 10.35 50.63 0.185 7.15 1.35 10.16
10/30/2020 12:00:00 AM 10.35 50.63 0.186 7.15 1.63 10.15
10/30/2020 12:15:00 AM 10.36 50.648 0.186 7.16 1.43 10.16
10/30/2020 12:30:00 AM 10.35 50.63 0.186 7.15 1.51 10.17
10/30/2020 12:45:00 AM 10.33 50.594 0.186 7.15 1.53 10.18
10/30/2020 1:00:00 AM 10.33 50.594 0.187 7.15 1.54 10.17
10/30/2020 1:15:00 AM 10.32 50.576 0.187 7.15 1.46 10.18
10/30/2020 1:30:00 AM 10.31 50.558 0.188 7.15 1.57 10.17
10/30/2020 1:45:00 AM 10.29 50.522 0.188 7.15 1.89 10.18
10/30/2020 2:00:00 AM 10.28 50.504 0.189 7.15 1.62 10.18
10/30/2020 2:15:00 AM 10.28 50.504 0.19 7.15 1.67 10.19
10/30/2020 2:30:00 AM 10.26 50.468 0.19 7.16 1.71 10.2
10/30/2020 2:45:00 AM 10.26 50.468 0.191 7.16 1.65 10.21
10/30/2020 3:00:00 AM 10.27 50.486 0.192 7.16 1.77 10.22
10/30/2020 3:15:00 AM 10.28 50.504 0.192 7.15 1.99 10.23
10/30/2020 3:30:00 AM 10.28 50.504 0.192 7.16 2.37 10.26
10/30/2020 3:45:00 AM 10.26 50.468 0.192 7.17 2.17 10.27
10/30/2020 4:00:00 AM 10.27 50.486 0.193 7.16 2.13 10.27
10/30/2020 4:15:00 AM 10.26 50.468 0.192 7.17 2.59 10.28
10/30/2020 4:30:00 AM 10.25 50.45 0.193 7.17 3.14 10.3
10/30/2020 4:45:00 AM 10.25 50.45 0.193 7.17 3.17 10.3
10/30/2020 5:00:00 AM 10.25 50.45 0.193 7.17 3.92 10.31
10/30/2020 5:15:00 AM 10.26 50.468 0.194 7.17 3.63 10.32
10/30/2020 5:30:00 AM 10.26 50.468 0.194 7.16 3.91 10.33
10/30/2020 5:45:00 AM 10.27 50.486 0.194 7.16 3.89 10.35
10/30/2020 6:00:00 AM 10.28 50.504 0.194 7.16 7.13 10.35
10/30/2020 6:15:00 AM 10.29 50.522 0.194 7.16 5.53 10.36
10/30/2020 6:30:00 AM 10.31 50.558 0.195 7.16 4.93 10.36
10/30/2020 6:45:00 AM 10.34 50.612 0.196 7.16 6.04 10.36
10/30/2020 7:00:00 AM 10.37 50.666 0.197 7.16 5.74 10.35
10/30/2020 7:15:00 AM 10.41 50.738 0.198 7.16 7.43 10.34
10/30/2020 7:30:00 AM 10.44 50.792 0.199 7.15 5.22 10.34
10/30/2020 7:45:00 AM 10.46 50.828 0.2 7.15 6.14 10.34
10/30/2020 8:00:00 AM 10.49 50.882 0.201 7.15 5.81 10.35
10/30/2020 8:15:00 AM 10.52 50.936 0.202 7.15 6.4 10.35
10/30/2020 8:30:00 AM 10.55 50.99 0.202 7.15 6.39 10.35
10/30/2020 8:45:00 AM 10.58 51.044 0.203 7.15 5.44 10.36
10/30/2020 9:00:00 AM 10.61 51.098 0.204 7.15 5.43 10.37
10/30/2020 9:15:00 AM 10.64 51.152 0.204 7.16 6.28 10.38
10/30/2020 9:30:00 AM 10.67 51.206 0.205 7.16 4.81 10.41
10/30/2020 9:45:00 AM 10.71 51.278 0.205 7.17 4.96 10.44
10/30/2020 10:00:00 AM 10.74 51.332 0.206 7.18 5.8 10.47
10/30/2020 10:15:00 AM 10.77 51.386 0.206 7.18 5.1 10.48
10/30/2020 10:30:00 AM 10.78 51.404 0.206 7.18 4.56 10.5
10/30/2020 10:45:00 AM 10.81 51.458 0.207 7.18 5.24 10.51
10/30/2020 11:00:00 AM 10.84 51.512 0.207 7.19 4.59 10.52
10/30/2020 11:15:00 AM 10.86 51.548 0.207 7.19 4.84 10.54
10/30/2020 11:30:00 AM 10.9 51.62 0.207 7.19 4.49 10.59
10/30/2020 11:45:00 AM 10.94 51.692 0.208 7.2 4.37 10.63
10/30/2020 12:00:00 PM 10.97 51.746 0.208 7.21 4.71 10.64
10/30/2020 12:15:00 PM 10.99 51.782 0.208 7.21 4.16 10.66
10/30/2020 12:30:00 PM 11.02 51.836 0.208 7.22 4.17 10.69
10/30/2020 12:45:00 PM 11.05 51.89 0.208 7.22 4.3 10.7
10/30/2020 1:00:00 PM 11.06 51.908 0.208 7.22 4.28 10.7
10/30/2020 1:15:00 PM 11.07 51.926 0.208 7.22 4.34 10.7
10/30/2020 1:30:00 PM 11.09 51.962 0.208 7.23 3.59 10.72
10/30/2020 1:45:00 PM 11.08 51.944 0.208 7.22 3.96 10.72
10/30/2020 2:00:00 PM 11.08 51.944 0.209 7.22 3.97 10.73
10/30/2020 2:15:00 PM 11.08 51.944 0.209 7.23 3.31 10.73
10/30/2020 2:30:00 PM 11.07 51.926 0.209 7.22 3.63 10.73
10/30/2020 2:45:00 PM 11.08 51.944 0.209 7.22 3.73 10.73
10/30/2020 3:00:00 PM 11.07 51.926 0.21 7.22 3.49 10.74
10/30/2020 3:15:00 PM 11.09 51.962 0.21 7.22 3.45 10.76
10/30/2020 3:30:00 PM 11.09 51.962 0.21 7.22 4.27 10.76
10/30/2020 3:45:00 PM 11.08 51.944 0.21 7.22 3.73 10.77
10/30/2020 4:00:00 PM 11.09 51.962 0.21 7.23 3.39 10.78
10/30/2020 4:15:00 PM 11.08 51.944 0.21 7.23 3.3 10.79
10/30/2020 4:30:00 PM 11.07 51.926 0.21 7.23 3.41 10.8
10/30/2020 4:45:00 PM 11.05 51.89 0.21 7.23 3.13 10.78
10/30/2020 5:00:00 PM 11.03 51.854 0.21 7.23 3.12 10.76
10/30/2020 5:15:00 PM 11 51.8 0.21 7.22 3.14 10.74
10/30/2020 5:30:00 PM 10.97 51.746 0.21 7.21 2.99 10.71
10/30/2020 5:45:00 PM 10.94 51.692 0.211 7.2 3.16 10.68
10/30/2020 6:00:00 PM 10.91 51.638 0.211 7.19 3.3 10.65
10/30/2020 6:15:00 PM 10.89 51.602 0.211 7.19 3.84 10.62
10/30/2020 6:30:00 PM 10.85 51.53 0.211 7.18 3.05 10.6
10/30/2020 6:45:00 PM 10.82 51.476 0.211 7.17 3.02 10.58
10/30/2020 7:00:00 PM 10.78 51.404 0.211 7.17 2.88 10.56
10/30/2020 7:15:00 PM 10.75 51.35 0.211 7.16 2.99 10.55
10/30/2020 7:30:00 PM 10.72 51.296 0.211 7.15 3 10.55
10/30/2020 7:45:00 PM 10.69 51.242 0.211 7.15 2.8 10.55
10/30/2020 8:00:00 PM 10.67 51.206 0.211 7.15 3.11 10.55
10/30/2020 8:15:00 PM 10.64 51.152 0.211 7.15 3 10.55
10/30/2020 8:30:00 PM 10.62 51.116 0.211 7.15 2.91 10.56
10/30/2020 8:45:00 PM 10.6 51.08 0.211 7.15 2.76 10.56
10/30/2020 9:00:00 PM 10.57 51.026 0.212 7.15 2.92 10.56
10/30/2020 9:15:00 PM 10.56 51.008 0.212 7.14 2.63 10.57
10/30/2020 9:30:00 PM 10.54 50.972 0.212 7.14 2.86 10.57
10/30/2020 9:45:00 PM 10.51 50.918 0.212 7.15 2.5 10.58
10/30/2020 10:00:00 PM 10.49 50.882 0.212 7.14 2.81 10.59
10/30/2020 10:15:00 PM 10.47 50.846 0.212 7.14 2.51 10.6
10/30/2020 10:30:00 PM 10.44 50.792 0.212 7.14 2.69 10.6
10/30/2020 10:45:00 PM 10.4 50.72 0.212 7.14 2.72 10.61
10/30/2020 11:00:00 PM 10.36 50.648 0.213 7.14 2.52 10.62
10/30/2020 11:15:00 PM 10.31 50.558 0.213 7.13 2.51 10.63
10/30/2020 11:30:00 PM 10.27 50.486 0.214 7.13 2.56 10.63
10/30/2020 11:45:00 PM 10.24 50.432 0.214 7.13 2.67 10.64
10/31/2020 12:00:00 AM 10.21 50.378 0.215 7.13 2.58 10.66
10/31/2020 12:15:00 AM 10.17 50.306 0.215 7.13 2.61 10.68
10/31/2020 12:30:00 AM 10.12 50.216 0.214 7.13 2.62 10.7
10/31/2020 12:45:00 AM 10.07 50.126 0.214 7.13 2.61 10.72
10/31/2020 1:00:00 AM 10.03 50.054 0.213 7.13 2.72 10.74
10/31/2020 1:15:00 AM 9.97 49.946 0.211 7.13 2.71 10.76
10/31/2020 1:30:00 AM 9.93 49.874 0.21 7.13 2.56 10.78
10/31/2020 1:45:00 AM 9.88 49.784 0.209 7.13 2.51 10.79
10/31/2020 2:00:00 AM 9.84 49.712 0.209 7.13 2.5 10.8
10/31/2020 2:15:00 AM 9.81 49.658 0.208 7.13 2.72 10.8
10/31/2020 2:30:00 AM 9.78 49.604 0.208 7.14 2.65 10.82
10/31/2020 2:45:00 AM 9.75 49.55 0.207 7.14 2.91 10.82
10/31/2020 3:00:00 AM 9.72 49.496 0.207 7.14 2.63 10.83
10/31/2020 3:15:00 AM 9.69 49.442 0.207 7.14 2.63 10.84
10/31/2020 3:30:00 AM 9.66 49.388 0.207 7.14 2.47 10.85
10/31/2020 3:45:00 AM 9.63 49.334 0.207 7.14 2.57 10.86
10/31/2020 4:00:00 AM 9.61 49.298 0.207 7.15 2.81 10.87
10/31/2020 4:15:00 AM 9.59 49.262 0.207 7.15 2.53 10.87
10/31/2020 4:30:00 AM 9.57 49.226 0.207 7.15 2.6 10.88
10/31/2020 4:45:00 AM 9.54 49.172 0.207 7.15 2.44 10.89
10/31/2020 5:00:00 AM 9.52 49.136 0.207 7.15 2.62 10.89
10/31/2020 5:15:00 AM 9.51 49.118 0.207 7.15 2.67 10.9
10/31/2020 5:30:00 AM 9.49 49.082 0.207 7.15 2.41 10.91
10/31/2020 5:45:00 AM 9.47 49.046 0.207 7.15 2.46 10.91
10/31/2020 6:00:00 AM 9.44 48.992 0.207 7.15 2.43 10.92
10/31/2020 6:15:00 AM 9.39 48.902 0.207 7.15 2.58 10.93
10/31/2020 6:30:00 AM 9.36 48.848 0.207 7.15 2.57 10.93
10/31/2020 6:45:00 AM 9.33 48.794 0.207 7.15 2.33 10.94
10/31/2020 7:00:00 AM 9.31 48.758 0.207 7.15 2.56 10.95
10/31/2020 7:15:00 AM 9.29 48.722 0.207 7.15 2.49 10.95
10/31/2020 7:30:00 AM 9.25 48.65 0.207 7.15 2.71 10.96
10/31/2020 7:45:00 AM 9.21 48.578 0.207 7.15 2.31 10.98
10/31/2020 8:00:00 AM 9.17 48.506 0.207 7.15 3.63 11
10/31/2020 8:15:00 AM 9.13 48.434 0.207 7.16 2.34 11.03
10/31/2020 8:30:00 AM 9.12 48.416 0.207 7.16 2.24 11.08
10/31/2020 8:45:00 AM 9.11 48.398 0.207 7.18 2.24 11.13
10/31/2020 9:00:00 AM 9.11 48.398 0.207 7.19 2.29 11.18
10/31/2020 9:15:00 AM 9.11 48.398 0.207 7.2 2.34 11.23
10/31/2020 9:30:00 AM 9.13 48.434 0.206 7.21 2.15 11.29
10/31/2020 9:45:00 AM 9.16 48.488 0.206 7.23 2.12 11.33
10/31/2020 10:00:00 AM 9.21 48.578 0.206 7.24 2.2 11.38
10/31/2020 10:15:00 AM 9.26 48.668 0.206 7.26 2.18 11.42
10/31/2020 10:30:00 AM 9.31 48.758 0.206 7.26 2.16 11.46
10/31/2020 10:45:00 AM 9.37 48.866 0.206 7.28 2.15 11.49
10/31/2020 11:00:00 AM 9.42 48.956 0.206 7.29 2.14 11.51
10/31/2020 11:15:00 AM 9.46 49.028 0.205 7.3 2.17 11.54
10/31/2020 11:30:00 AM 9.51 49.118 0.205 7.31 2.2 11.57
10/31/2020 11:45:00 AM 9.56 49.208 0.205 7.32 2.08 11.59
10/31/2020 12:00:00 PM 9.6 49.28 0.204 7.33 2.13 11.6
10/31/2020 12:15:00 PM 9.75 49.55 0.204 7.34 2.08 11.6
10/31/2020 12:30:00 PM 9.81 49.658 0.204 7.35 2.12 11.6
10/31/2020 12:45:00 PM 9.93 49.874 0.204 7.36 2.17 11.6
10/31/2020 1:00:00 PM 10.12 50.216 0.203 7.37 2.79 11.6
10/31/2020 1:15:00 PM 10.24 50.432 0.203 7.37 4.09 11.59
10/31/2020 1:30:00 PM 10.28 50.504 0.203 7.38 2.45 11.58
10/31/2020 1:45:00 PM 10.34 50.612 0.202 7.39 2.13 11.58
10/31/2020 2:00:00 PM 10.43 50.774 0.202 7.39 2.21 11.56
10/31/2020 2:15:00 PM 10.46 50.828 0.202 7.39 2.22 11.55
10/31/2020 2:30:00 PM 10.56 51.008 0.201 7.4 2.17 11.54
10/31/2020 2:45:00 PM 10.5 50.9 0.201 7.4 2.16 11.51
10/31/2020 3:00:00 PM 10.41 50.738 0.201 7.38 2.08 11.49
10/31/2020 3:15:00 PM 10.37 50.666 0.201 7.38 2.1 11.48
10/31/2020 3:30:00 PM 10.34 50.612 0.2 7.38 2.17 11.48
10/31/2020 3:45:00 PM 10.31 50.558 0.2 7.37 2.21 11.48
10/31/2020 4:00:00 PM 10.28 50.504 0.2 7.38 2.31 11.47
10/31/2020 4:15:00 PM 10.23 50.414 0.2 7.37 2.24 11.47
10/31/2020 4:30:00 PM 10.17 50.306 0.2 7.37 2.11 11.46
10/31/2020 4:45:00 PM 10.11 50.198 0.2 7.36 2.42 11.44
10/31/2020 5:00:00 PM 10.04 50.072 0.2 7.35 2.66 11.4
10/31/2020 5:15:00 PM 9.97 49.946 0.2 7.34 2.25 11.36
10/31/2020 5:30:00 PM 9.9 49.82 0.199 7.32 2.39 11.3
10/31/2020 5:45:00 PM 9.84 49.712 0.199 7.31 2.48 11.25
10/31/2020 6:00:00 PM 9.76 49.568 0.199 7.29 2.19 11.2
10/31/2020 6:15:00 PM 9.69 49.442 0.199 7.28 2.25 11.15
10/31/2020 6:30:00 PM 9.62 49.316 0.199 7.26 2.31 11.11
10/31/2020 6:45:00 PM 9.54 49.172 0.199 7.25 2.42 11.08
10/31/2020 7:00:00 PM 9.46 49.028 0.198 7.24 2.36 11.05
10/31/2020 7:15:00 PM 9.37 48.866 0.198 7.23 2.41 11.03
10/31/2020 7:30:00 PM 9.29 48.722 0.197 7.22 2.28 11.02
10/31/2020 7:45:00 PM 9.21 48.578 0.197 7.22 2.54 11.02
10/31/2020 8:00:00 PM 9.12 48.416 0.196 7.21 2.99 11.03
10/31/2020 8:15:00 PM 9.03 48.254 0.196 7.2 2.4 11.04
10/31/2020 8:30:00 PM 8.93 48.074 0.195 7.2 2.36 11.06
10/31/2020 8:45:00 PM 8.84 47.912 0.194 7.19 2.35 11.07
10/31/2020 9:00:00 PM 8.75 47.75 0.193 7.19 2.43 11.08
10/31/2020 9:15:00 PM 8.66 47.588 0.192 7.19 2.71 11.1
10/31/2020 9:30:00 PM 8.56 47.408 0.192 7.18 2.44 11.12
10/31/2020 9:45:00 PM 8.47 47.246 0.191 7.18 2.61 11.14
10/31/2020 10:00:00 PM 8.38 47.084 0.19 7.18 2.38 11.16
10/31/2020 10:15:00 PM 8.3 46.94 0.19 7.18 2.71 11.19
10/31/2020 10:30:00 PM 8.21 46.778 0.189 7.18 2.36 11.21
10/31/2020 10:45:00 PM 8.13 46.634 0.189 7.18 2.51 11.23
10/31/2020 11:00:00 PM 8.05 46.49 0.189 7.18 2.42 11.24
10/31/2020 11:15:00 PM 7.98 46.364 0.189 7.18 2.37 11.26
10/31/2020 11:30:00 PM 7.91 46.238 0.189 7.18 2.23 11.28
10/31/2020 11:45:00 PM 7.84 46.112 0.189 7.18 2.33 11.3
11/1/2020 12:00:00 AM 7.78 46.004 0.189 7.18 2.43 11.32
11/1/2020 12:15:00 AM 7.72 45.896 0.189 7.18 2.35 11.33
11/1/2020 12:30:00 AM 7.66 45.788 0.189 7.18 2.27 11.35
11/1/2020 12:45:00 AM 7.61 45.698 0.19 7.19 2.3 11.36
11/1/2020 1:00:00 AM 7.57 45.626 0.19 7.19 2.38 11.37
11/1/2020 1:15:00 AM 7.53 45.554 0.19 7.18 2.23 11.38
11/1/2020 1:30:00 AM 7.51 45.518 0.19 7.19 2.29 11.39
11/1/2020 1:45:00 AM 7.48 45.464 0.19 7.2 2.28 11.4
11/1/2020 2:00:00 AM 7.46 45.428 0.191 7.2 2.31 11.41
11/1/2020 2:15:00 AM 7.45 45.41 0.191 7.2 2.35 11.41
11/1/2020 2:30:00 AM 7.44 45.392 0.191 7.2 2.28 11.41
11/1/2020 2:45:00 AM 7.43 45.374 0.191 7.2 2.43 11.41
11/1/2020 3:00:00 AM 7.43 45.374 0.191 7.2 2.17 11.41
11/1/2020 3:15:00 AM 7.42 45.356 0.192 7.2 2.19 11.41
11/1/2020 3:30:00 AM 7.42 45.356 0.192 7.2 2.36 11.41
11/1/2020 3:45:00 AM 7.41 45.338 0.192 7.2 2.29 11.4
11/1/2020 4:00:00 AM 7.4 45.32 0.192 7.2 2.4 11.41
11/1/2020 4:15:00 AM 7.46 45.428 0.194 7.2 2.17 11.38
11/1/2020 4:30:00 AM 7.48 45.464 0.194 7.2 2.1 11.38
11/1/2020 4:45:00 AM 7.5 45.5 0.194 7.2 2.24 11.36
11/1/2020 5:00:00 AM 7.52 45.536 0.195 7.2 2.12 11.35
11/1/2020 5:15:00 AM 7.55 45.59 0.195 7.2 2.14 11.34
11/1/2020 5:30:00 AM 7.57 45.626 0.195 7.2 2.66 11.33
11/1/2020 5:45:00 AM 7.6 45.68 0.195 7.2 2.2 11.32
11/1/2020 6:00:00 AM 7.63 45.734 0.195 7.2 2.05 11.31
11/1/2020 6:15:00 AM 7.66 45.788 0.195 7.2 2.68 11.29
11/1/2020 6:30:00 AM 7.69 45.842 0.196 7.2 2.1 11.28
11/1/2020 6:45:00 AM 7.72 45.896 0.196 7.2 2.08 11.27
11/1/2020 7:00:00 AM 7.76 45.968 0.196 7.2 2.01 11.26
11/1/2020 7:15:00 AM 7.79 46.022 0.196 7.2 2.14 11.27
11/1/2020 7:30:00 AM 7.84 46.112 0.196 7.21 2.06 11.3
11/1/2020 7:45:00 AM 7.9 46.22 0.196 7.22 1.99 11.33
11/1/2020 8:00:00 AM 7.95 46.31 0.195 7.23 2.02 11.35
11/1/2020 8:15:00 AM 8.01 46.418 0.195 7.25 1.96 11.38
11/1/2020 8:30:00 AM 8.08 46.544 0.195 7.26 1.91 11.42
11/1/2020 8:45:00 AM 8.15 46.67 0.195 7.27 1.91 11.46
11/1/2020 9:00:00 AM 8.22 46.796 0.195 7.28 1.92 11.5
11/1/2020 9:15:00 AM 8.28 46.904 0.195 7.29 1.95 11.52
11/1/2020 9:30:00 AM 8.36 47.048 0.195 7.3 1.94 11.54
11/1/2020 9:45:00 AM 8.42 47.156 0.195 7.3 1.89 11.53
11/1/2020 10:00:00 AM 8.46 47.228 0.195 7.31 2 11.51
11/1/2020 10:15:00 AM 8.5 47.3 0.195 7.31 1.98 11.5
11/1/2020 10:30:00 AM 8.54 47.372 0.195 7.31 2.04 11.5
11/1/2020 10:45:00 AM 8.59 47.462 0.194 7.32 1.86 11.5
11/1/2020 11:00:00 AM 8.64 47.552 0.194 7.33 1.83 11.52
11/1/2020 11:15:00 AM 8.68 47.624 0.194 7.33 1.85 11.52
11/1/2020 11:30:00 AM 8.71 47.678 0.194 7.33 1.92 11.49
11/1/2020 11:45:00 AM 8.72 47.696 0.193 7.33 1.91 11.43
11/1/2020 12:00:00 PM 8.75 47.75 0.193 7.32 1.83 11.41
11/1/2020 12:15:00 PM 8.81 47.858 0.193 7.32 1.81 11.43
11/1/2020 12:30:00 PM 8.89 48.002 0.193 7.33 1.87 11.46
11/1/2020 12:45:00 PM 8.93 48.074 0.193 7.35 1.85 11.46
11/1/2020 1:00:00 PM 8.98 48.164 0.193 7.35 1.85 11.46
11/1/2020 1:15:00 PM 9.07 48.326 0.192 7.36 1.93 11.47
11/1/2020 1:30:00 PM 9.14 48.452 0.192 7.37 1.9 11.47
11/1/2020 1:45:00 PM 9.15 48.47 0.192 7.37 1.96 11.43
11/1/2020 2:00:00 PM 9.16 48.488 0.191 7.37 2.13 11.39
11/1/2020 2:15:00 PM 9.19 48.542 0.19 7.36 2.04 11.36
11/1/2020 2:30:00 PM 9.23 48.614 0.19 7.36 1.88 11.35
11/1/2020 2:45:00 PM 9.27 48.686 0.19 7.36 1.87 11.35
11/1/2020 3:00:00 PM 9.25 48.65 0.189 7.36 1.91 11.32
11/1/2020 3:15:00 PM 9.23 48.614 0.19 7.35 2.03 11.27
11/1/2020 3:30:00 PM 9.23 48.614 0.19 7.35 2 11.27
11/1/2020 3:45:00 PM 9.22 48.596 0.19 7.34 1.85 11.28
11/1/2020 4:00:00 PM 9.21 48.578 0.19 7.34 1.73 11.29
11/1/2020 4:15:00 PM 9.18 48.524 0.19 7.34 2.16 11.26
11/1/2020 4:30:00 PM 9.14 48.452 0.19 7.33 1.85 11.24
11/1/2020 4:45:00 PM 9.09 48.362 0.19 7.32 1.83 11.2
11/1/2020 5:00:00 PM 9.01 48.218 0.19 7.31 1.77 11.15
11/1/2020 5:15:00 PM 8.95 48.11 0.19 7.29 1.87 11.09
11/1/2020 5:30:00 PM 8.88 47.984 0.189 7.28 1.84 11.05
11/1/2020 5:45:00 PM 8.82 47.876 0.189 7.26 1.84 11
11/1/2020 6:00:00 PM 8.74 47.732 0.189 7.25 1.84 10.97
11/1/2020 6:15:00 PM 8.68 47.624 0.189 7.24 1.76 10.95
11/1/2020 6:30:00 PM 8.62 47.516 0.189 7.23 1.75 10.94
11/1/2020 6:45:00 PM 8.57 47.426 0.189 7.22 2.03 10.94
11/1/2020 7:00:00 PM 8.51 47.318 0.189 7.21 1.79 10.93
11/1/2020 7:15:00 PM 8.46 47.228 0.19 7.21 1.84 10.93
11/1/2020 7:30:00 PM 8.45 47.21 0.19 7.22 1.78 10.93
11/1/2020 7:45:00 PM 8.43 47.174 0.19 7.21 1.71 10.93
11/1/2020 8:00:00 PM 8.4 47.12 0.19 7.21 1.77 10.93
11/1/2020 8:15:00 PM 8.36 47.048 0.19 7.21 1.7 10.94
11/1/2020 8:30:00 PM 8.27 46.886 0.19 7.2 1.82 10.96
11/1/2020 8:45:00 PM 8.21 46.778 0.19 7.2 1.78 10.96
11/1/2020 9:00:00 PM 8.12 46.616 0.19 7.2 1.7 10.97
11/1/2020 9:15:00 PM 8.04 46.472 0.19 7.19 1.73 10.99
11/1/2020 9:30:00 PM 7.99 46.382 0.19 7.19 1.85 11
11/1/2020 9:45:00 PM 7.97 46.346 0.19 7.19 1.71 11.02
11/1/2020 10:00:00 PM 7.94 46.292 0.19 7.2 1.72 11.03
11/1/2020 10:15:00 PM 7.89 46.202 0.19 7.2 1.82 11.04
11/1/2020 10:30:00 PM 7.85 46.13 0.19 7.19 1.72 11.06
11/1/2020 10:45:00 PM 7.81 46.058 0.19 7.2 1.7 11.07
11/1/2020 11:00:00 PM 7.76 45.968 0.19 7.2 1.78 11.09
11/1/2020 11:15:00 PM 7.66 45.788 0.19 7.19 1.81 11.12
11/1/2020 11:30:00 PM 7.56 45.608 0.19 7.19 1.7 11.15
11/1/2020 11:45:00 PM 7.48 45.464 0.19 7.18 1.77 11.18
11/2/2020 12:00:00 AM 7.43 45.374 0.19 7.18 1.84 11.2
11/2/2020 12:15:00 AM 7.39 45.302 0.19 7.19 1.79 11.2
11/2/2020 12:30:00 AM 7.34 45.212 0.19 7.19 2.5 11.22
11/2/2020 12:45:00 AM 7.28 45.104 0.19 7.19 1.97 11.24
11/2/2020 1:00:00 AM 7.25 45.05 0.19 7.2 1.9 11.25
11/2/2020 1:15:00 AM 7.22 44.996 0.191 7.2 1.77 11.26
11/2/2020 1:30:00 AM 7.21 44.978 0.191 7.2 2.15 11.26
11/2/2020 1:45:00 AM 7.21 44.978 0.191 7.21 2.03 11.26
11/2/2020 2:00:00 AM 7.2 44.96 0.191 7.21 1.84 11.26
11/2/2020 2:15:00 AM 7.17 44.906 0.191 7.2 2.11 11.26
11/2/2020 2:30:00 AM 7.13 44.834 0.191 7.2 1.89 11.28
11/2/2020 2:45:00 AM 7.1 44.78 0.191 7.2 1.71 11.29
11/2/2020 3:00:00 AM 7.07 44.726 0.192 7.2 1.68 11.3
11/2/2020 3:15:00 AM 7.06 44.708 0.192 7.2 1.74 11.3
11/2/2020 3:30:00 AM 7.05 44.69 0.192 7.2 1.72 11.31
11/2/2020 3:45:00 AM 7.01 44.618 0.192 7.2 1.82 11.32
11/2/2020 4:00:00 AM 6.99 44.582 0.192 7.2 1.71 11.33
11/2/2020 4:15:00 AM 6.96 44.528 0.192 7.2 1.67 11.35
11/2/2020 4:30:00 AM 6.95 44.51 0.192 7.2 1.8 11.36
11/2/2020 4:45:00 AM 6.94 44.492 0.192 7.2 1.74 11.36
11/2/2020 5:00:00 AM 6.92 44.456 0.192 7.2 1.76 11.37
11/2/2020 5:15:00 AM 6.91 44.438 0.193 7.2 1.66 11.37
11/2/2020 5:30:00 AM 6.87 44.366 0.193 7.2 1.63 11.39
11/2/2020 5:45:00 AM 6.84 44.312 0.193 7.2 1.66 11.4
11/2/2020 6:00:00 AM 6.8 44.24 0.193 7.2 1.66 11.42
11/2/2020 6:15:00 AM 6.73 44.114 0.193 7.19 1.62 11.42
11/2/2020 6:30:00 AM 6.67 44.006 0.193 7.19 1.6 11.44
11/2/2020 6:45:00 AM 6.65 43.97 0.193 7.19 2.22 11.45
11/2/2020 7:00:00 AM 6.58 43.844 0.193 7.19 1.71 11.46
11/2/2020 7:15:00 AM 6.5 43.7 0.193 7.19 1.82 11.51
11/2/2020 7:30:00 AM 6.46 43.628 0.193 7.2 1.66 11.56
11/2/2020 7:45:00 AM 6.43 43.574 0.193 7.21 1.81 11.63
11/2/2020 8:00:00 AM 6.42 43.556 0.193 7.22 1.63 11.7
11/2/2020 8:15:00 AM 6.42 43.556 0.193 7.24 1.61 11.78
11/2/2020 8:30:00 AM 6.41 43.538 0.193 7.25 1.59 11.85
11/2/2020 8:45:00 AM 6.4 43.52 0.193 7.26 1.68 11.92
11/2/2020 9:00:00 AM 6.38 43.484 0.192 7.27 1.64 11.98
11/2/2020 9:15:00 AM 6.43 43.574 0.192 7.28 2.09 12
11/2/2020 9:30:00 AM 6.5 43.7 0.192 7.3 1.68 12.08
11/2/2020 9:45:00 AM 6.56 43.808 0.192 7.32 1.61 12.12
11/2/2020 10:00:00 AM 6.6 43.88 0.192 7.32 2.15 12.14
11/2/2020 10:15:00 AM 6.71 44.078 0.192 7.34 1.7 12.18
11/2/2020 10:30:00 AM 6.83 44.294 0.192 7.36 1.57 12.2
11/2/2020 10:45:00 AM 6.92 44.456 0.192 7.37 1.65 12.21
11/2/2020 11:00:00 AM 7.06 44.708 0.192 7.38 1.62 12.19
11/2/2020 11:15:00 AM 7.16 44.888 0.192 7.38 1.64 12.19
11/2/2020 11:30:00 AM 7.3 45.14 0.192 7.38 1.62 12.19
11/2/2020 11:45:00 AM 7.37 45.266 0.192 7.39 1.62 12.17
11/2/2020 12:00:00 PM 7.61 45.698 0.192 7.4 1.53 12.15
11/2/2020 12:15:00 PM 7.82 46.076 0.192 7.41 2.35 12.14
11/2/2020 12:30:00 PM 8.03 46.454 0.192 7.43 1.58 12.12
11/2/2020 12:45:00 PM 8.05 46.49 0.192 7.43 1.72 12.09
11/2/2020 1:00:00 PM 8.23 46.814 0.192 7.43 1.57 12.08
11/2/2020 1:15:00 PM 8.27 46.886 0.192 7.43 1.57 12.07
11/2/2020 1:30:00 PM 8.33 46.994 0.191 7.43 1.58 12.05
11/2/2020 1:45:00 PM 8.26 46.868 0.191 7.42 1.79 12.05
11/2/2020 2:00:00 PM 8.23 46.814 0.192 7.41 1.54 12.05
11/2/2020 2:15:00 PM 8.15 46.67 0.191 7.42 1.54 12.04
11/2/2020 2:30:00 PM 8.13 46.634 0.191 7.41 1.56 12.03
11/2/2020 2:45:00 PM 8.07 46.526 0.191 7.41 1.56 11.99
11/2/2020 3:00:00 PM 8 46.4 0.192 7.4 1.55 11.98
11/2/2020 3:15:00 PM 7.94 46.292 0.192 7.4 1.57 11.97
11/2/2020 3:30:00 PM 7.91 46.238 0.192 7.39 1.54 11.94
11/2/2020 3:45:00 PM 7.88 46.184 0.192 7.39 1.54 11.92
11/2/2020 4:00:00 PM 7.84 46.112 0.192 7.39 1.54 11.88
11/2/2020 4:15:00 PM 7.79 46.022 0.192 7.38 1.54 11.84
11/2/2020 4:30:00 PM 7.74 45.932 0.192 7.38 1.54 11.83
11/2/2020 4:45:00 PM 7.66 45.788 0.192 7.37 1.53 11.79
11/2/2020 5:00:00 PM 7.59 45.662 0.192 7.34 4.55 11.73
11/2/2020 5:15:00 PM 7.48 45.464 0.192 7.34 1.93 11.69
11/2/2020 5:30:00 PM 7.37 45.266 0.193 7.31 1.75 11.64
11/2/2020 5:45:00 PM 7.28 45.104 0.193 7.3 1.63 11.58
11/2/2020 6:00:00 PM 7.19 44.942 0.193 7.28 1.59 11.55
11/2/2020 6:15:00 PM 7.14 44.852 0.193 7.27 1.49 11.51
11/2/2020 6:30:00 PM 7.09 44.762 0.194 7.26 1.56 11.49
11/2/2020 6:45:00 PM 7.04 44.672 0.194 7.26 1.56 11.47
11/2/2020 7:00:00 PM 7.01 44.618 0.194 7.25 1.54 11.47
11/2/2020 7:15:00 PM 6.99 44.582 0.194 7.25 1.6 11.45
11/2/2020 7:30:00 PM 6.97 44.546 0.194 7.25 1.58 11.44
11/2/2020 7:45:00 PM 6.93 44.474 0.194 7.24 1.6 11.43
11/2/2020 8:00:00 PM 6.87 44.366 0.194 7.24 1.6 11.43
11/2/2020 8:15:00 PM 6.8 44.24 0.194 7.23 1.59 11.41
11/2/2020 8:30:00 PM 6.73 44.114 0.194 7.22 1.5 11.41
11/2/2020 8:45:00 PM 6.67 44.006 0.194 7.22 1.6 11.42
11/2/2020 9:00:00 PM 6.62 43.916 0.194 7.22 1.68 11.42
11/2/2020 9:15:00 PM 6.59 43.862 0.194 7.22 1.59 11.43
11/2/2020 9:30:00 PM 6.55 43.79 0.194 7.22 1.54 11.41
11/2/2020 9:45:00 PM 6.51 43.718 0.194 7.22 1.62 11.43
11/2/2020 10:00:00 PM 6.48 43.664 0.194 7.22 1.54 11.44
11/2/2020 10:15:00 PM 6.45 43.61 0.194 7.21 1.62 11.44
11/2/2020 10:30:00 PM 6.42 43.556 0.194 7.22 1.55 11.45
11/2/2020 10:45:00 PM 6.39 43.502 0.194 7.22 1.56 11.46
11/2/2020 11:00:00 PM 6.39 43.502 0.194 7.22 1.56 11.47
11/2/2020 11:15:00 PM 6.36 43.448 0.194 7.22 1.53 11.48
11/2/2020 11:30:00 PM 6.35 43.43 0.194 7.22 1.59 11.49
11/2/2020 11:45:00 PM 6.35 43.43 0.194 7.22 1.55 11.5
11/3/2020 12:00:00 AM 6.34 43.412 0.194 7.22 1.57 11.51
11/3/2020 12:15:00 AM 6.3 43.34 0.194 7.22 1.51 11.52
11/3/2020 12:30:00 AM 6.28 43.304 0.194 7.21 1.54 11.54
11/3/2020 12:45:00 AM 6.23 43.214 0.194 7.21 1.55 11.56
11/3/2020 1:00:00 AM 6.18 43.124 0.194 7.21 1.56 11.57
11/3/2020 1:15:00 AM 6.14 43.052 0.194 7.21 1.61 11.58
11/3/2020 1:30:00 AM 6.11 42.998 0.193 7.21 1.57 11.59
11/3/2020 1:45:00 AM 6.08 42.944 0.193 7.21 1.55 11.61
11/3/2020 2:00:00 AM 6.03 42.854 0.193 7.2 1.7 11.62
11/3/2020 2:15:00 AM 6 42.8 0.193 7.2 1.64 11.63
11/3/2020 2:30:00 AM 5.98 42.764 0.193 7.21 1.56 11.64
11/3/2020 2:45:00 AM 5.97 42.746 0.193 7.21 1.59 11.64
11/3/2020 3:00:00 AM 5.94 42.692 0.193 7.2 1.56 11.65
11/3/2020 3:15:00 AM 5.92 42.656 0.193 7.2 1.57 11.65
11/3/2020 3:30:00 AM 5.89 42.602 0.193 7.21 1.54 11.67
11/3/2020 3:45:00 AM 5.85 42.53 0.193 7.2 1.56 11.68
11/3/2020 4:00:00 AM 5.82 42.476 0.193 7.2 1.55 11.69
11/3/2020 4:15:00 AM 5.78 42.404 0.193 7.2 1.5 11.71
11/3/2020 4:30:00 AM 5.74 42.332 0.193 7.2 2.13 11.72
11/3/2020 4:45:00 AM 5.7 42.26 0.193 7.2 1.67 11.74
11/3/2020 5:00:00 AM 5.67 42.206 0.193 7.2 1.52 11.75
11/3/2020 5:15:00 AM 5.65 42.17 0.193 7.2 1.55 11.76
11/3/2020 5:30:00 AM 5.63 42.134 0.193 7.2 1.54 11.77
11/3/2020 5:45:00 AM 5.6 42.08 0.193 7.2 1.53 11.79
11/3/2020 6:00:00 AM 5.58 42.044 0.193 7.2 1.5 11.79
11/3/2020 6:15:00 AM 5.56 42.008 0.193 7.2 1.59 11.8
11/3/2020 6:30:00 AM 5.54 41.972 0.193 7.2 1.57 11.81
11/3/2020 6:45:00 AM 5.51 41.918 0.193 7.19 1.51 11.82
11/3/2020 7:00:00 AM 5.49 41.882 0.193 7.2 1.53 11.84
11/3/2020 7:15:00 AM 5.48 41.864 0.193 7.2 1.54 11.87
11/3/2020 7:30:00 AM 5.49 41.882 0.193 7.21 1.5 11.92
11/3/2020 7:45:00 AM 5.5 41.9 0.193 7.22 1.53 12
11/3/2020 8:00:00 AM 5.52 41.936 0.193 7.24 1.51 12.07
11/3/2020 8:15:00 AM 5.55 41.99 0.193 7.25 1.56 12.12
11/3/2020 8:30:00 AM 5.61 42.098 0.193 7.27 1.54 12.17
11/3/2020 8:45:00 AM 5.69 42.242 0.193 7.28 1.54 12.2
11/3/2020 9:00:00 AM 5.77 42.386 0.192 7.29 1.52 12.25
11/3/2020 9:15:00 AM 5.88 42.584 0.192 7.31 1.5 12.29
11/3/2020 9:30:00 AM 6.01 42.818 0.192 7.33 1.48 12.32
11/3/2020 9:45:00 AM 6.13 43.034 0.192 7.33 1.5 12.33
11/3/2020 10:00:00 AM 6.25 43.25 0.192 7.34 2.35 12.35
11/3/2020 10:15:00 AM 6.39 43.502 0.192 7.36 1.47 12.39
11/3/2020 10:30:00 AM 6.56 43.808 0.192 7.37 1.47 12.38
11/3/2020 10:45:00 AM 6.76 44.168 0.191 7.37 1.52 12.35
11/3/2020 11:00:00 AM 6.99 44.582 0.191 7.38 1.46 12.37
11/3/2020 11:15:00 AM 7.19 44.942 0.191 7.4 1.46 12.35
11/3/2020 11:30:00 AM 7.43 45.374 0.191 7.41 1.49 12.32
11/3/2020 11:45:00 AM 7.66 45.788 0.191 7.42 1.44 12.29
11/3/2020 12:00:00 PM 7.94 46.292 0.191 7.43 1.45 12.26
11/3/2020 12:15:00 PM 8.2 46.76 0.191 7.44 1.46 12.2
11/3/2020 12:30:00 PM 8.48 47.264 0.191 7.45 1.49 12.17
11/3/2020 12:45:00 PM 8.73 47.714 0.191 7.46 1.43 12.12
11/3/2020 1:00:00 PM 9.06 48.308 0.191 7.46 2.32 12.09
11/3/2020 1:15:00 PM 9.36 48.848 0.19 7.47 1.49 12.05
11/3/2020 1:30:00 PM 9.55 49.19 0.19 7.47 1.48 12.04
11/3/2020 1:45:00 PM 9.64 49.352 0.19 7.47 1.45 12.01
11/3/2020 2:00:00 PM 9.7 49.46 0.19 7.46 1.55 11.97
11/3/2020 2:15:00 PM 9.74 49.532 0.19 7.46 1.59 11.95
11/3/2020 2:30:00 PM 9.63 49.334 0.19 7.45 1.45 11.89
11/3/2020 2:45:00 PM 9.57 49.226 0.19 7.44 1.61 11.85
11/3/2020 3:00:00 PM 9.48 49.064 0.19 7.43 1.6 11.82
11/3/2020 3:15:00 PM 9.36 48.848 0.19 7.42 1.45 11.8
11/3/2020 3:30:00 PM 9.24 48.632 0.19 7.41 1.38 11.76
11/3/2020 3:45:00 PM 9.07 48.326 0.19 7.38 1.5 11.67
11/3/2020 4:00:00 PM 8.97 48.146 0.19 7.37 1.4 11.62
11/3/2020 4:15:00 PM 8.88 47.984 0.19 7.35 1.48 11.57
11/3/2020 4:30:00 PM 8.81 47.858 0.191 7.33 1.45 11.49
11/3/2020 4:45:00 PM 8.73 47.714 0.191 7.31 1.51 11.41
11/3/2020 5:00:00 PM 8.66 47.588 0.191 7.3 1.43 11.37
11/3/2020 5:15:00 PM 8.57 47.426 0.191 7.28 3.87 11.32
11/3/2020 5:30:00 PM 8.48 47.264 0.191 7.27 1.47 11.26
11/3/2020 5:45:00 PM 8.39 47.102 0.191 7.26 1.41 11.23
11/3/2020 6:00:00 PM 8.31 46.958 0.192 7.25 1.43 11.2
11/3/2020 6:15:00 PM 8.21 46.778 0.192 7.24 1.51 11.18
11/3/2020 6:30:00 PM 8.12 46.616 0.192 7.23 1.4 11.19
11/3/2020 6:45:00 PM 8.03 46.454 0.192 7.22 1.48 11.18
11/3/2020 7:00:00 PM 7.94 46.292 0.192 7.21 1.46 11.19
11/3/2020 7:15:00 PM 7.86 46.148 0.192 7.2 1.48 11.19
11/3/2020 7:30:00 PM 7.78 46.004 0.192 7.21 1.44 11.2
11/3/2020 7:45:00 PM 7.71 45.878 0.192 7.2 1.43 11.22
11/3/2020 8:00:00 PM 7.64 45.752 0.192 7.2 1.46 11.21
11/3/2020 8:15:00 PM 7.58 45.644 0.192 7.2 1.48 11.22
11/3/2020 8:30:00 PM 7.52 45.536 0.192 7.2 1.45 11.23
11/3/2020 8:45:00 PM 7.46 45.428 0.192 7.2 1.43 11.25
11/3/2020 9:00:00 PM 7.41 45.338 0.193 7.2 1.43 11.25
11/3/2020 9:15:00 PM 7.35 45.23 0.193 7.19 1.48 11.26
11/3/2020 9:30:00 PM 7.31 45.158 0.193 7.19 1.58 11.28
11/3/2020 9:45:00 PM 7.26 45.068 0.193 7.2 1.45 11.3
11/3/2020 10:00:00 PM 7.21 44.978 0.193 7.19 1.46 11.31
11/3/2020 10:15:00 PM 7.16 44.888 0.193 7.19 1.56 11.32
11/3/2020 10:30:00 PM 7.11 44.798 0.193 7.19 1.41 11.33
11/3/2020 10:45:00 PM 7.06 44.708 0.193 7.19 1.56 11.34
11/3/2020 11:00:00 PM 7.01 44.618 0.193 7.19 1.49 11.35
11/3/2020 11:15:00 PM 6.96 44.528 0.193 7.19 1.56 11.39
11/3/2020 11:30:00 PM 6.91 44.438 0.193 7.19 1.47 11.4
11/3/2020 11:45:00 PM 6.85 44.33 0.193 7.19 1.46 11.41
11/4/2020 12:00:00 AM 6.79 44.222 0.193 7.18 1.96 11.45
11/4/2020 12:15:00 AM 6.74 44.132 0.193 7.18 1.45 11.44
11/4/2020 12:30:00 AM 6.68 44.024 0.193 7.18 1.45 11.48
11/4/2020 12:45:00 AM 6.62 43.916 0.193 7.18 1.46 11.5
11/4/2020 1:00:00 AM 6.57 43.826 0.193 7.18 1.46 11.53
11/4/2020 1:15:00 AM 6.51 43.718 0.193 7.18 1.44 11.56
11/4/2020 1:30:00 AM 6.45 43.61 0.193 7.18 1.49 11.58
11/4/2020 1:45:00 AM 6.39 43.502 0.193 7.18 1.53 11.61
11/4/2020 2:00:00 AM 6.33 43.394 0.193 7.18 1.46 11.62
11/4/2020 2:15:00 AM 6.28 43.304 0.193 7.18 1.44 11.64
11/4/2020 2:30:00 AM 6.23 43.214 0.193 7.18 1.48 11.65
11/4/2020 2:45:00 AM 6.18 43.124 0.193 7.18 1.43 11.68
11/4/2020 3:00:00 AM 6.12 43.016 0.193 7.18 1.39 11.69
11/4/2020 3:15:00 AM 6.07 42.926 0.193 7.17 1.47 11.72
11/4/2020 3:30:00 AM 6.02 42.836 0.193 7.18 1.41 11.74
11/4/2020 3:45:00 AM 5.96 42.728 0.193 7.18 1.42 11.76
11/4/2020 4:00:00 AM 5.91 42.638 0.193 7.18 1.44 11.78
11/4/2020 4:15:00 AM 5.86 42.548 0.193 7.17 1.44 11.8
11/4/2020 4:30:00 AM 5.82 42.476 0.193 7.17 1.63 11.82
11/4/2020 4:45:00 AM 5.76 42.368 0.193 7.17 1.47 11.85
11/4/2020 5:00:00 AM 5.71 42.278 0.193 7.17 1.46 11.86
11/4/2020 5:15:00 AM 5.67 42.206 0.193 7.17 1.44 11.88
11/4/2020 5:30:00 AM 5.62 42.116 0.193 7.17 1.49 11.9
11/4/2020 5:45:00 AM 5.58 42.044 0.193 7.17 1.46 11.91
11/4/2020 6:00:00 AM 5.53 41.954 0.193 7.17 1.46 11.94
11/4/2020 6:15:00 AM 5.49 41.882 0.193 7.17 1.5 11.95
11/4/2020 6:30:00 AM 5.45 41.81 0.193 7.17 1.47 11.97
11/4/2020 6:45:00 AM 5.41 41.738 0.193 7.17 1.47 11.98
11/4/2020 7:00:00 AM 5.37 41.666 0.193 7.17 1.42 11.99
11/4/2020 7:15:00 AM 5.34 41.612 0.193 7.18 1.52 12.03
11/4/2020 7:30:00 AM 5.32 41.576 0.193 7.18 1.45 12.06
11/4/2020 7:45:00 AM 5.29 41.522 0.193 7.18 1.44 12.11
11/4/2020 8:00:00 AM 5.29 41.522 0.193 7.19 1.46 12.2
11/4/2020 8:15:00 AM 5.29 41.522 0.193 7.21 1.39 12.28
11/4/2020 8:30:00 AM 5.3 41.54 0.193 7.22 1.38 12.32
11/4/2020 8:45:00 AM 5.34 41.612 0.192 7.24 1.4 12.39
11/4/2020 9:00:00 AM 5.4 41.72 0.192 7.25 1.39 12.44
11/4/2020 9:15:00 AM 5.47 41.846 0.192 7.26 1.44 12.47
11/4/2020 9:30:00 AM 5.57 42.026 0.192 7.28 1.39 12.52
11/4/2020 9:45:00 AM 5.68 42.224 0.192 7.3 1.4 12.55
11/4/2020 10:00:00 AM 5.82 42.476 0.191 7.3 1.37 12.58
11/4/2020 10:15:00 AM 5.96 42.728 0.191 7.32 1.38 12.6
11/4/2020 10:30:00 AM 6.13 43.034 0.191 7.34 1.36 12.59
11/4/2020 10:45:00 AM 6.37 43.466 0.191 7.35 1.39 12.6
11/4/2020 11:00:00 AM 6.63 43.934 0.191 7.37 1.36 12.58
11/4/2020 11:15:00 AM 6.88 44.384 0.191 7.37 1.38 12.56
11/4/2020 11:30:00 AM 7.15 44.87 0.19 7.38 1.37 12.53
11/4/2020 11:45:00 AM 7.48 45.464 0.19 7.4 1.31 12.51
11/4/2020 12:00:00 PM 7.8 46.04 0.19 7.39 1.35 12.44
11/4/2020 12:15:00 PM 8.14 46.652 0.19 7.4 1.31 12.4
11/4/2020 12:30:00 PM 8.51 47.318 0.19 7.42 1.31 12.33
11/4/2020 12:45:00 PM 8.85 47.93 0.19 7.43 1.33 12.26
11/4/2020 1:00:00 PM 9.2 48.56 0.19 7.44 1.33 12.19
11/4/2020 1:15:00 PM 9.55 49.19 0.19 7.44 1.28 12.13
11/4/2020 1:30:00 PM 9.84 49.712 0.19 7.44 1.35 12.08
11/4/2020 1:45:00 PM 10.06 50.108 0.189 7.43 1.42 12
11/4/2020 2:00:00 PM 10.24 50.432 0.189 7.44 1.25 11.97
11/4/2020 2:15:00 PM 10.38 50.684 0.189 7.41 3.26 11.9
11/4/2020 2:30:00 PM 10.41 50.738 0.189 7.42 1.28 11.9
11/4/2020 2:45:00 PM 10.35 50.63 0.19 7.4 1.44 11.81
11/4/2020 3:00:00 PM 10.32 50.576 0.19 7.38 1.26 11.75
11/4/2020 3:15:00 PM 10.24 50.432 0.19 7.38 1.73 11.71
11/4/2020 3:30:00 PM 10.04 50.072 0.19 7.36 1.54 11.67
11/4/2020 3:45:00 PM 9.79 49.622 0.19 7.32 1.79 11.59
11/4/2020 4:00:00 PM 9.49 49.082 0.19 7.3 1.78 11.56
11/4/2020 4:15:00 PM 9.22 48.596 0.19 7.25 1.29 11.47
11/4/2020 4:30:00 PM 8.98 48.164 0.19 7.23 2.05 11.45
11/4/2020 4:45:00 PM 8.85 47.93 0.19 7.22 1.34 11.41
11/4/2020 5:00:00 PM 8.73 47.714 0.19 7.22 1.99 11.36
11/4/2020 5:15:00 PM 8.65 47.57 0.19 7.21 1.28 11.3
11/4/2020 5:30:00 PM 8.59 47.462 0.19 7.21 1.32 11.23
11/4/2020 5:45:00 PM 8.54 47.372 0.191 7.21 1.4 11.18
11/4/2020 6:00:00 PM 8.49 47.282 0.191 7.2 1.37 11.14
11/4/2020 6:15:00 PM 8.43 47.174 0.191 7.19 1.25 11.1
11/4/2020 6:30:00 PM 8.37 47.066 0.191 7.2 1.31 11.08
11/4/2020 6:45:00 PM 8.31 46.958 0.191 7.19 1.39 11.07
11/4/2020 7:00:00 PM 8.24 46.832 0.191 7.19 1.4 11.07
11/4/2020 7:15:00 PM 8.16 46.688 0.191 7.18 1.34 11.07
11/4/2020 7:30:00 PM 8.08 46.544 0.191 7.18 1.3 11.08
11/4/2020 7:45:00 PM 8 46.4 0.191 7.18 1.29 11.1
11/4/2020 8:00:00 PM 7.92 46.256 0.191 7.17 1.36 11.11
11/4/2020 8:15:00 PM 7.84 46.112 0.192 7.17 1.35 11.12
11/4/2020 8:30:00 PM 7.76 45.968 0.192 7.17 1.28 11.13
11/4/2020 8:45:00 PM 7.68 45.824 0.192 7.16 2.76 11.15
11/4/2020 9:00:00 PM 7.6 45.68 0.192 7.16 1.32 11.18
11/4/2020 9:15:00 PM 7.53 45.554 0.192 7.16 1.28 11.2
11/4/2020 9:30:00 PM 7.46 45.428 0.192 7.16 1.29 11.21
11/4/2020 9:45:00 PM 7.4 45.32 0.192 7.16 1.42 11.23
11/4/2020 10:00:00 PM 7.34 45.212 0.192 7.16 1.31 11.24
11/4/2020 10:15:00 PM 7.28 45.104 0.192 7.16 1.32 11.25
11/4/2020 10:30:00 PM 7.23 45.014 0.192 7.16 1.31 11.27
11/4/2020 10:45:00 PM 7.18 44.924 0.192 7.16 1.31 11.27
11/4/2020 11:00:00 PM 7.13 44.834 0.192 7.17 1.3 11.29
11/4/2020 11:15:00 PM 7.09 44.762 0.192 7.16 1.32 11.3
11/4/2020 11:30:00 PM 7.05 44.69 0.192 7.16 1.32 11.31
11/4/2020 11:45:00 PM 7.01 44.618 0.192 7.16 1.37 11.33
11/5/2020 12:00:00 AM 6.96 44.528 0.192 7.16 1.37 11.34
11/5/2020 12:15:00 AM 6.92 44.456 0.192 7.16 1.32 11.35
11/5/2020 12:30:00 AM 6.88 44.384 0.192 7.16 1.29 11.36
11/5/2020 12:45:00 AM 6.84 44.312 0.192 7.16 1.34 11.37
11/5/2020 1:00:00 AM 6.8 44.24 0.192 7.15 1.84 11.4
11/5/2020 1:15:00 AM 6.75 44.15 0.192 7.16 2.66 11.4
11/5/2020 1:30:00 AM 6.71 44.078 0.192 7.16 2.01 11.42
11/5/2020 1:45:00 AM 6.66 43.988 0.192 7.16 1.68 11.45
11/5/2020 2:00:00 AM 6.61 43.898 0.192 7.15 1.47 11.48
11/5/2020 2:15:00 AM 6.56 43.808 0.192 7.16 1.3 11.47
11/5/2020 2:30:00 AM 6.51 43.718 0.192 7.15 1.31 11.51
11/5/2020 2:45:00 AM 6.46 43.628 0.192 7.15 1.33 11.53
11/5/2020 3:00:00 AM 6.41 43.538 0.192 7.16 1.27 11.55
11/5/2020 3:15:00 AM 6.35 43.43 0.192 7.16 1.42 11.57
11/5/2020 3:30:00 AM 6.29 43.322 0.192 7.16 1.58 11.58
11/5/2020 3:45:00 AM 6.23 43.214 0.192 7.15 1.51 11.61
11/5/2020 4:00:00 AM 6.18 43.124 0.192 7.15 1.48 11.63
11/5/2020 4:15:00 AM 6.12 43.016 0.192 7.15 1.34 11.64
11/5/2020 4:30:00 AM 6.07 42.926 0.192 7.15 1.33 11.66
11/5/2020 4:45:00 AM 6.01 42.818 0.192 7.15 1.48 11.68
11/5/2020 5:00:00 AM 5.95 42.71 0.192 7.15 1.34 11.72
11/5/2020 5:15:00 AM 5.9 42.62 0.192 7.16 1.38 11.75
11/5/2020 5:30:00 AM 5.85 42.53 0.192 7.15 1.45 11.77
11/5/2020 5:45:00 AM 5.8 42.44 0.192 7.15 1.34 11.78
11/5/2020 6:00:00 AM 5.76 42.368 0.192 7.15 1.28 11.8
11/5/2020 6:15:00 AM 5.72 42.296 0.192 7.16 1.37 11.82
11/5/2020 6:30:00 AM 5.69 42.242 0.192 7.16 1.33 11.84
11/5/2020 6:45:00 AM 5.66 42.188 0.192 7.16 1.35 11.85
11/5/2020 7:00:00 AM 5.62 42.116 0.192 7.16 1.29 11.87
11/5/2020 7:15:00 AM 5.59 42.062 0.192 7.16 1.36 11.9
11/5/2020 7:30:00 AM 5.56 42.008 0.192 7.16 1.3 11.93
11/5/2020 7:45:00 AM 5.54 41.972 0.192 7.17 1.33 11.99
11/5/2020 8:00:00 AM 5.53 41.954 0.192 7.18 1.32 12.06
11/5/2020 8:15:00 AM 5.54 41.972 0.192 7.19 1.26 12.11
11/5/2020 8:30:00 AM 5.55 41.99 0.192 7.21 1.38 12.23
11/5/2020 8:45:00 AM 5.59 42.062 0.192 7.22 1.29 12.27
11/5/2020 9:00:00 AM 5.66 42.188 0.191 7.24 1.35 12.38
11/5/2020 9:15:00 AM 5.9 42.62 0.191 7.79 2.59 12.43
11/5/2020 9:30:00 AM 5.98 42.764 0.19 7.54 19.1 12.46
11/5/2020 9:45:00 AM 6.17 43.106 0.19 7.47 2.27 12.5
11/5/2020 10:00:00 AM 6.33 43.394 0.189 7.45 2.16 12.57
11/5/2020 10:15:00 AM 6.49 43.682 0.183 7.42 2.33 12.58
11/5/2020 10:30:00 AM 6.61 43.898 0.183 7.45 1.9 12.58
11/5/2020 10:45:00 AM 6.78 44.204 0.188 7.44 1.86 12.55
11/5/2020 11:00:00 AM 6.98 44.564 0.187 7.45 1.86 12.53
11/5/2020 11:15:00 AM 7.24 45.032 0.179 7.46 1.87 12.51
11/5/2020 11:30:00 AM 7.52 45.536 0.175 7.46 1.85 12.5
11/5/2020 11:45:00 AM 7.83 46.094 0.171 7.46 1.82 12.48
11/5/2020 12:00:00 PM 8.14 46.652 0.169 7.44 1.83 12.46
11/5/2020 12:15:00 PM 8.39 47.102 0.166 7.48 1.84 12.42
11/5/2020 12:30:00 PM 8.57 47.426 0.165 7.49 1.8 12.38
11/5/2020 12:45:00 PM 8.87 47.966 0.166 7.5 1.87 12.34
11/5/2020 1:00:00 PM 9.14 48.452 0.164 7.51 1.77 12.3
11/5/2020 1:15:00 PM 9.37 48.866 0.163 7.51 1.78 12.25
11/5/2020 1:30:00 PM 9.56 49.208 0.161 7.52 1.74 12.2
11/5/2020 1:45:00 PM 9.73 49.514 0.162 7.52 1.76 12.16
11/5/2020 2:00:00 PM 9.88 49.784 0.164 7.52 1.77 12.12
11/5/2020 2:15:00 PM 9.99 49.982 0.165 7.53 1.72 12.09
11/5/2020 2:30:00 PM 10.05 50.09 0.163 7.52 1.8 12.08
11/5/2020 2:45:00 PM 10.07 50.126 0.163 7.51 1.8 12.06
11/5/2020 3:00:00 PM 10.04 50.072 0.165 7.5 1.77 12
11/5/2020 3:15:00 PM 9.99 49.982 0.166 7.5 1.85 11.98
11/5/2020 3:30:00 PM 9.91 49.838 0.171 7.49 1.81 11.94
11/5/2020 3:45:00 PM 9.79 49.622 0.172 7.47 1.77 11.89
11/5/2020 4:00:00 PM 9.67 49.406 0.174 7.45 1.8 11.86
11/5/2020 4:15:00 PM 9.55 49.19 0.173 7.46 1.84 11.79
11/5/2020 4:30:00 PM 9.43 48.974 0.175 7.43 1.77 11.76
11/5/2020 4:45:00 PM 9.33 48.794 0.176 7.43 1.88 11.68
11/5/2020 5:00:00 PM 9.23 48.614 0.176 7.4 1.86 11.59
11/5/2020 5:15:00 PM 9.14 48.452 0.175 7.37 1.82 11.5
11/5/2020 5:30:00 PM 9.05 48.29 0.169 7.35 1.77 11.41
11/5/2020 5:45:00 PM 8.97 48.146 0.171 7.34 1.77 11.31
11/5/2020 6:00:00 PM 8.9 48.02 0.17 7.28 1.77 11.14
11/5/2020 6:15:00 PM 8.85 47.93 0.17 7.29 1.8 11.13
11/5/2020 6:30:00 PM 8.79 47.822 0.169 7.27 1.84 11.07
11/5/2020 6:45:00 PM 8.73 47.714 0.167 7.27 1.8 11.02
11/5/2020 7:00:00 PM 8.67 47.606 0.162 7.25 1.82 10.98
11/5/2020 7:15:00 PM 8.61 47.498 0.162 7.25 1.78 10.96
11/5/2020 7:30:00 PM 8.56 47.408 0.16 7.24 2.02 10.93
11/5/2020 7:45:00 PM 8.51 47.318 0.163 7.23 1.83 10.91
11/5/2020 8:00:00 PM 8.46 47.228 0.162 7.23 1.94 10.9
11/5/2020 8:15:00 PM 8.41 47.138 0.16 7.23 1.81 10.9
11/5/2020 8:30:00 PM 8.36 47.048 0.16 7.23 1.87 10.89
11/5/2020 8:45:00 PM 8.32 46.976 0.156 7.22 1.8 10.91
11/5/2020 9:00:00 PM 8.27 46.886 0.156 7.22 1.88 10.9
11/5/2020 9:15:00 PM 8.23 46.814 0.157 7.22 1.82 10.89
11/5/2020 9:30:00 PM 8.2 46.76 0.155 7.21 1.81 10.93
11/5/2020 9:45:00 PM 8.16 46.688 0.155 7.21 1.93 10.92
11/5/2020 10:00:00 PM 8.13 46.634 0.155 7.2 1.78 10.93
11/5/2020 10:15:00 PM 8.09 46.562 0.151 7.21 1.78 10.91
11/5/2020 10:30:00 PM 8.08 46.544 0.151 7.21 1.88 10.89
11/5/2020 10:45:00 PM 8.07 46.526 0.15 7.21 1.88 10.88
11/5/2020 11:00:00 PM 8.05 46.49 0.149 7.21 1.81 10.9
11/5/2020 11:15:00 PM 8.05 46.49 0.148 7.21 1.82 10.89
11/5/2020 11:30:00 PM 8.04 46.472 0.145 7.2 1.84 10.89
11/5/2020 11:45:00 PM 8.04 46.472 0.142 7.21 1.77 10.88
11/6/2020 12:00:00 AM 8.04 46.472 0.142 7.19 1.76 10.89
11/6/2020 12:15:00 AM 8.02 46.436 0.142 7.2 1.85 10.91
11/6/2020 12:30:00 AM 7.99 46.382 0.14 7.2 1.8 10.84
11/6/2020 12:45:00 AM 7.97 46.346 0.14 7.2 1.8 10.88
11/6/2020 1:00:00 AM 7.94 46.292 0.138 7.2 1.8 10.89
11/6/2020 1:15:00 AM 7.92 46.256 0.136 7.2 1.83 10.93
11/6/2020 1:30:00 AM 7.89 46.202 0.135 7.19 1.79 10.94
11/6/2020 1:45:00 AM 7.87 46.166 0.134 7.19 1.84 10.93
11/6/2020 2:00:00 AM 7.86 46.148 0.135 7.19 1.86 10.93
11/6/2020 2:15:00 AM 7.84 46.112 0.135 7.2 1.86 10.96
11/6/2020 2:30:00 AM 7.82 46.076 0.136 7.19 1.84 10.98
11/6/2020 2:45:00 AM 7.8 46.04 0.135 7.18 1.74 10.98
11/6/2020 3:00:00 AM 7.77 45.986 0.135 7.19 1.81 10.93
11/6/2020 3:15:00 AM 7.74 45.932 0.135 7.19 1.98 10.98
11/6/2020 3:30:00 AM 7.69 45.842 0.134 7.19 1.8 10.88
11/6/2020 3:45:00 AM 7.63 45.734 0.133 7.19 1.78 10.94
11/6/2020 4:00:00 AM 7.57 45.626 0.133 7.18 1.9 11.04
11/6/2020 4:15:00 AM 7.51 45.518 0.132 7.18 1.84 11
11/6/2020 4:30:00 AM 7.45 45.41 0.157 7.18 1.81 11.04
11/6/2020 4:45:00 AM 7.37 45.266 0.155 7.17 2.17 10.9
11/6/2020 5:00:00 AM 7.3 45.14 0.153 7.17 1.84 11.01
11/6/2020 5:15:00 AM 7.22 44.996 0.152 7.17 1.85 11.03
11/6/2020 5:30:00 AM 7.15 44.87 0.151 7.17 1.87 11.14
11/6/2020 5:45:00 AM 7.08 44.744 0.147 7.16 1.89 11.21
11/6/2020 6:00:00 AM 7.01 44.618 0.146 7.17 1.86 11.21
11/6/2020 6:15:00 AM 6.94 44.492 0.145 7.17 1.84 11.22
11/6/2020 6:30:00 AM 6.87 44.366 0.146 7.17 1.81 11.28
11/6/2020 6:45:00 AM 6.8 44.24 0.144 7.17 1.79 11.27
11/6/2020 7:00:00 AM 6.74 44.132 0.145 7.17 1.91 11.27
11/6/2020 7:15:00 AM 6.68 44.024 0.145 7.17 1.85 11.26
11/6/2020 7:30:00 AM 6.63 43.934 0.145 7.18 1.86 11.28
11/6/2020 7:45:00 AM 6.6 43.88 0.146 7.18 1.81 11.32
11/6/2020 8:00:00 AM 6.57 43.826 0.143 7.19 1.81 11.4
11/6/2020 8:15:00 AM 6.56 43.808 0.144 7.2 1.78 11.44
11/6/2020 8:30:00 AM 6.57 43.826 0.142 7.22 1.85 11.57
11/6/2020 8:45:00 AM 6.59 43.862 0.143 7.24 1.85 11.63
11/6/2020 9:00:00 AM 6.64 43.952 0.144 7.25 1.79 11.56
11/6/2020 9:15:00 AM 6.71 44.078 0.144 7.26 1.8 11.74
11/6/2020 9:30:00 AM 6.8 44.24 0.143 7.28 1.86 11.7
11/6/2020 9:45:00 AM 6.92 44.456 0.142 7.29 1.79 11.82
11/6/2020 10:00:00 AM 7.05 44.69 0.143 7.3 1.78 11.72
11/6/2020 10:15:00 AM 7.2 44.96 0.142 7.34 1.79 12
11/6/2020 10:30:00 AM 7.37 45.266 0.139 7.34 1.9 12.04
11/6/2020 10:45:00 AM 7.58 45.644 0.14 7.37 1.84 12.05
11/6/2020 11:00:00 AM 7.84 46.112 0.14 7.39 1.75 12.03
11/6/2020 11:15:00 AM 8.14 46.652 0.138 7.41 1.76 12.07
11/6/2020 11:30:00 AM 8.46 47.228 0.137 7.42 1.77 12.03
11/6/2020 11:45:00 AM 8.8 47.84 0.138 7.44 1.72 12.03
11/6/2020 12:00:00 PM 9.13 48.434 0.139 7.45 1.74 12.06
11/6/2020 12:15:00 PM 9.45 49.01 0.14 7.45 1.75 12.06
11/6/2020 12:30:00 PM 9.79 49.622 0.14 7.46 2.41 12.04
11/6/2020 12:45:00 PM 10.16 50.288 0.144 7.47 1.79 12
11/6/2020 1:00:00 PM 10.53 50.954 0.145 7.48 1.72 11.98
11/6/2020 1:15:00 PM 10.92 51.656 0.145 7.49 1.67 11.88
11/6/2020 1:30:00 PM 11.3 52.34 0.144 7.49 1.78 11.85
11/6/2020 1:45:00 PM 11.58 52.844 0.148 7.5 1.64 11.78
11/6/2020 2:00:00 PM 11.85 53.33 0.148 7.49 1.65 11.71
11/6/2020 2:15:00 PM 12.11 53.798 0.151 7.5 1.78 11.56
11/6/2020 2:30:00 PM 12.24 54.032 0.149 7.49 1.97 11.47
11/6/2020 2:45:00 PM 12.21 53.978 0.154 7.45 2.22 11.39
11/6/2020 3:00:00 PM 12.16 53.888 0.157 7.43 1.69 11.35
11/6/2020 3:15:00 PM 12.12 53.816 0.16 7.43 2.18 11.1
11/6/2020 3:30:00 PM 11.96 53.528 0.16 7.39 2.02 11.05
11/6/2020 3:45:00 PM 11.74 53.132 0.161 7.41 1.69 11.16
11/6/2020 4:00:00 PM 11.42 52.556 0.164 7.4 1.79 11.17
11/6/2020 4:15:00 PM 11.04 51.872 0.164 7.37 1.67 11.16
11/6/2020 4:30:00 PM 10.67 51.206 0.162 7.34 1.72 11.12
11/6/2020 4:45:00 PM 10.38 50.684 0.166 7.32 1.71 11.06
11/6/2020 5:00:00 PM 10.12 50.216 0.167 7.29 1.74 11.03
11/6/2020 5:15:00 PM 9.9 49.82 0.168 7.27 1.7 10.97
11/6/2020 5:30:00 PM 9.73 49.514 0.169 7.26 1.74 10.94
11/6/2020 5:45:00 PM 9.6 49.28 0.17 7.23 1.71 10.89
11/6/2020 6:00:00 PM 9.5 49.1 0.171 7.21 1.79 10.83
11/6/2020 6:15:00 PM 9.42 48.956 0.172 7.23 1.75 10.78
11/6/2020 6:30:00 PM 9.36 48.848 0.172 7.23 1.67 10.71
11/6/2020 6:45:00 PM 9.3 48.74 0.172 7.22 1.77 10.67
11/6/2020 7:00:00 PM 9.25 48.65 0.172 7.21 1.7 10.63
11/6/2020 7:15:00 PM 9.19 48.542 0.173 7.19 1.68 10.59
11/6/2020 7:30:00 PM 9.14 48.452 0.173 7.21 1.7 10.54
11/6/2020 7:45:00 PM 9.09 48.362 0.173 7.2 1.71 10.52
11/6/2020 8:00:00 PM 9.03 48.254 0.174 7.19 1.72 10.49
11/6/2020 8:15:00 PM 8.97 48.146 0.174 7.2 1.76 10.47
11/6/2020 8:30:00 PM 8.9 48.02 0.175 7.19 1.72 10.5
11/6/2020 8:45:00 PM 8.82 47.876 0.177 7.2 1.71 10.53
11/6/2020 9:00:00 PM 8.74 47.732 0.177 7.18 1.73 10.48
11/6/2020 9:15:00 PM 8.66 47.588 0.178 7.18 1.7 10.52
11/6/2020 9:30:00 PM 8.59 47.462 0.178 7.18 1.79 10.52
11/6/2020 9:45:00 PM 8.51 47.318 0.179 7.18 1.73 10.54
11/6/2020 10:00:00 PM 8.42 47.156 0.179 7.18 1.86 10.54
11/6/2020 10:15:00 PM 8.34 47.012 0.181 7.17 1.72 10.64
11/6/2020 10:30:00 PM 8.27 46.886 0.181 7.17 1.73 10.59
11/6/2020 10:45:00 PM 8.19 46.742 0.182 7.18 1.79 10.66
11/6/2020 11:00:00 PM 8.13 46.634 0.182 7.18 1.7 10.7
11/6/2020 11:15:00 PM 8.05 46.49 0.182 7.18 1.7 10.68
11/6/2020 11:30:00 PM 7.98 46.364 0.182 7.17 1.78 10.69
11/6/2020 11:45:00 PM 7.92 46.256 0.182 7.17 1.7 10.7
11/7/2020 12:00:00 AM 7.86 46.148 0.184 7.17 1.7 10.69
11/7/2020 12:15:00 AM 7.8 46.04 0.185 7.17 1.74 10.71
11/7/2020 12:30:00 AM 7.75 45.95 0.185 7.17 1.77 10.78
11/7/2020 12:45:00 AM 7.7 45.86 0.185 7.18 1.74 10.78
11/7/2020 1:00:00 AM 7.65 45.77 0.186 7.18 1.76 10.81
11/7/2020 1:15:00 AM 7.6 45.68 0.186 7.18 1.74 10.77
11/7/2020 1:30:00 AM 7.55 45.59 0.187 7.18 1.72 10.86
11/7/2020 1:45:00 AM 7.5 45.5 0.188 7.19 1.69 10.9
11/7/2020 2:00:00 AM 7.46 45.428 0.188 7.19 1.74 10.83
11/7/2020 2:15:00 AM 7.42 45.356 0.189 7.18 1.79 10.87
11/7/2020 2:30:00 AM 7.38 45.284 0.186 7.19 1.73 10.91
11/7/2020 2:45:00 AM 7.33 45.194 0.187 7.17 1.73 10.93
11/7/2020 3:00:00 AM 7.3 45.14 0.187 7.18 1.7 11
11/7/2020 3:15:00 AM 7.26 45.068 0.188 7.18 1.73 11
11/7/2020 3:30:00 AM 7.22 44.996 0.188 7.19 1.74 10.91
11/7/2020 3:45:00 AM 7.17 44.906 0.188 7.19 1.75 10.9
11/7/2020 4:00:00 AM 7.14 44.852 0.188 7.2 1.76 10.98
11/7/2020 4:15:00 AM 7.1 44.78 0.187 7.19 1.74 10.95
11/7/2020 4:30:00 AM 7.05 44.69 0.187 7.19 1.79 11.02
11/7/2020 4:45:00 AM 7.01 44.618 0.187 7.19 1.74 11.03
11/7/2020 5:00:00 AM 6.96 44.528 0.186 7.19 1.73 10.98
11/7/2020 5:15:00 AM 6.92 44.456 0.187 7.19 1.74 11.01
11/7/2020 5:30:00 AM 6.87 44.366 0.184 7.19 1.73 11.03
11/7/2020 5:45:00 AM 6.81 44.258 0.184 7.19 1.74 11.05
11/7/2020 6:00:00 AM 6.77 44.186 0.185 7.19 1.74 11.07
11/7/2020 6:15:00 AM 6.73 44.114 0.185 7.19 1.74 11.09
11/7/2020 6:30:00 AM 6.68 44.024 0.185 7.19 1.74 11.12
11/7/2020 6:45:00 AM 6.63 43.934 0.186 7.18 1.8 11.11
11/7/2020 7:00:00 AM 6.59 43.862 0.187 7.18 1.73 11.07
11/7/2020 7:15:00 AM 6.55 43.79 0.187 7.18 1.79 11.13
11/7/2020 7:30:00 AM 6.52 43.736 0.187 7.19 1.71 11.15
11/7/2020 7:45:00 AM 6.5 43.7 0.186 7.2 1.71 11.21
11/7/2020 8:00:00 AM 6.49 43.682 0.186 7.2 1.72 11.22
11/7/2020 8:15:00 AM 6.51 43.718 0.186 7.2 1.76 11.26
11/7/2020 8:30:00 AM 6.53 43.754 0.185 7.22 1.72 11.4
11/7/2020 8:45:00 AM 6.56 43.808 0.185 7.22 1.72 11.45
11/7/2020 9:00:00 AM 6.6 43.88 0.184 7.24 1.74 11.57
11/7/2020 9:15:00 AM 6.66 43.988 0.184 7.26 1.76 11.67
11/7/2020 9:30:00 AM 6.74 44.132 0.183 7.27 1.72 11.82
11/7/2020 9:45:00 AM 6.84 44.312 0.183 7.28 1.73 11.93
11/7/2020 10:00:00 AM 6.96 44.528 0.183 7.31 1.71 11.9
11/7/2020 10:15:00 AM 7.09 44.762 0.183 7.33 1.75 11.95
11/7/2020 10:30:00 AM 7.26 45.068 0.182 7.35 1.73 11.98
11/7/2020 10:45:00 AM 7.47 45.446 0.182 7.37 1.75 11.98
11/7/2020 11:00:00 AM 7.72 45.896 0.182 7.39 1.72 11.95
11/7/2020 11:15:00 AM 8.01 46.418 0.184 7.42 1.73 11.99
11/7/2020 11:30:00 AM 8.37 47.066 0.185 7.43 1.78 11.98
11/7/2020 11:45:00 AM 8.76 47.768 0.185 7.45 1.72 12.04
11/7/2020 12:00:00 PM 9.12 48.416 0.185 7.46 1.7 12.08
11/7/2020 12:15:00 PM 9.44 48.992 0.185 7.47 1.69 12.05
11/7/2020 12:30:00 PM 9.75 49.55 0.185 7.48 1.7 12.08
11/7/2020 12:45:00 PM 10.19 50.342 0.185 7.49 1.67 12.02
11/7/2020 1:00:00 PM 10.69 51.242 0.187 7.51 1.61 11.96
11/7/2020 1:15:00 PM 10.91 51.638 0.188 7.49 1.73 11.91
11/7/2020 1:30:00 PM 11.39 52.502 0.188 7.51 1.66 11.8
11/7/2020 1:45:00 PM 11.77 53.186 0.188 7.53 1.68 11.77
11/7/2020 2:00:00 PM 11.92 53.456 0.188 7.51 1.61 11.7
11/7/2020 2:15:00 PM 12.16 53.888 0.189 7.51 1.67 11.7
11/7/2020 2:30:00 PM 12.34 54.212 0.19 7.51 1.66 11.62
11/7/2020 2:45:00 PM 12.39 54.302 0.19 7.5 1.68 11.57
11/7/2020 3:00:00 PM 12.39 54.302 0.189 7.48 1.92 11.47
11/7/2020 3:15:00 PM 12.38 54.284 0.189 7.47 1.63 11.39
11/7/2020 3:30:00 PM 12.32 54.176 0.189 7.47 1.72 11.31
11/7/2020 3:45:00 PM 12.22 53.996 0.19 7.43 1.68 11.12
11/7/2020 4:00:00 PM 11.97 53.546 0.19 7.43 1.65 10.93
11/7/2020 4:15:00 PM 11.62 52.916 0.188 7.4 1.64 11.01
11/7/2020 4:30:00 PM 11.31 52.358 0.186 7.37 1.67 11.03
11/7/2020 4:45:00 PM 10.96 51.728 0.186 7.32 1.67 11.04
11/7/2020 5:00:00 PM 10.68 51.224 0.189 7.3 1.65 10.95
11/7/2020 5:15:00 PM 10.4 50.72 0.189 7.29 1.66 10.69
11/7/2020 5:30:00 PM 10.18 50.324 0.19 7.26 1.7 10.81
11/7/2020 5:45:00 PM 9.99 49.982 0.191 7.22 1.68 10.63
11/7/2020 6:00:00 PM 9.83 49.694 0.191 7.21 1.63 10.84
11/7/2020 6:15:00 PM 9.69 49.442 0.193 7.2 1.68 10.81
11/7/2020 6:30:00 PM 9.57 49.226 0.194 7.2 1.71 10.75
11/7/2020 6:45:00 PM 9.47 49.046 0.194 7.18 1.65 10.74
11/7/2020 7:00:00 PM 9.39 48.902 0.194 7.2 2.07 10.64
11/7/2020 7:15:00 PM 9.33 48.794 0.192 7.18 1.66 10.59
11/7/2020 7:30:00 PM 9.27 48.686 0.194 7.19 1.68 10.56
11/7/2020 7:45:00 PM 9.21 48.578 0.193 7.17 1.71 10.53
11/7/2020 8:00:00 PM 9.14 48.452 0.198 7.17 1.67 10.51
11/7/2020 8:15:00 PM 9.09 48.362 0.198 7.16 1.72 10.49
11/7/2020 8:30:00 PM 9.03 48.254 0.203 7.14 1.72 10.45
11/7/2020 8:45:00 PM 8.96 48.128 0.201 7.16 1.69 10.46
11/7/2020 9:00:00 PM 8.89 48.002 0.205 7.14 1.65 10.52
11/7/2020 9:15:00 PM 8.82 47.876 0.2 7.16 1.72 10.44
11/7/2020 9:30:00 PM 8.75 47.75 0.089 7.09 4.6 10.44
11/7/2020 9:45:00 PM 8.67 47.606 0.133 7.16 1.78 10.52
11/7/2020 10:00:00 PM 8.59 47.462 0.084 7.16 1.78 10.53
11/7/2020 10:15:00 PM 8.51 47.318 0.111 7.16 1.86 10.49
11/7/2020 10:30:00 PM 8.4 47.12 0.193 6.93 4.93 10.4
11/7/2020 10:45:00 PM 8.31 46.958 0.191 7.11 1.98 10.59
11/7/2020 11:00:00 PM 8.23 46.814 0.191 7.16 1.98 10.65
11/7/2020 11:15:00 PM 8.15 46.67 0.191 7.18 1.76 10.57
11/7/2020 11:30:00 PM 8.07 46.526 0.191 7.18 1.76 10.73
11/7/2020 11:45:00 PM 8 46.4 0.192 7.17 1.83 10.74
11/8/2020 12:00:00 AM 7.92 46.256 0.191 7.18 1.88 10.78
11/8/2020 12:15:00 AM 7.86 46.148 0.191 7.18 1.79 10.79
11/8/2020 12:30:00 AM 7.8 46.04 0.191 7.18 2.02 10.79
11/8/2020 12:45:00 AM 7.73 45.914 0.191 7.19 1.81 10.81
11/8/2020 1:00:00 AM 7.67 45.806 0.191 7.18 1.81 10.85
11/8/2020 1:15:00 AM 7.62 45.716 0.191 7.19 1.87 10.81
11/8/2020 1:30:00 AM 7.56 45.608 0.191 7.18 1.8 10.85
11/8/2020 1:45:00 AM 7.5 45.5 0.191 7.19 1.77 10.89
11/8/2020 2:00:00 AM 7.44 45.392 0.191 7.18 1.8 10.9
11/8/2020 2:15:00 AM 7.4 45.32 0.192 7.18 1.79 10.93
11/8/2020 2:30:00 AM 7.36 45.248 0.191 7.19 1.82 10.92
11/8/2020 2:45:00 AM 7.31 45.158 0.191 7.19 1.85 10.95
11/8/2020 3:00:00 AM 7.26 45.068 0.192 7.19 1.8 11
11/8/2020 3:15:00 AM 7.21 44.978 0.192 7.2 1.79 10.98
11/8/2020 3:30:00 AM 7.16 44.888 0.192 7.2 1.78 10.99
11/8/2020 3:45:00 AM 7.12 44.816 0.192 7.2 1.88 11.03
11/8/2020 4:00:00 AM 7.07 44.726 0.192 7.2 1.85 10.96
11/8/2020 4:15:00 AM 7.03 44.654 0.192 7.18 1.82 10.97
11/8/2020 4:30:00 AM 6.99 44.582 0.192 7.19 1.84 10.96
11/8/2020 4:45:00 AM 6.94 44.492 0.192 7.19 1.85 11.03
11/8/2020 5:00:00 AM 6.89 44.402 0.192 7.19 1.85 11.06
11/8/2020 5:15:00 AM 6.86 44.348 0.192 7.19 1.88 11.04
11/8/2020 5:30:00 AM 6.79 44.222 0.192 7.19 1.81 11.11
11/8/2020 5:45:00 AM 6.74 44.132 0.192 7.19 1.91 11.17
11/8/2020 6:00:00 AM 6.71 44.078 0.192 7.18 1.88 11.15
11/8/2020 6:15:00 AM 6.64 43.952 0.193 7.18 1.98 11.16
11/8/2020 6:30:00 AM 6.61 43.898 0.193 7.17 1.76 11.03
11/8/2020 6:45:00 AM 6.55 43.79 0.193 7.16 1.76 11.15
11/8/2020 7:00:00 AM 6.51 43.718 0.193 7.19 1.71 11.22
11/8/2020 7:15:00 AM 6.46 43.628 0.193 7.19 1.79 11.26
11/8/2020 7:30:00 AM 6.42 43.556 0.193 7.19 1.76 11.33
11/8/2020 7:45:00 AM 6.39 43.502 0.193 7.2 1.84 11.42
11/8/2020 8:00:00 AM 6.38 43.484 0.192 7.19 1.8 11.39
11/8/2020 8:15:00 AM 6.37 43.466 0.192 7.22 1.71 11.56
11/8/2020 8:30:00 AM 6.36 43.448 0.192 7.23 1.77 11.64
11/8/2020 8:45:00 AM 6.37 43.466 0.192 7.24 1.83 11.75
11/8/2020 9:00:00 AM 6.39 43.502 0.192 7.26 1.75 11.84
11/8/2020 9:15:00 AM 6.44 43.592 0.191 7.27 1.75 11.97
11/8/2020 9:30:00 AM 6.52 43.736 0.191 7.3 3.49 12.02
11/8/2020 9:45:00 AM 6.59 43.862 0.192 7.25 1.78 12.03
11/8/2020 10:00:00 AM 6.72 44.096 0.191 7.18 396.23 11.91
11/8/2020 10:15:00 AM 6.86 44.348 0.191 7.32 2.75 12.13
11/8/2020 10:30:00 AM 7.06 44.708 0.19 7.33 1.69 12.15
11/8/2020 10:45:00 AM 7.24 45.032 0.19 7.35 1.95 12.2
11/8/2020 11:00:00 AM 7.53 45.554 0.19 7.39 2.01 12.25
11/8/2020 11:15:00 AM 7.83 46.094 0.19 7.4 1.87 12.21
11/8/2020 11:30:00 AM 8.27 46.886 0.189 7.42 1.77 12.24
11/8/2020 11:45:00 AM 8.71 47.678 0.189 7.44 1.81 12.18
11/8/2020 12:00:00 PM 9.01 48.218 0.189 7.44 1.75 12.16
11/8/2020 12:15:00 PM 9.31 48.758 0.189 7.44 1.75 12.11
11/8/2020 12:30:00 PM 9.63 49.334 0.189 7.45 1.86 12.08
11/8/2020 12:45:00 PM 10.01 50.018 0.188 7.47 1.68 12.03
11/8/2020 1:00:00 PM 10.54 50.972 0.188 7.46 1.67 11.97
11/8/2020 1:15:00 PM 10.85 51.53 0.188 7.47 1.68 11.91
11/8/2020 1:30:00 PM 11.14 52.052 0.188 7.47 1.7 11.82
11/8/2020 1:45:00 PM 11.44 52.592 0.188 7.48 1.66 11.79
11/8/2020 2:00:00 PM 11.7 53.06 0.188 7.48 1.69 11.65
11/8/2020 2:15:00 PM 11.96 53.528 0.188 7.5 1.73 11.6
11/8/2020 2:30:00 PM 12.14 53.852 0.188 7.49 1.84 11.54
11/8/2020 2:45:00 PM 12.21 53.978 0.188 7.49 3.96 11.48
11/8/2020 3:00:00 PM 12.22 53.996 0.188 7.38 5.42 11.18
11/8/2020 3:15:00 PM 12.21 53.978 0.188 7.38 1.83 11.16
11/8/2020 3:30:00 PM 12.17 53.906 0.188 7.39 1.86 11.18
11/8/2020 3:45:00 PM 12.05 53.69 0.188 7.42 1.85 11.2
11/8/2020 4:00:00 PM 11.8 53.24 0.189 7.34 2.67 11
11/8/2020 4:15:00 PM 11.48 52.664 0.189 7.31 4.46 10.8
11/8/2020 4:30:00 PM 11.17 52.106 0.189 7.34 1.78 11.03
11/8/2020 4:45:00 PM 10.8 51.44 0.189 7.34 1.91 10.94
11/8/2020 5:00:00 PM 10.44 50.792 0.19 7.3 2.07 10.87
11/8/2020 5:15:00 PM 10.15 50.27 0.19 7.28 1.76 10.92
11/8/2020 5:30:00 PM 9.9 49.82 0.19 7.25 1.78 10.81
11/8/2020 5:45:00 PM 9.69 49.442 0.19 7.23 3.04 10.76
11/8/2020 6:00:00 PM 9.5 49.1 0.19 7.21 1.68 10.76
11/8/2020 6:15:00 PM 9.36 48.848 0.19 7.2 1.8 10.69
11/8/2020 6:30:00 PM 9.24 48.632 0.191 7.2 1.77 10.67
11/8/2020 6:45:00 PM 9.14 48.452 0.191 7.19 1.74 10.66
11/8/2020 7:00:00 PM 9.06 48.308 0.191 7.19 1.86 10.59
11/8/2020 7:15:00 PM 8.99 48.182 0.191 7.2 1.73 10.59
11/8/2020 7:30:00 PM 8.92 48.056 0.191 7.18 1.75 10.58
11/8/2020 7:45:00 PM 8.86 47.948 0.191 7.19 1.78 10.54
11/8/2020 8:00:00 PM 8.81 47.858 0.191 7.19 1.95 10.52
11/8/2020 8:15:00 PM 8.75 47.75 0.191 7.18 2.25 10.38
11/8/2020 8:30:00 PM 8.7 47.66 0.191 7.19 1.91 10.45
11/8/2020 8:45:00 PM 8.65 47.57 0.191 7.18 1.93 10.47
11/8/2020 9:00:00 PM 8.58 47.444 0.191 7.18 1.89 10.46
11/8/2020 9:15:00 PM 8.51 47.318 0.191 7.18 1.75 10.55
11/8/2020 9:30:00 PM 8.43 47.174 0.191 7.18 1.72 10.65
11/8/2020 9:45:00 PM 8.38 47.084 0.191 7.21 2.31 10.61
11/8/2020 10:00:00 PM 8.32 46.976 0.191 7.18 1.94 10.65
11/8/2020 10:15:00 PM 8.24 46.832 0.191 7.19 1.84 10.69
11/8/2020 10:30:00 PM 8.15 46.67 0.191 7.19 1.75 10.7
11/8/2020 10:45:00 PM 8.1 46.58 0.191 7.18 1.73 10.73
11/8/2020 11:00:00 PM 8.04 46.472 0.191 7.17 1.72 10.64
11/8/2020 11:15:00 PM 7.94 46.292 0.191 7.18 1.72 10.75
11/8/2020 11:30:00 PM 7.88 46.184 0.192 7.18 1.99 10.82
11/8/2020 11:45:00 PM 7.82 46.076 0.192 7.18 1.85 10.78
11/9/2020 12:00:00 AM 7.74 45.932 0.192 7.18 1.83 10.82
11/9/2020 12:15:00 AM 7.68 45.824 0.192 7.18 1.89 10.89
11/9/2020 12:30:00 AM 7.62 45.716 0.192 7.18 1.81 10.83
11/9/2020 12:45:00 AM 7.58 45.644 0.192 7.18 2.5 10.89
11/9/2020 1:00:00 AM 7.51 45.518 0.192 7.18 1.83 10.92
11/9/2020 1:15:00 AM 7.45 45.41 0.192 7.17 1.94 10.9
11/9/2020 1:30:00 AM 7.39 45.302 0.192 7.17 1.81 10.94
11/9/2020 1:45:00 AM 7.35 45.23 0.192 7.17 1.72 10.91
11/9/2020 2:00:00 AM 7.29 45.122 0.192 7.17 1.85 10.96
11/9/2020 2:15:00 AM 7.26 45.068 0.192 7.18 1.79 10.99
11/9/2020 2:30:00 AM 7.21 44.978 0.192 7.18 1.89 11
11/9/2020 2:45:00 AM 7.16 44.888 0.192 7.18 1.95 11.01
11/9/2020 3:00:00 AM 7.13 44.834 0.192 7.18 1.93 11.02
11/9/2020 3:15:00 AM 7.07 44.726 0.192 7.18 1.82 11.01
11/9/2020 3:30:00 AM 7.02 44.636 0.192 7.18 1.81 11.04
11/9/2020 3:45:00 AM 7 44.6 0.192 7.19 1.72 11.06
11/9/2020 4:00:00 AM 6.97 44.546 0.192 7.2 1.79 11.04
11/9/2020 4:15:00 AM 6.91 44.438 0.192 7.18 1.78 11.08
11/9/2020 4:30:00 AM 6.88 44.384 0.192 7.18 1.83 11.07
11/9/2020 4:45:00 AM 6.82 44.276 0.192 7.18 1.79 11.09
11/9/2020 5:00:00 AM 6.79 44.222 0.193 7.18 1.77 11.08
11/9/2020 5:15:00 AM 6.75 44.15 0.193 7.19 1.76 11.12
11/9/2020 5:30:00 AM 6.68 44.024 0.193 7.19 1.75 11.17
11/9/2020 5:45:00 AM 6.66 43.988 0.193 7.18 1.77 11.12
11/9/2020 6:00:00 AM 6.61 43.898 0.193 7.19 1.91 11.18
11/9/2020 6:15:00 AM 6.57 43.826 0.193 7.19 1.72 11.21
11/9/2020 6:30:00 AM 6.53 43.754 0.193 7.19 1.79 11.2
11/9/2020 6:45:00 AM 6.49 43.682 0.193 7.19 2.05 11.24
11/9/2020 7:00:00 AM 6.45 43.61 0.193 7.19 1.81 11.24
11/9/2020 7:15:00 AM 6.4 43.52 0.193 7.19 1.88 11.25
11/9/2020 7:30:00 AM 6.36 43.448 0.193 7.19 1.95 11.25
11/9/2020 7:45:00 AM 6.33 43.394 0.193 7.19 2.81 11.4
11/9/2020 8:00:00 AM 6.3 43.34 0.193 7.2 2.51 11.49
11/9/2020 8:15:00 AM 6.32 43.376 0.193 7.21 1.96 11.47
11/9/2020 8:30:00 AM 6.32 43.376 0.193 7.22 1.74 11.59
11/9/2020 8:45:00 AM 6.33 43.394 0.192 7.23 1.76 11.72
11/9/2020 9:00:00 AM 6.37 43.466 0.192 7.26 1.84 11.84
11/9/2020 9:15:00 AM 6.42 43.556 0.192 7.27 1.73 11.93
11/9/2020 9:30:00 AM 6.46 43.628 0.192 7.29 1.88 12.02
11/9/2020 9:45:00 AM 6.56 43.808 0.191 7.3 1.74 12.04
11/9/2020 10:00:00 AM 6.68 44.024 0.191 7.31 1.76 12.1
11/9/2020 10:15:00 AM 6.82 44.276 0.191 7.33 1.73 12.17
11/9/2020 10:30:00 AM 6.99 44.582 0.191 7.34 1.69 12.15
11/9/2020 10:45:00 AM 7.24 45.032 0.19 7.36 1.72 12.18
11/9/2020 11:00:00 AM 7.49 45.482 0.19 7.39 1.68 12.26
11/9/2020 11:15:00 AM 7.81 46.058 0.19 7.42 1.7 12.25
11/9/2020 11:30:00 AM 8.24 46.832 0.19 7.43 1.68 12.23
11/9/2020 11:45:00 AM 8.66 47.588 0.189 7.44 1.67 12.18
11/9/2020 12:00:00 PM 9.12 48.416 0.189 7.45 1.64 12.14
11/9/2020 12:15:00 PM 9.65 49.37 0.189 7.46 1.69 12.08
11/9/2020 12:30:00 PM 9.91 49.838 0.189 7.46 1.69 11.99
11/9/2020 12:45:00 PM 10.39 50.702 0.189 7.49 1.61 11.98
11/9/2020 1:00:00 PM 10.74 51.332 0.189 7.48 1.82 11.91
11/9/2020 1:15:00 PM 10.97 51.746 0.188 7.47 1.69 11.83
11/9/2020 1:30:00 PM 11.34 52.412 0.189 7.46 1.69 11.57
11/9/2020 1:45:00 PM 11.79 53.222 0.147 7.44 3.25 11.31
11/9/2020 2:00:00 PM 11.97 53.546 0.189 7.37 15.67 11.32
11/9/2020 2:15:00 PM 12.25 54.05 0.188 7.38 13.37 11.25
11/9/2020 2:30:00 PM 12.52 54.536 0.126 7.41 2.94 11.22
11/9/2020 2:45:00 PM 12.57 54.626 0.188 7.37 42.58 11.14
11/9/2020 3:00:00 PM 12.6 54.68 0.188 7.47 1.59 11.26
11/9/2020 3:15:00 PM 12.59 54.662 0.188 7.43 1.7 11.14
11/9/2020 3:30:00 PM 12.57 54.626 0.188 7.42 1.62 11.05
11/9/2020 3:45:00 PM 12.52 54.536 0.188 7.38 1.63 11.04
11/9/2020 4:00:00 PM 12.31 54.158 0.188 7.39 2.09 10.94
11/9/2020 4:15:00 PM 12.02 53.636 0.189 7.22 1.92 10.83
11/9/2020 4:30:00 PM 11.74 53.132 0.144 7.32 2 10.82
11/9/2020 4:45:00 PM 11.45 52.61 0.122 7.32 1.77 10.66
11/9/2020 5:00:00 PM 11.12 52.016 0.104 7.33 1.76 10.85
11/9/2020 5:15:00 PM 10.82 51.476 0.092 7.28 1.76 10.78
11/9/2020 5:30:00 PM 10.41 50.738 0.19 7.15 1.84 10.39
11/9/2020 5:45:00 PM 10.15 50.27 0.191 7.17 2.13 10.47
11/9/2020 6:00:00 PM 9.95 49.91 0.189 7.17 1.7 10.54
11/9/2020 6:15:00 PM 9.77 49.586 0.185 7.2 1.68 10.56
11/9/2020 6:30:00 PM 9.61 49.298 0.172 7.18 1.64 10.6
11/9/2020 6:45:00 PM 9.47 49.046 0.16 7.18 1.63 10.57
11/9/2020 7:00:00 PM 9.38 48.884 0.152 7.18 1.71 10.34
11/9/2020 7:15:00 PM 9.29 48.722 0.146 7.19 1.62 10.31
11/9/2020 7:30:00 PM 9.21 48.578 0.142 7.18 1.71 10.27
11/9/2020 7:45:00 PM 9.12 48.416 0.137 7.19 1.63 10.52
11/9/2020 8:00:00 PM 9.07 48.326 0.131 7.2 1.64 10.49
11/9/2020 8:15:00 PM 9.03 48.254 0.125 7.19 1.76 10.31
11/9/2020 8:30:00 PM 8.97 48.146 0.116 7.21 1.65 10.51
11/9/2020 8:45:00 PM 8.93 48.074 0.111 7.2 1.69 10.44
11/9/2020 9:00:00 PM 8.88 47.984 0.101 7.19 1.72 10.26
11/9/2020 9:15:00 PM 8.82 47.876 0.077 7.2 1.68 10.49
11/9/2020 9:30:00 PM 8.74 47.732 0.192 7.16 5369.39 10.4
11/9/2020 9:45:00 PM 8.7 47.66 0.192 7.15 2.49 10.4
11/9/2020 10:00:00 PM 8.63 47.534 0.192 7.17 3.07 10.42
11/9/2020 10:15:00 PM 8.57 47.426 0.192 7.17 834.13 10.48
11/9/2020 10:30:00 PM 8.52 47.336 0.192 7.17 1.88 10.45
11/9/2020 10:45:00 PM 8.43 47.174 0.192 7.17 1.82 10.52
11/9/2020 11:00:00 PM 8.4 47.12 0.192 7.16 50.08 10.49
11/9/2020 11:15:00 PM 8.33 46.994 0.192 7.16 2.63 10.53
11/9/2020 11:30:00 PM 8.27 46.886 0.192 7.15 104.94 10.57
11/9/2020 11:45:00 PM 8.21 46.778 0.192 7.17 1.72 10.54
11/10/2020 12:00:00 AM 8.16 46.688 0.192 7.15 1.66 10.57
11/10/2020 12:15:00 AM 8.09 46.562 0.192 7.15 1.99 10.55
11/10/2020 12:30:00 AM 8.02 46.436 0.192 7.14 1.93 10.59
11/10/2020 12:45:00 AM 7.97 46.346 0.192 7.14 2.23 10.59
11/10/2020 1:00:00 AM 7.91 46.238 0.192 7.16 2.01 10.68
11/10/2020 1:15:00 AM 7.85 46.13 0.192 7.16 2.85 10.69
11/10/2020 1:30:00 AM 7.81 46.058 0.192 7.17 1.73 10.65
11/10/2020 1:45:00 AM 7.76 45.968 0.192 7.16 1.68 10.68
11/10/2020 2:00:00 AM 7.71 45.878 0.192 7.16 1.73 10.67
11/10/2020 2:15:00 AM 7.66 45.788 0.192 7.16 1.73 10.71
11/10/2020 2:30:00 AM 7.61 45.698 0.192 7.16 1.69 10.75
11/10/2020 2:45:00 AM 7.59 45.662 0.192 7.16 1.71 10.72
11/10/2020 3:00:00 AM 7.54 45.572 0.192 7.16 1.68 10.77
11/10/2020 3:15:00 AM 7.5 45.5 0.192 7.16 1.67 10.8
11/10/2020 3:30:00 AM 7.47 45.446 0.192 7.17 1.72 10.77
11/10/2020 3:45:00 AM 7.43 45.374 0.193 7.17 1.74 10.75
11/10/2020 4:00:00 AM 7.39 45.302 0.192 7.16 1.73 10.74
11/10/2020 4:15:00 AM 7.36 45.248 0.193 7.16 1.75 10.77
11/10/2020 4:30:00 AM 7.35 45.23 0.193 7.16 1.91 10.76
11/10/2020 4:45:00 AM 7.34 45.212 0.194 7.17 1.82 10.78
11/10/2020 5:00:00 AM 7.33 45.194 0.194 7.19 1.66 10.8
11/10/2020 5:15:00 AM 7.32 45.176 0.194 7.18 1.68 10.81
11/10/2020 5:30:00 AM 7.3 45.14 0.193 7.16 1.7 10.84
11/10/2020 5:45:00 AM 7.3 45.14 0.19 7.16 1.63 10.47
11/10/2020 6:00:00 AM 7.29 45.122 0.177 7.17 1.64 10.33
11/10/2020 6:15:00 AM 7.29 45.122 0.152 7.18 1.71 10.76
11/10/2020 6:30:00 AM 7.28 45.104 0.135 7.18 1.72 10.75
11/10/2020 6:45:00 AM 7.28 45.104 0.193 7.18 146.44 10.83
11/10/2020 7:00:00 AM 7.28 45.104 0.193 7.18 2.22 10.84
11/10/2020 7:15:00 AM 7.29 45.122 0.193 7.18 1.79 10.84
11/10/2020 7:30:00 AM 7.29 45.122 0.193 7.19 1.75 10.92
11/10/2020 7:45:00 AM 7.32 45.176 0.193 7.19 1.74 10.91
11/10/2020 8:00:00 AM 7.36 45.248 0.193 7.19 1.73 11.01
11/10/2020 8:15:00 AM 7.41 45.338 0.193 7.21 1.75 11.09
11/10/2020 8:30:00 AM 7.48 45.464 0.193 7.23 1.72 11.24
11/10/2020 8:45:00 AM 7.57 45.626 0.192 7.23 1.69 11.37
11/10/2020 9:00:00 AM 7.67 45.806 0.192 7.26 1.69 11.53
11/10/2020 9:15:00 AM 7.79 46.022 0.192 7.29 1.71 11.65
11/10/2020 9:30:00 AM 7.91 46.238 0.191 7.31 1.7 11.73
11/10/2020 9:45:00 AM 8.08 46.544 0.191 7.33 1.73 11.86
11/10/2020 10:00:00 AM 8.22 46.796 0.191 7.34 1.7 11.94
11/10/2020 10:15:00 AM 8.36 47.048 0.19 7.36 1.67 11.96
11/10/2020 10:30:00 AM 8.55 47.39 0.19 7.39 1.67 12.06
11/10/2020 10:45:00 AM 8.64 47.552 0.19 7.41 1.64 12.1
11/10/2020 11:00:00 AM 8.78 47.804 0.19 7.43 1.68 12.12
11/10/2020 11:15:00 AM 8.99 48.182 0.189 7.44 1.67 12.05
11/10/2020 11:30:00 AM 9.33 48.794 0.189 7.47 1.66 12.08
11/10/2020 11:45:00 AM 9.84 49.712 0.189 7.48 1.72 12.01
11/10/2020 12:00:00 PM 10.35 50.63 0.189 7.48 1.66 11.87
11/10/2020 12:15:00 PM 10.65 51.17 0.189 7.49 1.58 11.89
11/10/2020 12:30:00 PM 10.89 51.602 0.189 7.48 1.58 11.8
11/10/2020 12:45:00 PM 11.21 52.178 0.189 7.49 1.57 11.75
11/10/2020 1:00:00 PM 11.7 53.06 0.188 7.49 1.64 11.62
11/10/2020 1:15:00 PM 12.1 53.78 0.188 7.49 1.58 11.63
11/10/2020 1:30:00 PM 12.55 54.59 0.188 7.51 1.55 11.52
11/10/2020 1:45:00 PM 12.77 54.986 0.188 7.49 1.59 11.43
11/10/2020 2:00:00 PM 13.08 55.544 0.188 7.52 1.62 11.36
11/10/2020 2:15:00 PM 13.31 55.958 0.188 7.48 1.68 11.23
11/10/2020 2:30:00 PM 13.49 56.282 0.188 7.47 1.72 11.08
11/10/2020 2:45:00 PM 13.6 56.48 0.188 7.47 1.59 11.02
11/10/2020 3:00:00 PM 13.7 56.66 0.188 7.5 1.55 10.98
11/10/2020 3:15:00 PM 13.73 56.714 0.188 7.47 1.59 10.91
11/10/2020 3:30:00 PM 13.71 56.678 0.188 7.42 1.53 10.73
11/10/2020 3:45:00 PM 13.62 56.516 0.188 7.37 1.61 10.62
11/10/2020 4:00:00 PM 13.44 56.192 0.188 7.36 1.65 10.53
11/10/2020 4:15:00 PM 13.19 55.742 0.189 7.32 1.64 10.36
11/10/2020 4:30:00 PM 12.91 55.238 0.189 7.31 1.85 10.31
11/10/2020 4:45:00 PM 12.65 54.77 0.19 7.27 1.64 10.28
11/10/2020 5:00:00 PM 12.27 54.086 0.19 7.26 1.72 10.23
11/10/2020 5:15:00 PM 11.97 53.546 0.19 7.24 1.67 10.21
11/10/2020 5:30:00 PM 11.68 53.024 0.191 7.23 1.65 10.18
11/10/2020 5:45:00 PM 11.46 52.628 0.191 7.22 1.6 10.14
11/10/2020 6:00:00 PM 11.27 52.286 0.191 7.19 1.67 10.07
11/10/2020 6:15:00 PM 11.1 51.98 0.191 7.17 1.72 9.88
11/10/2020 6:30:00 PM 10.94 51.692 0.191 7.16 1.65 9.9
11/10/2020 6:45:00 PM 10.8 51.44 0.191 7.15 1.69 9.93
11/10/2020 7:00:00 PM 10.67 51.206 0.192 7.13 1.68 9.84
11/10/2020 7:15:00 PM 10.52 50.936 0.192 7.11 1.71 9.76
11/10/2020 7:30:00 PM 10.38 50.684 0.192 7.12 1.67 9.85
11/10/2020 7:45:00 PM 10.28 50.504 0.192 7.12 1.7 9.76
11/10/2020 8:00:00 PM 10.23 50.414 0.192 7.12 1.69 9.6
11/10/2020 8:15:00 PM 10.15 50.27 0.192 7.13 1.74 9.81
11/10/2020 8:30:00 PM 10.1 50.18 0.192 7.12 1.65 9.61
11/10/2020 8:45:00 PM 10.03 50.054 0.192 7.14 2.35 9.85
11/10/2020 9:00:00 PM 10 50 0.192 7.15 1.72 9.87
11/10/2020 9:15:00 PM 9.95 49.91 0.192 7.15 1.67 9.8
11/10/2020 9:30:00 PM 9.91 49.838 0.192 7.15 1.72 9.89
11/10/2020 9:45:00 PM 9.86 49.748 0.192 7.15 1.69 9.88
11/10/2020 10:00:00 PM 9.82 49.676 0.192 7.15 1.67 9.94
11/10/2020 10:15:00 PM 9.77 49.586 0.192 7.15 1.64 9.93
11/10/2020 10:30:00 PM 9.73 49.514 0.192 7.15 1.66 9.92
11/10/2020 10:45:00 PM 9.69 49.442 0.192 7.15 1.64 9.85
11/10/2020 11:00:00 PM 9.64 49.352 0.192 7.15 1.67 9.86
11/10/2020 11:15:00 PM 9.58 49.244 0.192 7.15 1.67 9.89
11/10/2020 11:30:00 PM 9.54 49.172 0.192 7.15 1.69 9.94
11/10/2020 11:45:00 PM 9.48 49.064 0.192 7.15 1.73 9.97
11/11/2020 12:00:00 AM 9.44 48.992 0.192 7.15 1.95 9.98
11/11/2020 12:15:00 AM 9.38 48.884 0.192 7.15 1.69 10.01
11/11/2020 12:30:00 AM 9.34 48.812 0.193 7.15 1.75 9.97
11/11/2020 12:45:00 AM 9.28 48.704 0.192 7.14 1.85 10.05
11/11/2020 1:00:00 AM 9.24 48.632 0.192 7.14 1.76 10.02
11/11/2020 1:15:00 AM 9.2 48.56 0.193 7.14 1.72 10.05
11/11/2020 1:30:00 AM 9.15 48.47 0.193 7.14 1.7 9.95
11/11/2020 1:45:00 AM 9.1 48.38 0.192 7.14 1.79 10.05
11/11/2020 2:00:00 AM 9.05 48.29 0.193 7.14 1.75 10.12
11/11/2020 2:15:00 AM 9 48.2 0.193 7.14 1.72 10.12
11/11/2020 2:30:00 AM 8.99 48.182 0.193 7.13 1.67 10.09
11/11/2020 2:45:00 AM 8.95 48.11 0.193 7.15 1.7 10.15
11/11/2020 3:00:00 AM 8.94 48.092 0.193 7.15 1.74 10.04
11/11/2020 3:15:00 AM 8.91 48.038 0.193 7.15 1.69 10.09
11/11/2020 3:30:00 AM 8.87 47.966 0.193 7.15 2.01 10.16
11/11/2020 3:45:00 AM 8.84 47.912 0.193 7.15 2.51 10.22
11/11/2020 4:00:00 AM 8.81 47.858 0.193 7.14 3.49 10.19
11/11/2020 4:15:00 AM 8.79 47.822 0.193 7.15 2.61 10.19
11/11/2020 4:30:00 AM 8.77 47.786 0.193 7.15 1.95 10.21
11/11/2020 4:45:00 AM 8.75 47.75 0.193 7.15 1.84 10.17
11/11/2020 5:00:00 AM 8.74 47.732 0.193 7.15 1.83 10.16
11/11/2020 5:15:00 AM 8.74 47.732 0.193 7.15 1.78 10.14
11/11/2020 5:30:00 AM 8.76 47.768 0.193 7.15 1.73 10.09
11/11/2020 5:45:00 AM 8.79 47.822 0.193 7.16 1.68 10.18
11/11/2020 6:00:00 AM 8.82 47.876 0.193 7.15 1.71 10.19
11/11/2020 6:15:00 AM 8.84 47.912 0.193 7.18 1.72 10.25
11/11/2020 6:30:00 AM 8.86 47.948 0.193 7.18 1.65 10.27
11/11/2020 6:45:00 AM 8.88 47.984 0.193 7.17 1.68 10.19
11/11/2020 7:00:00 AM 8.91 48.038 0.193 7.16 1.68 10.27
11/11/2020 7:15:00 AM 8.95 48.11 0.194 7.18 1.92 10.29
11/11/2020 7:30:00 AM 9 48.2 0.193 7.18 1.68 10.31
11/11/2020 7:45:00 AM 9.05 48.29 0.193 7.19 1.64 10.38
11/11/2020 8:00:00 AM 9.09 48.362 0.193 7.19 3.73 10.41
11/11/2020 8:15:00 AM 9.15 48.47 0.188 7.22 1.93 10.55
11/11/2020 8:30:00 AM 9.18 48.524 0.186 7.21 2.3 10.48
11/11/2020 8:45:00 AM 9.23 48.614 0.185 7.22 2.22 10.47
11/11/2020 9:00:00 AM 9.28 48.704 0.18 7.23 2.91 10.48
11/11/2020 9:15:00 AM 9.34 48.812 0.176 7.26 4.68 10.51
11/11/2020 9:30:00 AM 9.42 48.956 0.167 7.34 6.65 10.49
11/11/2020 9:45:00 AM 9.52 49.136 0.161 7.41 8.9 10.41
11/11/2020 10:00:00 AM 9.61 49.298 0.155 7.45 7.95 10.45
11/11/2020 10:15:00 AM 9.72 49.496 0.147 7.51 10.41 10.45
11/11/2020 10:30:00 AM 9.82 49.676 0.143 7.57 9.23 10.43
11/11/2020 10:45:00 AM 9.87 49.766 0.145 7.53 7.23 10.44
11/11/2020 11:00:00 AM 9.9 49.82 0.149 7.48 5.88 10.48
11/11/2020 11:15:00 AM 9.92 49.856 0.153 7.45 4.94 10.53
11/11/2020 11:30:00 AM 9.92 49.856 0.158 7.4 3.98 10.55
11/11/2020 11:45:00 AM 9.92 49.856 0.16 7.38 3.43 10.68
11/11/2020 12:00:00 PM 9.94 49.892 0.161 7.37 3.18 10.76
11/11/2020 12:15:00 PM 9.99 49.982 0.159 7.35 3.41 10.76
11/11/2020 12:30:00 PM 10.11 50.198 0.153 7.39 4.86 10.74
11/11/2020 12:45:00 PM 10.26 50.468 0.149 7.46 5.73 10.73
11/11/2020 1:00:00 PM 10.28 50.504 0.151 7.44 4.44 10.74
11/11/2020 1:15:00 PM 10.29 50.522 0.153 7.4 3.67 10.76
11/11/2020 1:30:00 PM 10.33 50.594 0.153 7.39 3.8 10.74
11/11/2020 1:45:00 PM 10.41 50.738 0.153 7.41 4.22 10.79
11/11/2020 2:00:00 PM 10.41 50.738 0.157 7.42 4.25 10.78
11/11/2020 2:15:00 PM 10.38 50.684 0.16 7.4 3.14 10.83
11/11/2020 2:30:00 PM 10.33 50.594 0.164 7.35 2.82 10.88
11/11/2020 2:45:00 PM 10.29 50.522 0.166 7.32 2.25 10.84
11/11/2020 3:00:00 PM 10.26 50.468 0.167 7.3 2.06 10.9
11/11/2020 3:15:00 PM 10.25 50.45 0.167 7.29 2.07 10.87
11/11/2020 3:30:00 PM 10.25 50.45 0.167 7.28 2.13 10.87
11/11/2020 3:45:00 PM 10.26 50.468 0.166 7.27 2.08 10.81
11/11/2020 4:00:00 PM 10.27 50.486 0.166 7.28 2.42 10.79
11/11/2020 4:15:00 PM 10.27 50.486 0.165 7.27 2.35 10.73
11/11/2020 4:30:00 PM 10.26 50.468 0.165 7.25 2.18 10.67
11/11/2020 4:45:00 PM 10.25 50.45 0.164 7.24 2.19 10.64
11/11/2020 5:00:00 PM 10.27 50.486 0.164 7.23 2.18 10.6
11/11/2020 5:15:00 PM 10.28 50.504 0.163 7.22 2.27 10.54
11/11/2020 5:30:00 PM 10.28 50.504 0.162 7.21 2.4 10.51
11/11/2020 5:45:00 PM 10.29 50.522 0.162 7.2 2.49 10.48
11/11/2020 6:00:00 PM 10.31 50.558 0.161 7.2 2.74 10.48
11/11/2020 6:15:00 PM 10.32 50.576 0.161 7.19 3.42 10.45
11/11/2020 6:30:00 PM 10.33 50.594 0.161 7.18 3.36 10.45
11/11/2020 6:45:00 PM 10.34 50.612 0.161 7.18 3.53 10.45
11/11/2020 7:00:00 PM 10.37 50.666 0.161 7.17 3.57 10.45
11/11/2020 7:15:00 PM 10.39 50.702 0.161 7.16 5.87 10.45
11/11/2020 7:30:00 PM 10.42 50.756 0.162 7.16 4.86 10.45
11/11/2020 7:45:00 PM 10.44 50.792 0.163 7.14 5.64 10.45
11/11/2020 8:00:00 PM 10.45 50.81 0.164 7.1 6.19 10.46
11/11/2020 8:15:00 PM 10.43 50.774 0.164 7.03 8.45 10.47
11/11/2020 8:30:00 PM 10.4 50.72 0.165 6.98 11.52 10.5
11/11/2020 8:45:00 PM 10.35 50.63 0.166 6.97 13.14 10.53
11/11/2020 9:00:00 PM 10.27 50.486 0.168 6.95 15.77 10.58
11/11/2020 9:15:00 PM 10.18 50.324 0.171 6.94 16.59 10.62
11/11/2020 9:30:00 PM 10.08 50.144 0.174 6.97 27.05 10.68
11/11/2020 9:45:00 PM 9.96 49.928 0.178 6.96 24.08 10.77
11/11/2020 10:00:00 PM 9.85 49.73 0.183 6.97 31.3 10.84
11/11/2020 10:15:00 PM 9.73 49.514 0.186 6.91 33.59 10.93
11/11/2020 10:30:00 PM 9.64 49.352 0.188 6.91 29.69 11.01
11/11/2020 10:45:00 PM 9.58 49.244 0.19 6.92 18.26 11.06
11/11/2020 11:00:00 PM 9.55 49.19 0.191 6.92 24.4 11.09
11/11/2020 11:15:00 PM 9.55 49.19 0.191 6.96 26.3 11.11
11/11/2020 11:30:00 PM 9.58 49.244 0.191 6.94 27.04 11.12
11/11/2020 11:45:00 PM 9.64 49.352 0.191 6.93 19.17 11.12
11/12/2020 12:00:00 AM 9.69 49.442 0.191 6.94 17.69 11.12
11/12/2020 12:15:00 AM 9.73 49.514 0.191 6.94 16.92 11.13
11/12/2020 12:30:00 AM 9.76 49.568 0.192 6.95 15.18 11.14
11/12/2020 12:45:00 AM 9.77 49.586 0.192 6.95 12.09 11.14
11/12/2020 1:00:00 AM 9.8 49.64 0.192 6.96 14.71 11.14
11/12/2020 1:15:00 AM 9.86 49.748 0.193 6.98 15.2 11.13
11/12/2020 1:30:00 AM 9.9 49.82 0.193 6.98 12.93 11.14
11/12/2020 1:45:00 AM 9.95 49.91 0.194 6.98 12.98 11.12
11/12/2020 2:00:00 AM 10.01 50.018 0.194 6.98 13.69 11.1
11/12/2020 2:15:00 AM 10.1 50.18 0.194 6.99 13.62 11.09
11/12/2020 2:30:00 AM 10.19 50.342 0.194 6.98 13.72 11.08
11/12/2020 2:45:00 AM 10.28 50.504 0.193 6.98 13.68 11.05
11/12/2020 3:00:00 AM 10.35 50.63 0.192 6.97 13.8 11.04
11/12/2020 3:15:00 AM 10.4 50.72 0.19 6.97 13.46 11.03
11/12/2020 3:30:00 AM 10.43 50.774 0.188 6.96 13.15 11.02
11/12/2020 3:45:00 AM 10.44 50.792 0.185 6.96 13.14 11.01
11/12/2020 4:00:00 AM 10.46 50.828 0.182 6.96 13.16 11.01
11/12/2020 4:15:00 AM 10.48 50.864 0.178 6.97 12.58 11
11/12/2020 4:30:00 AM 10.51 50.918 0.173 6.97 12.52 11
11/12/2020 4:45:00 AM 10.54 50.972 0.169 6.97 12.75 10.99
11/12/2020 5:00:00 AM 10.55 50.99 0.167 6.97 12.35 10.98
11/12/2020 5:15:00 AM 10.56 51.008 0.166 6.95 12.63 10.98
11/12/2020 5:30:00 AM 10.56 51.008 0.164 6.95 11.9 10.98
11/12/2020 5:45:00 AM 10.56 51.008 0.163 6.96 11.84 10.97
11/12/2020 6:00:00 AM 10.56 51.008 0.162 6.96 12.09 10.97
11/12/2020 6:15:00 AM 10.56 51.008 0.16 6.97 12.4 10.97
11/12/2020 6:30:00 AM 10.56 51.008 0.159 6.94 12.61 10.97
11/12/2020 6:45:00 AM 10.55 50.99 0.159 6.94 11.98 10.97
11/12/2020 7:00:00 AM 10.54 50.972 0.158 6.93 12.56 10.97
11/12/2020 7:15:00 AM 10.54 50.972 0.157 6.93 11.41 10.97
11/12/2020 7:30:00 AM 10.55 50.99 0.156 6.94 11.33 10.97
11/12/2020 7:45:00 AM 10.55 50.99 0.156 6.94 11.64 10.97
11/12/2020 8:00:00 AM 10.55 50.99 0.156 6.95 11.59 10.98
11/12/2020 8:15:00 AM 10.54 50.972 0.157 6.96 11.67 10.99
11/12/2020 8:30:00 AM 10.52 50.936 0.159 6.97 10.81 10.99
11/12/2020 8:45:00 AM 10.49 50.882 0.16 7 10.58 11.01
11/12/2020 9:00:00 AM 10.47 50.846 0.162 6.99 10.46 11.02
11/12/2020 9:15:00 AM 10.45 50.81 0.163 6.97 10.57 11.04
11/12/2020 9:30:00 AM 10.44 50.792 0.163 7.01 10.3 11.05
11/12/2020 9:45:00 AM 10.42 50.756 0.164 6.98 10.42 11.06
11/12/2020 10:00:00 AM 10.42 50.756 0.164 6.99 10.18 11.08
11/12/2020 10:15:00 AM 10.41 50.738 0.164 7.01 10.56 11.08
11/12/2020 10:30:00 AM 10.41 50.738 0.164 7.02 10.38 11.09
11/12/2020 10:45:00 AM 10.43 50.774 0.163 7.02 10.23 11.12
11/12/2020 11:00:00 AM 10.44 50.792 0.162 7.03 10.26 11.13
11/12/2020 11:15:00 AM 10.46 50.828 0.161 7.05 9.79 11.14
11/12/2020 11:30:00 AM 10.47 50.846 0.16 7.07 10.04 11.15
11/12/2020 11:45:00 AM 10.49 50.882 0.159 7.07 10.55 11.16
11/12/2020 12:00:00 PM 10.52 50.936 0.159 7.12 9.88 11.17
11/12/2020 12:15:00 PM 10.52 50.936 0.158 7.14 9.47 11.19
11/12/2020 12:30:00 PM 10.53 50.954 0.158 7.15 10.04 11.2
11/12/2020 12:45:00 PM 10.55 50.99 0.158 7.16 9.43 11.2
11/12/2020 1:00:00 PM 10.56 51.008 0.158 7.18 9.21 11.2
11/12/2020 1:15:00 PM 10.56 51.008 0.158 7.2 9.45 11.21
11/12/2020 1:30:00 PM 10.55 50.99 0.158 7.18 9.76 11.21
11/12/2020 1:45:00 PM 10.54 50.972 0.158 7.15 9.48 11.21
11/12/2020 2:00:00 PM 10.54 50.972 0.158 7.17 9.52 11.2
11/12/2020 2:15:00 PM 10.54 50.972 0.158 7.21 8.96 11.19
11/12/2020 2:30:00 PM 10.55 50.99 0.158 7.22 8.58 11.19
11/12/2020 2:45:00 PM 10.54 50.972 0.157 7.22 8.99 11.19
11/12/2020 3:00:00 PM 10.52 50.936 0.157 7.22 8.48 11.17
11/12/2020 3:15:00 PM 10.49 50.882 0.157 7.21 8.9 11.16
11/12/2020 3:30:00 PM 10.46 50.828 0.157 7.2 8.48 11.14
11/12/2020 3:45:00 PM 10.44 50.792 0.157 7.2 8.52 11.12
11/12/2020 4:00:00 PM 10.42 50.756 0.157 7.2 8.44 11.1
11/12/2020 4:15:00 PM 10.39 50.702 0.156 7.19 8.87 11.08
11/12/2020 4:30:00 PM 10.35 50.63 0.156 7.19 8.54 11.04
11/12/2020 4:45:00 PM 10.31 50.558 0.156 7.18 9.22 11.02
11/12/2020 5:00:00 PM 10.26 50.468 0.155 7.17 9.03 10.99
11/12/2020 5:15:00 PM 10.21 50.378 0.155 7.16 8.76 10.98
11/12/2020 5:30:00 PM 10.16 50.288 0.155 7.16 8.63 10.94
11/12/2020 5:45:00 PM 10.12 50.216 0.154 7.16 8.7 10.94
11/12/2020 6:00:00 PM 10.07 50.126 0.154 7.15 8.72 10.92
11/12/2020 6:15:00 PM 10.03 50.054 0.154 7.15 8.78 10.92
11/12/2020 6:30:00 PM 9.99 49.982 0.154 7.14 8.15 10.92
11/12/2020 6:45:00 PM 9.94 49.892 0.154 7.13 8.42 10.91
11/12/2020 7:00:00 PM 9.9 49.82 0.154 7.14 8.91 10.91
11/12/2020 7:15:00 PM 9.86 49.748 0.154 7.11 8.51 10.91
11/12/2020 7:30:00 PM 9.82 49.676 0.154 7.1 8.43 10.92
11/12/2020 7:45:00 PM 9.78 49.604 0.154 7.07 8.64 10.91
11/12/2020 8:00:00 PM 9.74 49.532 0.154 7.03 8.3 10.92
11/12/2020 8:15:00 PM 9.7 49.46 0.154 7.02 8.24 10.92
11/12/2020 8:30:00 PM 9.67 49.406 0.154 7.02 7.96 10.93
11/12/2020 8:45:00 PM 9.64 49.352 0.154 7.05 8.05 10.93
11/12/2020 9:00:00 PM 9.6 49.28 0.154 7.06 8.06 10.94
11/12/2020 9:15:00 PM 9.57 49.226 0.154 7.08 7.57 10.94
11/12/2020 9:30:00 PM 9.53 49.154 0.153 7.08 7.68 10.95
11/12/2020 9:45:00 PM 9.5 49.1 0.153 7.07 7.57 10.95
11/12/2020 10:00:00 PM 9.47 49.046 0.153 7.08 7.89 10.95
11/12/2020 10:15:00 PM 9.43 48.974 0.154 7.09 7.65 10.96
11/12/2020 10:30:00 PM 9.41 48.938 0.153 7.1 8.1 10.96
11/12/2020 10:45:00 PM 9.38 48.884 0.153 7 7.65 10.96
11/12/2020 11:00:00 PM 9.36 48.848 0.153 6.97 7.9 10.97
11/12/2020 11:15:00 PM 9.36 48.848 0.153 6.98 7.71 10.97
11/12/2020 11:30:00 PM 9.36 48.848 0.153 6.99 7.58 10.97
11/12/2020 11:45:00 PM 9.36 48.848 0.153 7 7.67 10.97
11/13/2020 12:00:00 AM 9.36 48.848 0.153 7.01 7.38 10.97
11/13/2020 12:15:00 AM 9.35 48.83 0.154 7.03 7.57 10.97
11/13/2020 12:30:00 AM 9.35 48.83 0.154 7.06 7.22 10.97
11/13/2020 12:45:00 AM 9.34 48.812 0.154 7.07 7.42 10.97
11/13/2020 1:00:00 AM 9.33 48.794 0.154 7.08 6.9 10.96
11/13/2020 1:15:00 AM 9.32 48.776 0.154 7.08 7.26 10.96
11/13/2020 1:30:00 AM 9.31 48.758 0.154 7.06 7.31 10.96
11/13/2020 1:45:00 AM 9.3 48.74 0.154 7.08 7.31 10.95
11/13/2020 2:00:00 AM 9.29 48.722 0.154 7.08 7.06 10.95
11/13/2020 2:15:00 AM 9.28 48.704 0.154 7.05 7.54 10.95
11/13/2020 2:30:00 AM 9.27 48.686 0.154 7.07 7 10.95
11/13/2020 2:45:00 AM 9.25 48.65 0.154 7.07 7.18 10.95
11/13/2020 3:00:00 AM 9.24 48.632 0.155 7.06 7.12 10.95
11/13/2020 3:15:00 AM 9.22 48.596 0.155 7.06 7.06 10.96
11/13/2020 3:30:00 AM 9.2 48.56 0.155 7.05 7.08 10.96
11/13/2020 3:45:00 AM 9.19 48.542 0.155 7.06 6.97 10.96
11/13/2020 4:00:00 AM 9.17 48.506 0.155 7.06 6.98 10.96
11/13/2020 4:15:00 AM 9.16 48.488 0.156 7.07 7.27 10.96
11/13/2020 4:30:00 AM 9.14 48.452 0.156 7.06 7.07 10.96
11/13/2020 4:45:00 AM 9.13 48.434 0.156 7.07 7.28 10.96
11/13/2020 5:00:00 AM 9.11 48.398 0.156 7.07 7.01 10.96
11/13/2020 5:15:00 AM 9.1 48.38 0.156 7.07 6.98 10.96
11/13/2020 5:30:00 AM 9.08 48.344 0.157 7.07 7.17 10.96
11/13/2020 5:45:00 AM 9.07 48.326 0.157 7.08 6.88 10.96
11/13/2020 6:00:00 AM 9.06 48.308 0.157 7.08 7.44 10.96
11/13/2020 6:15:00 AM 9.04 48.272 0.157 7.07 7.25 10.96
11/13/2020 6:30:00 AM 9.03 48.254 0.157 7.08 6.81 10.96
11/13/2020 6:45:00 AM 9.02 48.236 0.157 7.07 7.08 10.96
11/13/2020 7:00:00 AM 9 48.2 0.157 7.08 6.95 10.97
11/13/2020 7:15:00 AM 8.99 48.182 0.157 7.07 6.93 10.97
11/13/2020 7:30:00 AM 8.98 48.164 0.157 7.09 6.58 10.99
11/13/2020 7:45:00 AM 8.98 48.164 0.157 7.1 6.64 11.01
11/13/2020 8:00:00 AM 8.99 48.182 0.157 7.11 6.91 11.05
11/13/2020 8:15:00 AM 9.02 48.236 0.157 7.14 10.66 11.11
11/13/2020 8:30:00 AM 9.01 48.218 0.157 7.16 9.84 11.12
11/13/2020 8:45:00 AM 9.02 48.236 0.157 7.18 6.74 11.14
11/13/2020 9:00:00 AM 9.06 48.308 0.157 7.2 6.87 11.19
11/13/2020 9:15:00 AM 9.09 48.362 0.157 7.22 6.26 11.24
11/13/2020 9:30:00 AM 9.12 48.416 0.157 7.24 9 11.27
11/13/2020 9:45:00 AM 9.18 48.5